Darstellungsparameter: Aktuell verwendete Einstellungen:
Skalierung der Graphiken ... ?
xyx+y,   Skalierungsfaktor:      Skalierung: Modus: x, Faktor: 1
Darstellungszeitraum ... ?
Vom - - bis: - -   Zeitraum: 15.09.2007 - 15.12.2007
Min/Max/Avg-Anzeige ... ?
Zeige MMA aktuell
Zeige MMA Monat
Zeige MMA alles
Zeige --A aktuell
Zeige --A Monat
Zeige --A alles
Keine MMA-Anzeige
MMA:
Average (ber die Originaldaten)
MMA-Basis: 17.04.2019 - 19.05.2019
Quicknavigation für Darstellung... ?
Tage:      1T, 2T, 3T, 5T -1T -2T -3T -5T +1T +2T +3T +5T
Wochen: 1W, 2W, 3W -1W -2W -3W +1W +2W +3W
Monate: 1M, 3M, 6M -1M -3M -6M +1M +3M +6M
Jahre:    1J, 3J, 5J, 10J -1J -3J -5J -10J +1J +3J +5J +10J
Nutze für die Darstellung ... ?
Originaldaten oder Mittelwerte auf ...
Stundenbasis Tagesbasis Wochenbasis
Monatsbasis Jahresbasis      Datenbasis: Original-Daten
Darstellen als:
Statistik (Auto) Statistik J:M      Darstellung:
Zur Graphik,    zurück zur Übersicht aller Sensoren.
 
Tabellarische Datenbersicht: ?
 
Sensor: Nr:Datum:Temp:Abs-Feuchte:Windchill:Wind:
Aussen-T/F 1 15-09-2007 00:03:02 17.9 C 8.86 g/m*3 17.9 C 0 km/h
2 15-09-2007 00:15:02 17.7 C 8.9 g/m*3 17.7 C 0 km/h
3 15-09-2007 00:27:02 17.5 C 8.8 g/m*3 17.5 C 0 km/h
4 15-09-2007 00:39:02 17.2 C 9.08 g/m*3 17.2 C 0 km/h
5 15-09-2007 00:51:02 16.6 C 9.61 g/m*3 16.6 C 0 km/h
6 15-09-2007 01:03:02 16.1 C 9.87 g/m*3 16.1 C 0 km/h
7 15-09-2007 01:15:01 15.8 C 10.1 g/m*3 15.8 C 0 km/h
8 15-09-2007 01:27:01 15.8 C 10.23 g/m*3 15.8 C 0 km/h
9 15-09-2007 01:39:01 15.8 C 10.1 g/m*3 15.8 C 0 km/h
10 15-09-2007 01:51:02 15.7 C 10.03 g/m*3 15.7 C 0 km/h
11 15-09-2007 02:03:02 15.6 C 9.97 g/m*3 15.6 C 0 km/h
12 15-09-2007 02:15:02 15.7 C 9.9 g/m*3 15.7 C 0 km/h
13 15-09-2007 02:27:02 15.5 C 9.78 g/m*3 15.5 C 0 km/h
14 15-09-2007 02:39:01 15.2 C 9.61 g/m*3 15.2 C 0 km/h
15 15-09-2007 02:52:10 15.2 C 9.61 g/m*3 15.2 C 0 km/h
16 15-09-2007 03:04:10 14.8 C 9.37 g/m*3 14.8 C 0 km/h
17 15-09-2007 03:16:10 14.7 C 9.44 g/m*3 14.7 C 0 km/h
18 15-09-2007 03:28:10 14.9 C 9.43 g/m*3 14.9 C 0 km/h
19 15-09-2007 03:40:03 15 C 9.36 g/m*3 15 C 0 km/h
20 15-09-2007 03:52:03 15 C 9.36 g/m*3 15 C 0 km/h
21 15-09-2007 04:04:03 14.6 C 9.26 g/m*3 14.6 C 0 km/h
22 15-09-2007 04:16:03 14.4 C 9.27 g/m*3 14.4 C 0 km/h
23 15-09-2007 04:28:03 14 C 9.17 g/m*3 14 C 0 km/h
24 15-09-2007 04:40:03 13.7 C 9.35 g/m*3 13.7 C 0 km/h
25 15-09-2007 04:52:03 13.5 C 9.24 g/m*3 13.5 C 0 km/h
Sensor: Nr:Datum:Temp:Abs-Feuchte:Windchill:Wind:
Aussen-T/F 26 15-09-2007 05:04:03 13.3 C 9.24 g/m*3 13.3 C 0 km/h
27 15-09-2007 05:16:03 13 C 9.07 g/m*3 13 C 0 km/h
28 15-09-2007 05:28:03 12.7 C 9.13 g/m*3 12.7 C 0 km/h
29 15-09-2007 05:40:02 12.5 C 9.02 g/m*3 12.5 C 0 km/h
30 15-09-2007 05:52:02 12.4 C 9.07 g/m*3 12.4 C 0 km/h
31 15-09-2007 06:04:01 12.3 C 9.01 g/m*3 12.3 C 0 km/h
32 15-09-2007 06:16:02 12.3 C 9.01 g/m*3 12.3 C 0 km/h
33 15-09-2007 06:28:02 12.1 C 9.01 g/m*3 12.1 C 0 km/h
34 15-09-2007 06:40:02 12 C 9.06 g/m*3 12 C 0 km/h
35 15-09-2007 06:52:02 11.8 C 9.05 g/m*3 11.8 C 0 km/h
36 15-09-2007 07:04:02 11.6 C 8.94 g/m*3 11.6 C 0 km/h
37 15-09-2007 07:16:03 11.5 C 8.88 g/m*3 11.5 C 0 km/h
38 15-09-2007 07:28:03 11.5 C 8.99 g/m*3 11.5 C 0 km/h
39 15-09-2007 07:40:02 11.4 C 8.93 g/m*3 11.4 C 0 km/h
40 15-09-2007 07:52:02 11.2 C 8.82 g/m*3 11.2 C 0 km/h
41 15-09-2007 08:04:02 11.3 C 8.87 g/m*3 11.3 C 0 km/h
42 15-09-2007 08:16:01 11.4 C 8.93 g/m*3 11.4 C 0 km/h
43 15-09-2007 08:28:01 11.5 C 9.09 g/m*3 11.5 C 0 km/h
44 15-09-2007 08:40:02 11.8 C 9.16 g/m*3 11.8 C 0 km/h
45 15-09-2007 08:52:02 12.2 C 9.39 g/m*3 12.2 C 0 km/h
46 15-09-2007 09:04:01 12.2 C 9.17 g/m*3 12.2 C 0 km/h
47 15-09-2007 09:16:01 12.5 C 9.35 g/m*3 12.5 C 0 km/h
48 15-09-2007 09:28:01 13.4 C 9.76 g/m*3 13.4 C 0 km/h
49 15-09-2007 09:40:02 13.8 C 9.53 g/m*3 13.8 C 0 km/h
50 15-09-2007 09:52:02 14.5 C 9.45 g/m*3 14.5 C 0 km/h
Sensor: Nr:Datum:Temp:Abs-Feuchte:Windchill:Wind:
Aussen-T/F 51 15-09-2007 10:04:02 15.4 C 9.46 g/m*3 15.4 C 0 km/h
52 15-09-2007 10:16:02 15.8 C 9.02 g/m*3 15.8 C 0 km/h
53 15-09-2007 10:28:02 15.2 C 8.7 g/m*3 15.2 C 0 km/h
54 15-09-2007 10:40:02 15.8 C 8.62 g/m*3 15.8 C 0 km/h
55 15-09-2007 10:52:02 16.2 C 8.14 g/m*3 16.2 C 0 km/h
56 15-09-2007 11:04:02 17.1 C 7.86 g/m*3 17.1 C 0 km/h
57 15-09-2007 11:16:01 17.4 C 7.71 g/m*3 17.4 C 0 km/h
58 15-09-2007 11:28:01 17.5 C 7.45 g/m*3 17.5 C 0 km/h
59 15-09-2007 11:40:02 17 C 7.09 g/m*3 17 C 0 km/h
60 15-09-2007 11:52:03 16.4 C 6.84 g/m*3 16.4 C 0 km/h
61 15-09-2007 12:04:02 16.8 C 7.43 g/m*3 16.8 C 0 km/h
62 15-09-2007 12:16:02 18.2 C 7.31 g/m*3 18.2 C 0 km/h
63 15-09-2007 12:28:02 18.9 C 7.29 g/m*3 18.9 C 0 km/h
64 15-09-2007 12:40:03 18.9 C 7.13 g/m*3 18.9 C 0 km/h
65 15-09-2007 12:52:02 19.2 C 6.93 g/m*3 19.2 C 0 km/h
66 15-09-2007 13:04:02 19.5 C 6.71 g/m*3 19.5 C 0 km/h
67 15-09-2007 13:16:02 20.3 C 6.86 g/m*3 20.3 C 0 km/h
68 15-09-2007 13:28:02 20.9 C 6.56 g/m*3 20.9 C 0 km/h
69 15-09-2007 13:40:02 21.5 C 6.6 g/m*3 21.5 C 0 km/h
70 15-09-2007 13:52:02 21.1 C 5.9 g/m*3 21.1 C 0 km/h
71 15-09-2007 14:04:02 21.7 C 5.72 g/m*3 21.7 C 0 km/h
72 15-09-2007 14:16:01 22.6 C 6.03 g/m*3 22.6 C 0 km/h
73 15-09-2007 14:28:01 22.8 C 5.49 g/m*3 22.8 C 0 km/h
74 15-09-2007 14:40:02 21.9 C 5.79 g/m*3 21.9 C 0 km/h
75 15-09-2007 14:52:03 21.7 C 5.53 g/m*3 21.7 C 0 km/h
Sensor: Nr:Datum:Temp:Abs-Feuchte:Windchill:Wind:
Aussen-T/F 76 15-09-2007 15:04:02 21.7 C 4.96 g/m*3 21.7 C 0 km/h
77 15-09-2007 15:16:02 22.6 C 5.02 g/m*3 22.6 C 0 km/h
78 15-09-2007 15:28:02 22.6 C 5.02 g/m*3 22.6 C 0 km/h
79 15-09-2007 15:40:03 22.2 C 5.3 g/m*3 22.2 C 0 km/h
80 15-09-2007 15:52:02 23 C 5.34 g/m*3 23 C 0 km/h
81 15-09-2007 16:04:02 23.3 C 5.44 g/m*3 23.3 C 0 km/h
82 15-09-2007 16:16:02 23.1 C 5.17 g/m*3 23.1 C 0 km/h
83 15-09-2007 16:28:02 24.1 C 5.69 g/m*3 24.1 C 0 km/h
84 15-09-2007 16:40:02 24.4 C 5.56 g/m*3 24.4 C 0 km/h
85 15-09-2007 16:52:02 23.9 C 5.41 g/m*3 23.9 C 0 km/h
86 15-09-2007 17:04:02 24 C 5 g/m*3 24 C 0 km/h
87 15-09-2007 17:16:02 24.1 C 5.03 g/m*3 24.1 C 0 km/h
88 15-09-2007 17:28:02 25 C 5.52 g/m*3 25 C 0 km/h
89 15-09-2007 17:40:02 25 C 5.29 g/m*3 25 C 0 km/h
90 15-09-2007 17:52:02 25.6 C 5.24 g/m*3 25.6 C 0 km/h
91 15-09-2007 18:04:02 25.5 C 5.45 g/m*3 25.5 C 0 km/h
92 15-09-2007 18:16:02 25.5 C 5.45 g/m*3 25.5 C 0 km/h
93 15-09-2007 18:28:02 24.8 C 5.69 g/m*3 24.8 C 0 km/h
94 15-09-2007 18:40:02 24.7 C 5.66 g/m*3 24.7 C 0 km/h
95 15-09-2007 18:52:02 24.1 C 5.91 g/m*3 24.1 C 0 km/h
96 15-09-2007 19:04:02 23.3 C 6.27 g/m*3 23.3 C 0 km/h
97 15-09-2007 19:16:02 21.7 C 6.29 g/m*3 21.7 C 0 km/h
98 15-09-2007 19:28:02 20 C 6.39 g/m*3 20 C 0 km/h
99 15-09-2007 19:40:02 18.6 C 6.53 g/m*3 18.6 C 0 km/h
100 15-09-2007 19:52:02 17.8 C 6.53 g/m*3 17.8 C 0 km/h
Sensor: Nr:Datum:Temp:Abs-Feuchte:Windchill:Wind:
Aussen-T/F 101 15-09-2007 20:04:02 17.2 C 6.3 g/m*3 17.2 C 0 km/h
102 15-09-2007 20:16:02 16.6 C 6.5 g/m*3 16.6 C 0 km/h
103 15-09-2007 20:28:02 16 C 6.4 g/m*3 16 C 0 km/h
104 15-09-2007 20:40:02 15.8 C 6.73 g/m*3 15.8 C 0 km/h
105 15-09-2007 20:52:02 15.4 C 6.7 g/m*3 15.4 C 0 km/h
106 15-09-2007 21:04:03 15.1 C 6.71 g/m*3 15.1 C 0 km/h
107 15-09-2007 21:16:02 14.8 C 6.97 g/m*3 14.8 C 0 km/h
108 15-09-2007 21:28:03 14.4 C 6.8 g/m*3 14.4 C 0 km/h
109 15-09-2007 21:40:02 14.1 C 6.92 g/m*3 14.1 C 0 km/h
110 15-09-2007 21:52:02 13.9 C 6.95 g/m*3 13.9 C 0 km/h
111 15-09-2007 22:04:03 13.7 C 6.99 g/m*3 13.7 C 0 km/h
112 15-09-2007 22:16:02 13.4 C 7.09 g/m*3 13.4 C 0 km/h
113 15-09-2007 22:28:02 13.3 C 7.16 g/m*3 13.3 C 0 km/h
114 15-09-2007 22:40:02 13 C 7.14 g/m*3 13 C 0 km/h
115 15-09-2007 22:52:01 12.8 C 7.28 g/m*3 12.8 C 0 km/h
116 15-09-2007 23:04:02 12.5 C 7.26 g/m*3 12.5 C 0 km/h
117 15-09-2007 23:16:02 12.3 C 7.28 g/m*3 12.3 C 0 km/h
118 15-09-2007 23:28:02 12 C 7.14 g/m*3 12 C 0 km/h
119 15-09-2007 23:40:01 11.9 C 7.31 g/m*3 11.9 C 0 km/h
120 15-09-2007 23:52:02 11.6 C 7.28 g/m*3 11.6 C 0 km/h
121 16-09-2007 00:04:02 11.6 C 7.28 g/m*3 11.6 C 0 km/h
122 16-09-2007 00:16:03 11.3 C 7.24 g/m*3 11.3 C 0 km/h
123 16-09-2007 00:28:03 11.2 C 7.3 g/m*3 11.2 C 0 km/h
124 16-09-2007 00:40:02 11 C 7.21 g/m*3 11 C 0 km/h
125 16-09-2007 00:52:02 10.8 C 7.31 g/m*3 10.8 C 0 km/h
Sensor: Nr:Datum:Temp:Abs-Feuchte:Windchill:Wind:
Aussen-T/F 126 16-09-2007 01:04:02 10.7 C 7.37 g/m*3 10.7 C 0 km/h
127 16-09-2007 01:16:02 10.5 C 7.27 g/m*3 10.5 C 0 km/h
128 16-09-2007 01:28:02 10.5 C 7.27 g/m*3 10.5 C 0 km/h
129 16-09-2007 01:40:01 10.3 C 7.18 g/m*3 10.3 C 0 km/h
130 16-09-2007 01:52:03 10.1 C 7.19 g/m*3 10.1 C 0 km/h
131 16-09-2007 02:04:03 10 C 7.24 g/m*3 10 C 0 km/h
132 16-09-2007 02:16:03 9.7 C 7.19 g/m*3 9.7 C 0 km/h
133 16-09-2007 02:28:03 9.6 C 7.24 g/m*3 9.6 C 0 km/h
134 16-09-2007 02:40:03 9.5 C 7.1 g/m*3 9.5 C 0 km/h
135 16-09-2007 02:53:04 9.3 C 7.1 g/m*3 9.3 C 0 km/h
136 16-09-2007 03:05:04 9.3 C 7.19 g/m*3 9.3 C 0 km/h
137 16-09-2007 03:17:03 9.2 C 7.14 g/m*3 9.2 C 0 km/h
138 16-09-2007 03:29:03 9 C 7.05 g/m*3 9 C 0 km/h
139 16-09-2007 03:41:03 8.9 C 7.18 g/m*3 8.9 C 0 km/h
140 16-09-2007 03:53:03 8.9 C 7.27 g/m*3 8.9 C 0 km/h
141 16-09-2007 04:05:03 8.7 C 7.18 g/m*3 8.7 C 0 km/h
142 16-09-2007 04:17:03 8.7 C 7.18 g/m*3 8.7 C 0 km/h
143 16-09-2007 04:29:03 8.6 C 7.22 g/m*3 8.6 C 0 km/h
144 16-09-2007 04:41:02 8.6 C 7.22 g/m*3 8.6 C 0 km/h
145 16-09-2007 04:53:02 8.7 C 7.26 g/m*3 8.7 C 0 km/h
146 16-09-2007 05:05:01 8.8 C 7.31 g/m*3 8.8 C 0 km/h
147 16-09-2007 05:17:02 8.8 C 7.31 g/m*3 8.8 C 0 km/h
148 16-09-2007 05:29:02 8.7 C 7.18 g/m*3 8.7 C 0 km/h
149 16-09-2007 05:41:02 8.7 C 7.18 g/m*3 8.7 C 0 km/h
150 16-09-2007 05:53:02 8.5 C 7.09 g/m*3 8.5 C 0 km/h
Sensor: Nr:Datum:Temp:Abs-Feuchte:Windchill:Wind:
Aussen-T/F 151 16-09-2007 06:05:03 8.4 C 7.13 g/m*3 8.4 C 0 km/h
152 16-09-2007 06:17:02 8.3 C 7.08 g/m*3 8.3 C 0 km/h
153 16-09-2007 06:29:02 8.2 C 7.12 g/m*3 8.2 C 0 km/h
154 16-09-2007 06:41:02 8.2 C 7.2 g/m*3 8.2 C 0 km/h
155 16-09-2007 06:53:01 8.1 C 7.07 g/m*3 8.1 C 0 km/h
156 16-09-2007 07:05:02 8 C 7.03 g/m*3 8 C 0 km/h
157 16-09-2007 07:17:02 8 C 7.03 g/m*3 8 C 0 km/h
158 16-09-2007 07:29:02 8.1 C 7.07 g/m*3 8.1 C 0 km/h
159 16-09-2007 07:41:01 8 C 7.03 g/m*3 8 C 0 km/h
160 16-09-2007 07:53:02 8 C 7.03 g/m*3 8 C 0 km/h
161 16-09-2007 08:05:01 8 C 7.03 g/m*3 8 C 0 km/h
162 16-09-2007 08:17:02 8 C 7.03 g/m*3 8 C 0 km/h
163 16-09-2007 08:29:02 8.1 C 7.07 g/m*3 8.1 C 0 km/h
164 16-09-2007 08:41:01 8.2 C 7.12 g/m*3 8.2 C 0 km/h
165 16-09-2007 08:53:02 8.4 C 7.21 g/m*3 8.4 C 0 km/h
166 16-09-2007 09:05:01 8.5 C 7.26 g/m*3 8.5 C 0 km/h
167 16-09-2007 09:17:02 8.7 C 7.35 g/m*3 8.7 C 0 km/h
168 16-09-2007 09:29:02 9 C 7.41 g/m*3 9 C 0 km/h
169 16-09-2007 09:41:02 9.3 C 7.55 g/m*3 9.3 C 0 km/h
170 16-09-2007 09:53:02 9.9 C 7.75 g/m*3 9.9 C 0 km/h
171 16-09-2007 10:05:02 10.4 C 7.71 g/m*3 10.4 C 0 km/h
172 16-09-2007 10:17:02 11 C 7.81 g/m*3 11 C 0 km/h
173 16-09-2007 10:29:02 11.8 C 8 g/m*3 11.8 C 0 km/h
174 16-09-2007 10:41:02 12.5 C 8.03 g/m*3 12.5 C 0 km/h
175 16-09-2007 10:53:01 13.1 C 8.1 g/m*3 13.1 C 0 km/h
Sensor: Nr:Datum:Temp:Abs-Feuchte:Windchill:Wind:
Aussen-T/F 176 16-09-2007 11:05:02 13.7 C 8.41 g/m*3 13.7 C 0 km/h
177 16-09-2007 11:17:02 14.4 C 8.78 g/m*3 14.4 C 0 km/h
178 16-09-2007 11:29:02 15.1 C 8.39 g/m*3 15.1 C 0 km/h
179 16-09-2007 11:41:02 16.4 C 7.96 g/m*3 16.4 C 0 km/h
180 16-09-2007 11:53:02 17.2 C 7.91 g/m*3 17.2 C 0 km/h
181 16-09-2007 12:05:02 17.9 C 7.94 g/m*3 17.9 C 0 km/h
182 16-09-2007 12:17:02 18.3 C 7.82 g/m*3 18.3 C 0 km/h
183 16-09-2007 12:29:02 18.7 C 7.84 g/m*3 18.7 C 0 km/h
184 16-09-2007 12:41:02 19.2 C 7.91 g/m*3 19.2 C 0 km/h
185 16-09-2007 12:53:02 19.7 C 7.98 g/m*3 19.7 C 0 km/h
186 16-09-2007 13:05:01 20.2 C 7.87 g/m*3 20.2 C 0 km/h
187 16-09-2007 13:17:01 20.3 C 7.74 g/m*3 20.3 C 0 km/h
188 16-09-2007 13:29:01 20.8 C 7.6 g/m*3 20.8 C 0 km/h
189 16-09-2007 13:41:02 21.2 C 7.41 g/m*3 21.2 C 0 km/h
190 16-09-2007 13:53:02 21.6 C 7.4 g/m*3 21.6 C 0 km/h
191 16-09-2007 14:05:02 22 C 7.18 g/m*3 22 C 0 km/h
192 16-09-2007 14:17:02 22.4 C 7.15 g/m*3 22.4 C 0 km/h
193 16-09-2007 14:29:02 22.7 C 7.27 g/m*3 22.7 C 0 km/h
194 16-09-2007 14:41:02 23.1 C 7.23 g/m*3 23.1 C 0 km/h
195 16-09-2007 14:53:02 23.6 C 7.44 g/m*3 23.6 C 0 km/h
196 16-09-2007 15:05:02 23.7 C 7.06 g/m*3 23.7 C 0 km/h
197 16-09-2007 15:17:01 24.2 C 6.82 g/m*3 24.2 C 0 km/h
198 16-09-2007 15:29:01 24 C 6.74 g/m*3 24 C 0 km/h
199 16-09-2007 15:41:02 24.1 C 7 g/m*3 24.1 C 0 km/h
200 16-09-2007 15:53:03 24.3 C 6.86 g/m*3 24.3 C 0 km/h
Sensor: Nr:Datum:Temp:Abs-Feuchte:Windchill:Wind:
Aussen-T/F 201 16-09-2007 16:05:02 24.4 C 7.12 g/m*3 24.4 C 0 km/h
202 16-09-2007 16:17:02 25 C 6.91 g/m*3 25 C 0 km/h
203 16-09-2007 16:29:02 23.7 C 7.06 g/m*3 23.7 C 0 km/h
204 16-09-2007 16:41:03 24.6 C 7.2 g/m*3 24.6 C 0 km/h
205 16-09-2007 16:53:03 23.8 C 7.31 g/m*3 23.8 C 0 km/h
206 16-09-2007 17:05:02 24 C 7.18 g/m*3 24 C 0 km/h
207 16-09-2007 17:17:02 23.7 C 7.27 g/m*3 23.7 C 0 km/h
208 16-09-2007 17:29:02 24.7 C 7.24 g/m*3 24.7 C 0 km/h
209 16-09-2007 17:41:02 23.6 C 7.44 g/m*3 23.6 C 0 km/h
210 16-09-2007 17:53:02 24 C 7.18 g/m*3 24 C 0 km/h
211 16-09-2007 18:05:03 24.2 C 7.7 g/m*3 24.2 C 0 km/h
212 16-09-2007 18:17:02 24.3 C 7.08 g/m*3 24.3 C 0 km/h
213 16-09-2007 18:29:03 24.6 C 7.88 g/m*3 24.6 C 0 km/h
214 16-09-2007 18:41:02 24.4 C 7.79 g/m*3 24.4 C 0 km/h
215 16-09-2007 18:53:02 23.7 C 7.91 g/m*3 23.7 C 0 km/h
216 16-09-2007 19:05:03 23.3 C 7.95 g/m*3 23.3 C 0 km/h
217 16-09-2007 19:17:02 22.6 C 8.44 g/m*3 22.6 C 0 km/h
218 16-09-2007 19:29:02 21.3 C 8.39 g/m*3 21.3 C 0 km/h
219 16-09-2007 19:41:02 20.4 C 8.49 g/m*3 20.4 C 0 km/h
220 16-09-2007 19:53:01 19.6 C 8.61 g/m*3 19.6 C 0 km/h
221 16-09-2007 20:05:02 19.1 C 8.85 g/m*3 19.1 C 0 km/h
222 16-09-2007 20:17:01 18.9 C 8.75 g/m*3 18.9 C 0 km/h
223 16-09-2007 20:29:01 18.7 C 8.81 g/m*3 18.7 C 0 km/h
224 16-09-2007 20:41:01 18.4 C 8.97 g/m*3 18.4 C 0 km/h
225 16-09-2007 20:53:01 18.2 C 9.01 g/m*3 18.2 C 0 km/h
Sensor: Nr:Datum:Temp:Abs-Feuchte:Windchill:Wind:
Aussen-T/F 226 16-09-2007 21:05:02 18 C 8.91 g/m*3 18 C 0 km/h
227 16-09-2007 21:17:02 17.7 C 9.2 g/m*3 17.7 C 0 km/h
228 16-09-2007 21:29:03 17.4 C 9.19 g/m*3 17.4 C 0 km/h
229 16-09-2007 21:41:01 17.1 C 9.32 g/m*3 17.1 C 0 km/h
230 16-09-2007 21:53:02 16.9 C 9.49 g/m*3 16.9 C 0 km/h
231 16-09-2007 22:05:02 16.7 C 9.52 g/m*3 16.7 C 0 km/h
232 16-09-2007 22:17:02 16.6 C 9.46 g/m*3 16.6 C 0 km/h
233 16-09-2007 22:29:02 16.5 C 9.55 g/m*3 16.5 C 0 km/h
234 16-09-2007 22:41:02 16.2 C 9.52 g/m*3 16.2 C 0 km/h
235 16-09-2007 22:53:02 16 C 9.4 g/m*3 16 C 0 km/h
236 16-09-2007 23:05:03 15.8 C 9.56 g/m*3 15.8 C 0 km/h
237 16-09-2007 23:17:02 15.6 C 9.58 g/m*3 15.6 C 0 km/h
238 16-09-2007 23:29:02 15.3 C 9.53 g/m*3 15.3 C 0 km/h
239 16-09-2007 23:41:02 15.2 C 9.48 g/m*3 15.2 C 0 km/h
240 16-09-2007 23:53:01 15 C 9.36 g/m*3 15 C 0 km/h
241 17-09-2007 00:05:02 14.8 C 9.5 g/m*3 14.8 C 0 km/h
242 17-09-2007 00:17:02 14.7 C 9.57 g/m*3 14.7 C 0 km/h
243 17-09-2007 00:29:02 14.6 C 9.76 g/m*3 14.6 C 0 km/h
244 17-09-2007 00:41:01 14.4 C 9.64 g/m*3 14.4 C 0 km/h
245 17-09-2007 00:53:02 14.3 C 9.58 g/m*3 14.3 C 0 km/h
246 17-09-2007 01:05:02 14.2 C 9.65 g/m*3 14.2 C 0 km/h
247 17-09-2007 01:17:02 14.1 C 9.59 g/m*3 14.1 C 0 km/h
248 17-09-2007 01:29:02 13.9 C 9.71 g/m*3 13.9 C 0 km/h
249 17-09-2007 01:41:02 13.8 C 9.65 g/m*3 13.8 C 0 km/h
250 17-09-2007 01:53:02 13.7 C 9.59 g/m*3 13.7 C 0 km/h
Sensor: Nr:Datum:Temp:Abs-Feuchte:Windchill:Wind:
Aussen-T/F 251 17-09-2007 02:05:02 13.6 C 9.53 g/m*3 13.6 C 0 km/h
252 17-09-2007 02:17:02 13.5 C 9.47 g/m*3 13.5 C 0 km/h
253 17-09-2007 02:29:02 13.4 C 9.42 g/m*3 13.4 C 0 km/h
254 17-09-2007 02:41:02 13.3 C 9.47 g/m*3 13.3 C 0 km/h
255 17-09-2007 02:53:01 13.2 C 9.42 g/m*3 13.2 C 0 km/h
256 17-09-2007 03:05:01 13.2 C 9.42 g/m*3 13.2 C 0 km/h
257 17-09-2007 03:17:02 13 C 9.3 g/m*3 13 C 0 km/h
258 17-09-2007 03:29:02 12.9 C 9.35 g/m*3 12.9 C 0 km/h
259 17-09-2007 03:41:02 12.8 C 9.3 g/m*3 12.8 C 0 km/h
260 17-09-2007 03:53:02 12.7 C 9.35 g/m*3 12.7 C 0 km/h
261 17-09-2007 04:05:01 12.6 C 9.29 g/m*3 12.6 C 0 km/h
262 17-09-2007 04:17:01 12.5 C 9.24 g/m*3 12.5 C 0 km/h
263 17-09-2007 04:29:02 12.4 C 9.29 g/m*3 12.4 C 0 km/h
264 17-09-2007 04:41:01 12.3 C 9.23 g/m*3 12.3 C 0 km/h
265 17-09-2007 04:53:01 12.3 C 9.23 g/m*3 12.3 C 0 km/h
266 17-09-2007 05:05:01 12.2 C 9.28 g/m*3 12.2 C 0 km/h
267 17-09-2007 05:17:01 12.5 C 9.57 g/m*3 12.5 C 0 km/h
268 17-09-2007 05:29:02 12.6 C 9.74 g/m*3 12.6 C 0 km/h
269 17-09-2007 05:41:02 12.5 C 9.68 g/m*3 12.5 C 0 km/h
270 17-09-2007 05:53:02 12.8 C 9.97 g/m*3 12.8 C 0 km/h
271 17-09-2007 06:05:01 12.9 C 10.03 g/m*3 12.9 C 0 km/h
272 17-09-2007 06:17:01 12.8 C 9.97 g/m*3 12.8 C 0 km/h
273 17-09-2007 06:29:01 12.8 C 9.86 g/m*3 12.8 C 0 km/h
274 17-09-2007 06:41:02 12.7 C 9.8 g/m*3 12.7 C 0 km/h
275 17-09-2007 06:53:02 12 C 9.27 g/m*3 12 C 0 km/h
Sensor: Nr:Datum:Temp:Abs-Feuchte:Windchill:Wind:
Aussen-T/F 276 17-09-2007 07:05:01 11.6 C 9.15 g/m*3 11.6 C 0 km/h
277 17-09-2007 07:17:01 11.4 C 9.14 g/m*3 11.4 C 0 km/h
278 17-09-2007 07:29:01 11.4 C 9.14 g/m*3 11.4 C 0 km/h
279 17-09-2007 07:41:02 11.4 C 9.14 g/m*3 11.4 C 0 km/h
280 17-09-2007 07:53:02 11.5 C 9.19 g/m*3 11.5 C 0 km/h
281 17-09-2007 08:05:01 11.8 C 9.37 g/m*3 11.8 C 0 km/h
282 17-09-2007 08:17:01 12 C 9.48 g/m*3 12 C 0 km/h
283 17-09-2007 08:29:01 12.1 C 9.54 g/m*3 12.1 C 0 km/h
284 17-09-2007 08:41:02 12.2 C 9.5 g/m*3 12.2 C 0 km/h
285 17-09-2007 08:53:02 12.4 C 9.62 g/m*3 12.4 C 0 km/h
286 17-09-2007 09:05:01 12.6 C 9.74 g/m*3 12.6 C 0 km/h
287 17-09-2007 09:17:01 13 C 9.87 g/m*3 13 C 0 km/h
288 17-09-2007 09:29:01 13.4 C 10.11 g/m*3 13.4 C 0 km/h
289 17-09-2007 09:41:02 14 C 10.13 g/m*3 14 C 0 km/h
290 17-09-2007 09:53:02 14.4 C 10.14 g/m*3 14.4 C 0 km/h
291 17-09-2007 10:05:01 14.9 C 10.07 g/m*3 14.9 C 0 km/h
292 17-09-2007 10:17:01 15.5 C 10.18 g/m*3 15.5 C 0 km/h
293 17-09-2007 10:29:01 16.4 C 10.19 g/m*3 16.4 C 0 km/h
294 17-09-2007 10:41:02 17 C 10.13 g/m*3 17 C 0 km/h
295 17-09-2007 10:53:02 17.7 C 10.56 g/m*3 17.7 C 0 km/h
296 17-09-2007 11:05:01 18.5 C 10.13 g/m*3 18.5 C 0 km/h
297 17-09-2007 11:17:01 19.1 C 10.33 g/m*3 19.1 C 0 km/h
298 17-09-2007 11:29:01 19.7 C 10.19 g/m*3 19.7 C 0 km/h
299 17-09-2007 11:41:02 20.1 C 9.73 g/m*3 20.1 C 0 km/h
300 17-09-2007 11:53:02 20.4 C 9.73 g/m*3 20.4 C 0 km/h
Sensor: Nr:Datum:Temp:Abs-Feuchte:Windchill:Wind:
Aussen-T/F 301 17-09-2007 12:05:01 20.6 C 9.13 g/m*3 20.6 C 0 km/h
302 17-09-2007 12:17:01 20.6 C 9.49 g/m*3 20.6 C 0 km/h
303 17-09-2007 12:29:01 20.4 C 9.02 g/m*3 20.4 C 0 km/h
304 17-09-2007 12:41:02 20.5 C 8.9 g/m*3 20.5 C 0 km/h
305 17-09-2007 12:53:02 21.2 C 8.71 g/m*3 21.2 C 0 km/h
306 17-09-2007 13:05:01 21.6 C 8.53 g/m*3 21.6 C 0 km/h
307 17-09-2007 13:17:01 21.6 C 8.35 g/m*3 21.6 C 0 km/h
308 17-09-2007 13:29:01 21.9 C 8.49 g/m*3 21.9 C 0 km/h
309 17-09-2007 13:41:02 22.3 C 8.29 g/m*3 22.3 C 0 km/h
310 17-09-2007 13:53:02 22 C 8.35 g/m*3 22 C 0 km/h
311 17-09-2007 14:05:01 22.1 C 8.39 g/m*3 22.1 C 0 km/h
312 17-09-2007 14:17:01 22.4 C 8.54 g/m*3 22.4 C 0 km/h
313 17-09-2007 14:29:01 22.4 C 8.54 g/m*3 22.4 C 0 km/h
314 17-09-2007 14:41:02 22.9 C 8.58 g/m*3 22.9 C 0 km/h
315 17-09-2007 14:53:02 22.6 C 8.64 g/m*3 22.6 C 0 km/h
316 17-09-2007 15:05:01 22.8 C 8.74 g/m*3 22.8 C 0 km/h
317 17-09-2007 15:17:01 23.2 C 8.52 g/m*3 23.2 C 0 km/h
318 17-09-2007 15:29:01 23.4 C 8.41 g/m*3 23.4 C 0 km/h
319 17-09-2007 15:41:02 23.7 C 8.56 g/m*3 23.7 C 0 km/h
320 17-09-2007 15:53:02 23.4 C 8.41 g/m*3 23.4 C 0 km/h
321 17-09-2007 16:05:02 23 C 8.63 g/m*3 23 C 0 km/h
322 17-09-2007 16:17:01 23 C 8.63 g/m*3 23 C 0 km/h
323 17-09-2007 16:29:01 22.5 C 8.99 g/m*3 22.5 C 0 km/h
324 17-09-2007 16:41:02 22.2 C 9.03 g/m*3 22.2 C 0 km/h
325 17-09-2007 16:53:02 22.1 C 9.17 g/m*3 22.1 C 0 km/h
Sensor: Nr:Datum:Temp:Abs-Feuchte:Windchill:Wind:
Aussen-T/F 326 17-09-2007 17:05:02 22.2 C 9.42 g/m*3 22.2 C 0 km/h
327 17-09-2007 17:17:01 22 C 9.51 g/m*3 22 C 0 km/h
328 17-09-2007 17:29:01 21.7 C 9.73 g/m*3 21.7 C 0 km/h
329 17-09-2007 17:41:01 21.6 C 9.86 g/m*3 21.6 C 0 km/h
330 17-09-2007 17:53:01 21.4 C 9.75 g/m*3 21.4 C 0 km/h
331 17-09-2007 18:05:02 21.3 C 9.88 g/m*3 21.3 C 0 km/h
332 17-09-2007 18:17:01 21 C 9.89 g/m*3 21 C 0 km/h
333 17-09-2007 18:29:01 20.7 C 10.08 g/m*3 20.7 C 0 km/h
334 17-09-2007 18:41:01 20.4 C 10.08 g/m*3 20.4 C 0 km/h
335 17-09-2007 18:53:01 20.2 C 10.14 g/m*3 20.2 C 0 km/h
336 17-09-2007 19:05:02 20 C 10.2 g/m*3 20 C 0 km/h
337 17-09-2007 19:17:01 19.9 C 10.48 g/m*3 19.9 C 0 km/h
338 17-09-2007 19:29:02 19.8 C 10.59 g/m*3 19.8 C 0 km/h
339 17-09-2007 19:41:01 19.7 C 10.53 g/m*3 19.7 C 0 km/h
340 17-09-2007 19:53:01 19.5 C 10.57 g/m*3 19.5 C 0 km/h
341 17-09-2007 20:05:02 19.4 C 10.68 g/m*3 19.4 C 0 km/h
342 17-09-2007 20:17:01 19.2 C 10.72 g/m*3 19.2 C 0 km/h
343 17-09-2007 20:29:02 18.5 C 10.13 g/m*3 18.5 C 0 km/h
344 17-09-2007 20:41:01 16.8 C 10.72 g/m*3 16.8 C 0 km/h
345 17-09-2007 20:53:01 15.9 C 11.24 g/m*3 15.9 C 0 km/h
346 17-09-2007 21:05:02 15.6 C 11.57 g/m*3 15.6 C 0 km/h
347 17-09-2007 21:17:01 15.4 C 11.69 g/m*3 15.4 C 0 km/h
348 17-09-2007 21:29:01 15.3 C 11.75 g/m*3 15.3 C 0 km/h
349 17-09-2007 21:41:01 15.3 C 11.75 g/m*3 15.3 C 0 km/h
350 17-09-2007 21:53:02 15.2 C 11.81 g/m*3 15.2 C 0 km/h
Sensor: Nr:Datum:Temp:Abs-Feuchte:Windchill:Wind:
Aussen-T/F 351 17-09-2007 22:05:01 15.1 C 11.74 g/m*3 15.1 C 0 km/h
352 17-09-2007 22:17:01 14.9 C 11.73 g/m*3 14.9 C 0 km/h
353 17-09-2007 22:29:01 14.6 C 11.39 g/m*3 14.6 C 0 km/h
354 17-09-2007 22:41:02 14.2 C 10.99 g/m*3 14.2 C 0 km/h
355 17-09-2007 22:53:01 14.2 C 10.99 g/m*3 14.2 C 0 km/h
356 17-09-2007 23:05:02 14.2 C 10.99 g/m*3 14.2 C 0 km/h
357 17-09-2007 23:17:01 14.1 C 10.92 g/m*3 14.1 C 0 km/h
358 17-09-2007 23:29:01 14.2 C 10.99 g/m*3 14.2 C 0 km/h
359 17-09-2007 23:41:01 14.2 C 10.87 g/m*3 14.2 C 0 km/h
360 17-09-2007 23:53:02 14 C 10.74 g/m*3 14 C 0 km/h
361 18-09-2007 00:05:01 14 C 10.74 g/m*3 14 C 0 km/h
362 18-09-2007 00:17:02 13.8 C 10.6 g/m*3 13.8 C 0 km/h
363 18-09-2007 00:29:02 13.8 C 10.6 g/m*3 13.8 C 0 km/h
364 18-09-2007 00:41:02 13.8 C 10.6 g/m*3 13.8 C 0 km/h
365 18-09-2007 00:53:01 13.8 C 10.48 g/m*3 13.8 C 0 km/h
366 18-09-2007 01:05:01 13.9 C 10.43 g/m*3 13.9 C 0 km/h
367 18-09-2007 01:17:02 13.8 C 10.37 g/m*3 13.8 C 0 km/h
368 18-09-2007 01:29:02 13.6 C 10.12 g/m*3 13.6 C 0 km/h
369 18-09-2007 01:41:02 13.7 C 10.3 g/m*3 13.7 C 0 km/h
370 18-09-2007 01:53:02 13.5 C 10.18 g/m*3 13.5 C 0 km/h
371 18-09-2007 02:05:01 13.3 C 10.05 g/m*3 13.3 C 0 km/h
372 18-09-2007 02:17:02 13 C 9.98 g/m*3 13 C 0 km/h
373 18-09-2007 02:29:02 12.5 C 9.78 g/m*3 12.5 C 0 km/h
374 18-09-2007 02:41:02 12.5 C 9.78 g/m*3 12.5 C 0 km/h
375 18-09-2007 02:54:05 12 C 9.48 g/m*3 12 C 0 km/h
Sensor: Nr:Datum:Temp:Abs-Feuchte:Windchill:Wind:
Aussen-T/F 376 18-09-2007 03:06:05 12 C 9.7 g/m*3 12 C 0 km/h
377 18-09-2007 03:18:05 11.9 C 9.74 g/m*3 11.9 C 0 km/h
378 18-09-2007 03:30:05 11.9 C 9.74 g/m*3 11.9 C 0 km/h
379 18-09-2007 03:42:03 11.8 C 9.68 g/m*3 11.8 C 0 km/h
380 18-09-2007 03:54:03 11.6 C 9.56 g/m*3 11.6 C 0 km/h
381 18-09-2007 04:06:02 11.5 C 9.61 g/m*3 11.5 C 0 km/h
382 18-09-2007 04:18:02 11.6 C 9.67 g/m*3 11.6 C 0 km/h
383 18-09-2007 04:30:02 11.6 C 9.67 g/m*3 11.6 C 0 km/h
384 18-09-2007 04:42:03 11.6 C 9.77 g/m*3 11.6 C 0 km/h
385 18-09-2007 04:54:02 11.5 C 9.71 g/m*3 11.5 C 0 km/h
386 18-09-2007 05:06:02 11.2 C 9.43 g/m*3 11.2 C 0 km/h
387 18-09-2007 05:18:03 10.8 C 9.19 g/m*3 10.8 C 0 km/h
388 18-09-2007 05:30:03 10.7 C 9.04 g/m*3 10.7 C 0 km/h
389 18-09-2007 05:42:03 10.6 C 8.98 g/m*3 10.6 C 0 km/h
390 18-09-2007 05:54:02 10.4 C 8.77 g/m*3 10.4 C 0 km/h
391 18-09-2007 06:06:02 10.4 C 8.77 g/m*3 10.4 C 0 km/h
392 18-09-2007 06:18:02 10.4 C 8.87 g/m*3 10.4 C 0 km/h
393 18-09-2007 06:30:02 10.4 C 8.87 g/m*3 10.4 C 0 km/h
394 18-09-2007 06:42:02 10.4 C 8.87 g/m*3 10.4 C 0 km/h
395 18-09-2007 06:54:02 10.3 C 8.91 g/m*3 10.3 C 0 km/h
396 18-09-2007 07:06:02 10.2 C 8.76 g/m*3 10.2 C 0 km/h
397 18-09-2007 07:18:01 10.2 C 8.76 g/m*3 10.2 C 0 km/h
398 18-09-2007 07:30:01 10.1 C 8.7 g/m*3 10.1 C 0 km/h
399 18-09-2007 07:42:02 10.2 C 8.76 g/m*3 10.2 C 0 km/h
400 18-09-2007 07:54:02 10.4 C 8.96 g/m*3 10.4 C 0 km/h
Sensor: Nr:Datum:Temp:Abs-Feuchte:Windchill:Wind:
Aussen-T/F 401 18-09-2007 08:06:01 10.4 C 8.96 g/m*3 10.4 C 0 km/h
402 18-09-2007 08:18:01 10.5 C 9.02 g/m*3 10.5 C 0 km/h
403 18-09-2007 08:30:01 10.5 C 8.83 g/m*3 10.5 C 0 km/h
404 18-09-2007 08:42:02 10.5 C 8.63 g/m*3 10.5 C 0 km/h
405 18-09-2007 08:54:03 10.5 C 8.53 g/m*3 10.5 C 0 km/h
406 18-09-2007 09:06:02 10.4 C 8.38 g/m*3 10.4 C 0 km/h
407 18-09-2007 09:18:02 10.4 C 8.29 g/m*3 10.4 C 0 km/h
408 18-09-2007 09:30:02 10.6 C 8.39 g/m*3 10.6 C 0 km/h
409 18-09-2007 09:42:02 10.8 C 8.4 g/m*3 10.8 C 0 km/h
410 18-09-2007 09:54:02 10.9 C 8.36 g/m*3 10.9 C 0 km/h
411 18-09-2007 10:06:02 10.8 C 8.2 g/m*3 10.8 C 0 km/h
412 18-09-2007 10:18:02 11.1 C 8.46 g/m*3 11.1 C 0 km/h
413 18-09-2007 10:30:02 11.3 C 8.57 g/m*3 11.3 C 0 km/h
414 18-09-2007 10:42:02 11.5 C 8.68 g/m*3 11.5 C 0 km/h
415 18-09-2007 10:54:02 11.7 C 8.26 g/m*3 11.7 C 0 km/h
416 18-09-2007 11:06:02 11.8 C 8 g/m*3 11.8 C 0 km/h
417 18-09-2007 11:18:02 12.3 C 7.93 g/m*3 12.3 C 0 km/h
418 18-09-2007 11:30:02 13.5 C 7.72 g/m*3 13.5 C 0 km/h
419 18-09-2007 11:42:02 13.3 C 7.39 g/m*3 13.3 C 0 km/h
420 18-09-2007 11:54:02 13.7 C 7.46 g/m*3 13.7 C 0 km/h
421 18-09-2007 12:06:02 12 C 7.78 g/m*3 12 C 0 km/h
422 18-09-2007 12:18:02 11.5 C 8.16 g/m*3 11.5 C 0 km/h
423 18-09-2007 12:30:02 11.9 C 8.58 g/m*3 11.9 C 0 km/h
424 18-09-2007 12:42:02 11.7 C 8.26 g/m*3 11.7 C 0 km/h
425 18-09-2007 12:54:02 11.3 C 8.57 g/m*3 11.3 C 0 km/h
Sensor: Nr:Datum:Temp:Abs-Feuchte:Windchill:Wind:
Aussen-T/F 426 18-09-2007 13:06:02 11 C 8.51 g/m*3 11 C 0 km/h
427 18-09-2007 13:18:02 10.8 C 8.5 g/m*3 10.8 C 0 km/h
428 18-09-2007 13:30:03 11.1 C 8.76 g/m*3 11.1 C 0 km/h
429 18-09-2007 13:42:02 11.2 C 8.82 g/m*3 11.2 C 0 km/h
430 18-09-2007 13:54:02 11.4 C 8.72 g/m*3 11.4 C 0 km/h
431 18-09-2007 14:06:02 12.1 C 8.69 g/m*3 12.1 C 0 km/h
432 18-09-2007 14:18:02 12 C 8.1 g/m*3 12 C 0 km/h
433 18-09-2007 14:30:03 11.4 C 7.9 g/m*3 11.4 C 0 km/h
434 18-09-2007 14:42:02 11.5 C 8.16 g/m*3 11.5 C 0 km/h
435 18-09-2007 14:54:02 11.4 C 8.11 g/m*3 11.4 C 0 km/h
436 18-09-2007 15:06:03 11.5 C 8.47 g/m*3 11.5 C 0 km/h
437 18-09-2007 15:18:02 11.8 C 8.63 g/m*3 11.8 C 0 km/h
438 18-09-2007 15:30:03 12.7 C 8.79 g/m*3 12.7 C 0 km/h
439 18-09-2007 15:42:02 13.1 C 8.56 g/m*3 13.1 C 0 km/h
440 18-09-2007 15:54:02 11.7 C 7.64 g/m*3 11.7 C 0 km/h
441 18-09-2007 16:06:03 11.1 C 8.06 g/m*3 11.1 C 0 km/h
442 18-09-2007 16:18:02 11 C 8.21 g/m*3 11 C 0 km/h
443 18-09-2007 16:30:02 11.1 C 8.06 g/m*3 11.1 C 0 km/h
444 18-09-2007 16:42:02 11.6 C 8.11 g/m*3 11.6 C 0 km/h
445 18-09-2007 16:54:01 12.3 C 8.04 g/m*3 12.3 C 0 km/h
446 18-09-2007 17:06:02 13 C 7.71 g/m*3 13 C 0 km/h
447 18-09-2007 17:18:02 13.4 C 7.79 g/m*3 13.4 C 0 km/h
448 18-09-2007 17:30:02 14.1 C 7.28 g/m*3 14.1 C 0 km/h
449 18-09-2007 17:42:01 14.2 C 7.08 g/m*3 14.2 C 0 km/h
450 18-09-2007 17:54:01 14.3 C 6.63 g/m*3 14.3 C 0 km/h
Sensor: Nr:Datum:Temp:Abs-Feuchte:Windchill:Wind:
Aussen-T/F 451 18-09-2007 18:06:02 13.2 C 6.2 g/m*3 13.2 C 0 km/h
452 18-09-2007 18:18:02 13.4 C 5.7 g/m*3 13.4 C 0 km/h
453 18-09-2007 18:30:02 13.8 C 5.6 g/m*3 13.8 C 0 km/h
454 18-09-2007 18:42:02 13.3 C 5.89 g/m*3 13.3 C 0 km/h
455 18-09-2007 18:54:02 13.2 C 6.09 g/m*3 13.2 C 0 km/h
456 18-09-2007 19:06:02 13.5 C 6.08 g/m*3 13.5 C 0 km/h
457 18-09-2007 19:18:02 13.4 C 6.39 g/m*3 13.4 C 0 km/h
458 18-09-2007 19:30:02 12.5 C 6.16 g/m*3 12.5 C 0 km/h
459 18-09-2007 19:42:02 12 C 6.39 g/m*3 12 C 0 km/h
460 18-09-2007 19:54:01 11.5 C 6.51 g/m*3 11.5 C 0 km/h
461 18-09-2007 20:06:01 11.1 C 6.55 g/m*3 11.1 C 0 km/h
462 18-09-2007 20:18:02 10.8 C 6.72 g/m*3 10.8 C 0 km/h
463 18-09-2007 20:30:02 10.3 C 6.7 g/m*3 10.3 C 0 km/h
464 18-09-2007 20:42:02 10.1 C 6.81 g/m*3 10.1 C 0 km/h
465 18-09-2007 20:54:02 10.1 C 6.71 g/m*3 10.1 C 0 km/h
466 18-09-2007 21:06:02 10 C 6.67 g/m*3 10 C 0 km/h
467 18-09-2007 21:18:02 10.1 C 6.71 g/m*3 10.1 C 0 km/h
468 18-09-2007 21:30:02 9.8 C 6.77 g/m*3 9.8 C 0 km/h
469 18-09-2007 21:42:02 9.6 C 6.69 g/m*3 9.6 C 0 km/h
470 18-09-2007 21:54:02 9.5 C 6.74 g/m*3 9.5 C 0 km/h
471 18-09-2007 22:06:01 9.3 C 6.74 g/m*3 9.3 C 0 km/h
472 18-09-2007 22:18:01 8.9 C 7.01 g/m*3 8.9 C 0 km/h
473 18-09-2007 22:30:01 8.6 C 6.96 g/m*3 8.6 C 0 km/h
474 18-09-2007 22:42:02 8.5 C 6.92 g/m*3 8.5 C 0 km/h
475 18-09-2007 22:54:03 8.4 C 6.87 g/m*3 8.4 C 0 km/h
Sensor: Nr:Datum:Temp:Abs-Feuchte:Windchill:Wind:
Aussen-T/F 476 18-09-2007 23:06:02 8.4 C 6.79 g/m*3 8.4 C 0 km/h
477 18-09-2007 23:18:02 8.2 C 6.7 g/m*3 8.2 C 0 km/h
478 18-09-2007 23:30:02 8.2 C 6.7 g/m*3 8.2 C 0 km/h
479 18-09-2007 23:42:03 8.1 C 6.66 g/m*3 8.1 C 0 km/h
480 18-09-2007 23:54:02 8 C 6.61 g/m*3 8 C 0 km/h
481 19-09-2007 00:06:02 7.9 C 6.65 g/m*3 7.9 C 0 km/h
482 19-09-2007 00:18:03 7.8 C 6.61 g/m*3 7.8 C 0 km/h
483 19-09-2007 00:30:03 7.7 C 6.65 g/m*3 7.7 C 0 km/h
484 19-09-2007 00:42:02 7.8 C 6.69 g/m*3 7.8 C 0 km/h
485 19-09-2007 00:54:02 7.5 C 6.56 g/m*3 7.5 C 0 km/h
486 19-09-2007 01:06:01 7.3 C 6.56 g/m*3 7.3 C 0 km/h
487 19-09-2007 01:18:02 7 C 6.51 g/m*3 7 C 0 km/h
488 19-09-2007 01:30:02 6.8 C 6.58 g/m*3 6.8 C 0 km/h
489 19-09-2007 01:42:02 6.6 C 6.57 g/m*3 6.6 C 0 km/h
490 19-09-2007 01:54:03 6.6 C 6.57 g/m*3 6.6 C 0 km/h
491 19-09-2007 02:06:03 6.5 C 6.6 g/m*3 6.5 C 0 km/h
492 19-09-2007 02:18:03 6.3 C 6.51 g/m*3 6.3 C 0 km/h
493 19-09-2007 02:30:03 6.3 C 6.51 g/m*3 6.3 C 0 km/h
494 19-09-2007 02:42:02 6.2 C 6.55 g/m*3 6.2 C 0 km/h
495 19-09-2007 02:55:04 6 C 6.46 g/m*3 6 C 0 km/h
496 19-09-2007 03:07:04 5.9 C 6.49 g/m*3 5.9 C 0 km/h
497 19-09-2007 03:19:03 5.8 C 6.45 g/m*3 5.8 C 0 km/h
498 19-09-2007 03:31:03 5.7 C 6.48 g/m*3 5.7 C 0 km/h
499 19-09-2007 03:43:03 5.6 C 6.43 g/m*3 5.6 C 0 km/h
500 19-09-2007 03:55:03 5.8 C 6.59 g/m*3 5.8 C 0 km/h
Sensor: Nr:Datum:Temp:Abs-Feuchte:Windchill:Wind:
Aussen-T/F 501 19-09-2007 04:07:03 5.8 C 6.59 g/m*3 5.8 C 0 km/h
502 19-09-2007 04:19:03 5.7 C 6.55 g/m*3 5.7 C 0 km/h
503 19-09-2007 04:31:03 5.7 C 6.48 g/m*3 5.7 C 0 km/h
504 19-09-2007 04:43:03 5.8 C 6.52 g/m*3 5.8 C 0 km/h
505 19-09-2007 04:55:02 5.8 C 6.52 g/m*3 5.8 C 0 km/h
506 19-09-2007 05:07:02 5.8 C 6.52 g/m*3 5.8 C 0 km/h
507 19-09-2007 05:19:01 5.7 C 6.48 g/m*3 5.7 C 0 km/h
508 19-09-2007 05:31:01 5.6 C 6.43 g/m*3 5.6 C 0 km/h
509 19-09-2007 05:43:01 5.7 C 6.55 g/m*3 5.7 C 0 km/h
510 19-09-2007 05:55:02 5.8 C 6.52 g/m*3 5.8 C 0 km/h
511 19-09-2007 06:07:02 5.8 C 6.52 g/m*3 5.8 C 0 km/h
512 19-09-2007 06:19:02 5.8 C 6.52 g/m*3 5.8 C 0 km/h
513 19-09-2007 06:31:03 5.9 C 6.56 g/m*3 5.9 C 0 km/h
514 19-09-2007 06:43:03 6 C 6.53 g/m*3 6 C 0 km/h
515 19-09-2007 06:55:02 6 C 6.53 g/m*3 6 C 0 km/h
516 19-09-2007 07:07:02 6.2 C 6.55 g/m*3 6.2 C 0 km/h
517 19-09-2007 07:19:02 6.2 C 6.55 g/m*3 6.2 C 0 km/h
518 19-09-2007 07:31:02 6.2 C 6.55 g/m*3 6.2 C 0 km/h
519 19-09-2007 07:43:02 6.2 C 6.55 g/m*3 6.2 C 0 km/h
520 19-09-2007 07:55:02 6.3 C 6.59 g/m*3 6.3 C 0 km/h
521 19-09-2007 08:07:02 6.4 C 6.63 g/m*3 6.4 C 0 km/h
522 19-09-2007 08:19:01 6.7 C 6.76 g/m*3 6.7 C 0 km/h
523 19-09-2007 08:31:02 7 C 6.74 g/m*3 7 C 0 km/h
524 19-09-2007 08:43:02 7.2 C 6.83 g/m*3 7.2 C 0 km/h
525 19-09-2007 08:55:01 7.2 C 6.75 g/m*3 7.2 C 0 km/h
Sensor: Nr:Datum:Temp:Abs-Feuchte:Windchill:Wind:
Aussen-T/F 526 19-09-2007 09:07:02 7.2 C 6.83 g/m*3 7.2 C 0 km/h
527 19-09-2007 09:19:01 7.3 C 6.87 g/m*3 7.3 C 0 km/h
528 19-09-2007 09:31:02 7.5 C 6.96 g/m*3 7.5 C 0 km/h
529 19-09-2007 09:43:02 8 C 7.03 g/m*3 8 C 0 km/h
530 19-09-2007 09:55:01 8.5 C 7.09 g/m*3 8.5 C 0 km/h
531 19-09-2007 10:07:02 9 C 6.88 g/m*3 9 C 0 km/h
532 19-09-2007 10:19:01 9.3 C 6.65 g/m*3 9.3 C 0 km/h
533 19-09-2007 10:31:01 9.7 C 6.73 g/m*3 9.7 C 0 km/h
534 19-09-2007 10:43:01 10 C 6.58 g/m*3 10 C 0 km/h
535 19-09-2007 10:55:01 10.4 C 6.46 g/m*3 10.4 C 0 km/h
536 19-09-2007 11:07:02 10.8 C 6.33 g/m*3 10.8 C 0 km/h
537 19-09-2007 11:19:01 11.2 C 6.08 g/m*3 11.2 C 0 km/h
538 19-09-2007 11:31:01 11.5 C 5.99 g/m*3 11.5 C 0 km/h
539 19-09-2007 11:43:01 11.8 C 6 g/m*3 11.8 C 0 km/h
540 19-09-2007 11:55:01 12.1 C 5.9 g/m*3 12.1 C 0 km/h
541 19-09-2007 12:07:02 12.8 C 6.05 g/m*3 12.8 C 0 km/h
542 19-09-2007 12:19:01 13.5 C 5.61 g/m*3 13.5 C 0 km/h
543 19-09-2007 12:31:01 14 C 5.67 g/m*3 14 C 0 km/h
544 19-09-2007 12:43:01 13.9 C 5.63 g/m*3 13.9 C 0 km/h
545 19-09-2007 12:55:01 13.1 C 4.91 g/m*3 13.1 C 0 km/h
546 19-09-2007 13:07:02 13.4 C 5.35 g/m*3 13.4 C 0 km/h
547 19-09-2007 13:19:01 14.2 C 5.49 g/m*3 14.2 C 0 km/h
548 19-09-2007 13:31:01 14.1 C 5.46 g/m*3 14.1 C 0 km/h
549 19-09-2007 13:43:01 13.7 C 5.8 g/m*3 13.7 C 0 km/h
550 19-09-2007 13:55:01 13.8 C 6.08 g/m*3 13.8 C 0 km/h
Sensor: Nr:Datum:Temp:Abs-Feuchte:Windchill:Wind:
Aussen-T/F 551 19-09-2007 14:07:02 14.5 C 5.35 g/m*3 14.5 C 0 km/h
552 19-09-2007 14:19:01 15 C 5.13 g/m*3 15 C 0 km/h
553 19-09-2007 14:31:01 16.2 C 5.1 g/m*3 16.2 C 0 km/h
554 19-09-2007 14:43:01 16.3 C 4.86 g/m*3 16.3 C 0 km/h
555 19-09-2007 14:55:01 16.7 C 4.83 g/m*3 16.7 C 0 km/h
556 19-09-2007 15:07:02 17 C 4.63 g/m*3 17 C 0 km/h
557 19-09-2007 15:19:02 16.5 C 4.63 g/m*3 16.5 C 0 km/h
558 19-09-2007 15:31:01 15.7 C 5.08 g/m*3 15.7 C 0 km/h
559 19-09-2007 15:43:01 15.9 C 5.01 g/m*3 15.9 C 0 km/h
560 19-09-2007 15:55:01 15.8 C 4.98 g/m*3 15.8 C 0 km/h
561 19-09-2007 16:07:02 16.8 C 5.15 g/m*3 16.8 C 0 km/h
562 19-09-2007 16:19:02 15.8 C 4.98 g/m*3 15.8 C 0 km/h
563 19-09-2007 16:31:01 15.4 C 5.26 g/m*3 15.4 C 0 km/h
564 19-09-2007 16:43:01 15.2 C 5.06 g/m*3 15.2 C 0 km/h
565 19-09-2007 16:55:02 15 C 5.26 g/m*3 15 C 0 km/h
566 19-09-2007 17:07:01 14.7 C 5.54 g/m*3 14.7 C 0 km/h
567 19-09-2007 17:19:02 15.1 C 5.29 g/m*3 15.1 C 0 km/h
568 19-09-2007 17:31:02 16.2 C 5.24 g/m*3 16.2 C 0 km/h
569 19-09-2007 17:43:02 15.2 C 5.32 g/m*3 15.2 C 0 km/h
570 19-09-2007 17:55:02 14.4 C 5.44 g/m*3 14.4 C 0 km/h
571 19-09-2007 18:07:01 14.5 C 5.6 g/m*3 14.5 C 0 km/h
572 19-09-2007 18:19:01 14.8 C 5.7 g/m*3 14.8 C 0 km/h
573 19-09-2007 18:31:02 15.4 C 5.52 g/m*3 15.4 C 0 km/h
574 19-09-2007 18:43:02 15.7 C 5.49 g/m*3 15.7 C 0 km/h
575 19-09-2007 18:55:02 15.4 C 5.52 g/m*3 15.4 C 0 km/h
Sensor: Nr:Datum:Temp:Abs-Feuchte:Windchill:Wind:
Aussen-T/F 576 19-09-2007 19:07:02 14.9 C 5.48 g/m*3 14.9 C 0 km/h
577 19-09-2007 19:19:02 14.2 C 5.74 g/m*3 14.2 C 0 km/h
578 19-09-2007 19:31:02 13.3 C 5.66 g/m*3 13.3 C 0 km/h
579 19-09-2007 19:43:02 12.7 C 5.9 g/m*3 12.7 C 0 km/h
580 19-09-2007 19:55:02 12.4 C 5.9 g/m*3 12.4 C 0 km/h
581 19-09-2007 20:07:02 12 C 5.86 g/m*3 12 C 0 km/h
582 19-09-2007 20:19:02 11.7 C 5.86 g/m*3 11.7 C 0 km/h
583 19-09-2007 20:31:02 11.5 C 5.99 g/m*3 11.5 C 0 km/h
584 19-09-2007 20:43:02 11.2 C 5.98 g/m*3 11.2 C 0 km/h
585 19-09-2007 20:55:02 11.1 C 6.14 g/m*3 11.1 C 0 km/h
586 19-09-2007 21:07:02 10.9 C 6.17 g/m*3 10.9 C 0 km/h
587 19-09-2007 21:19:02 10.5 C 6.21 g/m*3 10.5 C 0 km/h
588 19-09-2007 21:31:02 10.2 C 6.19 g/m*3 10.2 C 0 km/h
589 19-09-2007 21:43:02 9.8 C 6.31 g/m*3 9.8 C 0 km/h
590 19-09-2007 21:55:01 10 C 6.39 g/m*3 10 C 0 km/h
591 19-09-2007 22:07:02 10.1 C 6.34 g/m*3 10.1 C 0 km/h
592 19-09-2007 22:19:02 10.4 C 6.36 g/m*3 10.4 C 0 km/h
593 19-09-2007 22:31:01 10.7 C 6.38 g/m*3 10.7 C 0 km/h
594 19-09-2007 22:43:01 10.8 C 6.42 g/m*3 10.8 C 0 km/h
595 19-09-2007 22:55:01 10.9 C 6.37 g/m*3 10.9 C 0 km/h
596 19-09-2007 23:07:02 10.9 C 6.27 g/m*3 10.9 C 0 km/h
597 19-09-2007 23:19:02 10.8 C 6.03 g/m*3 10.8 C 0 km/h
598 19-09-2007 23:31:01 10.6 C 6.05 g/m*3 10.6 C 0 km/h
599 19-09-2007 23:43:01 11 C 5.81 g/m*3 11 C 0 km/h
600 19-09-2007 23:55:02 11.1 C 5.84 g/m*3 11.1 C 0 km/h
Sensor: Nr:Datum:Temp:Abs-Feuchte:Windchill:Wind:
Aussen-T/F 601 20-09-2007 00:07:02 11.5 C 5.58 g/m*3 11.5 C 0 km/h
602 20-09-2007 00:19:02 11.7 C 5.44 g/m*3 11.7 C 0 km/h
603 20-09-2007 00:31:02 11.9 C 5.51 g/m*3 11.9 C 0 km/h
604 20-09-2007 00:43:02 11.9 C 5.51 g/m*3 11.9 C 0 km/h
605 20-09-2007 00:55:02 11.5 C 5.78 g/m*3 11.5 C 0 km/h
606 20-09-2007 01:07:02 11.6 C 5.82 g/m*3 11.6 C 0 km/h
607 20-09-2007 01:19:02 10.9 C 6.27 g/m*3 10.9 C 0 km/h
608 20-09-2007 01:31:02 10.2 C 6.66 g/m*3 10.2 C 0 km/h
609 20-09-2007 01:43:03 10.1 C 6.9 g/m*3 10.1 C 0 km/h
610 20-09-2007 01:55:02 10.1 C 7.09 g/m*3 10.1 C 0 km/h
611 20-09-2007 02:07:02 10 C 7.14 g/m*3 10 C 0 km/h
612 20-09-2007 02:19:02 10.1 C 7.28 g/m*3 10.1 C 0 km/h
613 20-09-2007 02:31:02 10.1 C 7.38 g/m*3 10.1 C 0 km/h
614 20-09-2007 02:43:02 9.9 C 7.47 g/m*3 9.9 C 0 km/h
615 20-09-2007 02:56:03 9.8 C 7.52 g/m*3 9.8 C 0 km/h
616 20-09-2007 03:08:03 9.6 C 7.6 g/m*3 9.6 C 0 km/h
617 20-09-2007 03:20:04 9.6 C 7.79 g/m*3 9.6 C 0 km/h
618 20-09-2007 03:32:03 9.5 C 7.83 g/m*3 9.5 C 0 km/h
619 20-09-2007 03:44:03 9.4 C 7.87 g/m*3 9.4 C 0 km/h
620 20-09-2007 03:56:03 9.4 C 7.96 g/m*3 9.4 C 0 km/h
621 20-09-2007 04:08:02 9.6 C 8.06 g/m*3 9.6 C 0 km/h
622 20-09-2007 04:20:04 9.6 C 8.06 g/m*3 9.6 C 0 km/h
623 20-09-2007 04:32:02 9.5 C 8.01 g/m*3 9.5 C 0 km/h
624 20-09-2007 04:44:02 9.5 C 8.01 g/m*3 9.5 C 0 km/h
625 20-09-2007 04:56:02 9.5 C 8.01 g/m*3 9.5 C 0 km/h
Sensor: Nr:Datum:Temp:Abs-Feuchte:Windchill:Wind:
Aussen-T/F 626 20-09-2007 05:08:01 9.5 C 7.92 g/m*3 9.5 C 0 km/h
627 20-09-2007 05:20:02 9.6 C 7.79 g/m*3 9.6 C 0 km/h
628 20-09-2007 05:32:02 9.6 C 7.6 g/m*3 9.6 C 0 km/h
629 20-09-2007 05:44:02 9.6 C 7.51 g/m*3 9.6 C 0 km/h
630 20-09-2007 05:56:02 9.6 C 7.42 g/m*3 9.6 C 0 km/h
631 20-09-2007 06:08:02 9.6 C 7.33 g/m*3 9.6 C 0 km/h
632 20-09-2007 06:20:02 9.6 C 7.33 g/m*3 9.6 C 0 km/h
633 20-09-2007 06:32:02 9.6 C 7.33 g/m*3 9.6 C 0 km/h
634 20-09-2007 06:44:02 9.5 C 7.28 g/m*3 9.5 C 0 km/h
635 20-09-2007 06:56:02 9.3 C 7.28 g/m*3 9.3 C 0 km/h
636 20-09-2007 07:08:01 9.2 C 7.23 g/m*3 9.2 C 0 km/h
637 20-09-2007 07:20:01 8.9 C 7.27 g/m*3 8.9 C 0 km/h
638 20-09-2007 07:32:02 8.8 C 7.22 g/m*3 8.8 C 0 km/h
639 20-09-2007 07:44:02 8.9 C 7.36 g/m*3 8.9 C 0 km/h
640 20-09-2007 07:56:02 9.3 C 7.46 g/m*3 9.3 C 0 km/h
641 20-09-2007 08:08:02 9.6 C 7.6 g/m*3 9.6 C 0 km/h
642 20-09-2007 08:20:03 9.7 C 7.65 g/m*3 9.7 C 0 km/h
643 20-09-2007 08:32:02 10 C 7.71 g/m*3 10 C 0 km/h
644 20-09-2007 08:44:02 10 C 7.61 g/m*3 10 C 0 km/h
645 20-09-2007 08:56:02 10.1 C 7.66 g/m*3 10.1 C 0 km/h
646 20-09-2007 09:08:02 10.3 C 7.57 g/m*3 10.3 C 0 km/h
647 20-09-2007 09:20:02 10.5 C 7.66 g/m*3 10.5 C 0 km/h
648 20-09-2007 09:32:02 11.1 C 7.35 g/m*3 11.1 C 0 km/h
649 20-09-2007 09:44:02 11.8 C 6.95 g/m*3 11.8 C 0 km/h
650 20-09-2007 09:56:01 12.1 C 6.54 g/m*3 12.1 C 0 km/h
Sensor: Nr:Datum:Temp:Abs-Feuchte:Windchill:Wind:
Aussen-T/F 651 20-09-2007 10:08:02 12.2 C 6.47 g/m*3 12.2 C 0 km/h
652 20-09-2007 10:20:02 12.5 C 6.6 g/m*3 12.5 C 0 km/h
653 20-09-2007 10:32:01 12.8 C 6.61 g/m*3 12.8 C 0 km/h
654 20-09-2007 10:44:01 13.2 C 6.66 g/m*3 13.2 C 0 km/h
655 20-09-2007 10:56:02 13.8 C 6.55 g/m*3 13.8 C 0 km/h
656 20-09-2007 11:08:01 14 C 6.39 g/m*3 14 C 0 km/h
657 20-09-2007 11:20:02 14.3 C 6.27 g/m*3 14.3 C 0 km/h
658 20-09-2007 11:32:02 14.7 C 6.42 g/m*3 14.7 C 0 km/h
659 20-09-2007 11:44:02 15 C 6.15 g/m*3 15 C 0 km/h
660 20-09-2007 11:56:02 15.5 C 6.21 g/m*3 15.5 C 0 km/h
661 20-09-2007 12:08:02 15.7 C 6.15 g/m*3 15.7 C 0 km/h
662 20-09-2007 12:20:03 15.7 C 6.15 g/m*3 15.7 C 0 km/h
663 20-09-2007 12:32:02 15.8 C 6.06 g/m*3 15.8 C 0 km/h
664 20-09-2007 12:44:02 15.7 C 6.02 g/m*3 15.7 C 0 km/h
665 20-09-2007 12:56:02 15.7 C 5.89 g/m*3 15.7 C 0 km/h
666 20-09-2007 13:08:01 16 C 5.86 g/m*3 16 C 0 km/h
667 20-09-2007 13:20:02 16.8 C 6.15 g/m*3 16.8 C 0 km/h
668 20-09-2007 13:32:02 16.9 C 5.75 g/m*3 16.9 C 0 km/h
669 20-09-2007 13:44:02 16.9 C 5.75 g/m*3 16.9 C 0 km/h
670 20-09-2007 13:56:02 17 C 5.64 g/m*3 17 C 0 km/h
671 20-09-2007 14:08:02 17.3 C 5.6 g/m*3 17.3 C 0 km/h
672 20-09-2007 14:20:02 18.1 C 5.56 g/m*3 18.1 C 0 km/h
673 20-09-2007 14:32:02 17.7 C 5.43 g/m*3 17.7 C 0 km/h
674 20-09-2007 14:44:02 17.9 C 5.5 g/m*3 17.9 C 0 km/h
675 20-09-2007 14:56:02 18.3 C 5.47 g/m*3 18.3 C 0 km/h
Sensor: Nr:Datum:Temp:Abs-Feuchte:Windchill:Wind:
Aussen-T/F 676 20-09-2007 15:08:02 18.3 C 5.47 g/m*3 18.3 C 0 km/h
677 20-09-2007 15:20:01 19.1 C 5.57 g/m*3 19.1 C 0 km/h
678 20-09-2007 15:32:02 18.9 C 5.51 g/m*3 18.9 C 0 km/h
679 20-09-2007 15:44:02 19.3 C 5.47 g/m*3 19.3 C 0 km/h
680 20-09-2007 15:56:01 19.8 C 5.47 g/m*3 19.8 C 0 km/h
681 20-09-2007 16:08:02 20.2 C 5.42 g/m*3 20.2 C 0 km/h
682 20-09-2007 16:20:01 20.2 C 5.6 g/m*3 20.2 C 0 km/h
683 20-09-2007 16:32:01 20.6 C 5.55 g/m*3 20.6 C 0 km/h
684 20-09-2007 16:44:01 21 C 5.5 g/m*3 21 C 0 km/h
685 20-09-2007 16:56:02 20.6 C 5.55 g/m*3 20.6 C 0 km/h
686 20-09-2007 17:08:03 20.7 C 5.58 g/m*3 20.7 C 0 km/h
687 20-09-2007 17:20:02 20.8 C 5.79 g/m*3 20.8 C 0 km/h
688 20-09-2007 17:32:02 21 C 5.68 g/m*3 21 C 0 km/h
689 20-09-2007 17:44:02 20.8 C 5.79 g/m*3 20.8 C 0 km/h
690 20-09-2007 17:56:01 20.2 C 5.42 g/m*3 20.2 C 0 km/h
691 20-09-2007 18:08:02 20.1 C 5.56 g/m*3 20.1 C 0 km/h
692 20-09-2007 18:20:01 20.5 C 5.87 g/m*3 20.5 C 0 km/h
693 20-09-2007 18:32:01 20.4 C 5.84 g/m*3 20.4 C 0 km/h
694 20-09-2007 18:44:01 20.5 C 6.23 g/m*3 20.5 C 0 km/h
695 20-09-2007 18:56:01 20.1 C 6.26 g/m*3 20.1 C 0 km/h
696 20-09-2007 19:08:02 19.3 C 6.14 g/m*3 19.3 C 0 km/h
697 20-09-2007 19:20:02 18.1 C 6.03 g/m*3 18.1 C 0 km/h
698 20-09-2007 19:32:01 17.1 C 6.11 g/m*3 17.1 C 0 km/h
699 20-09-2007 19:44:01 16.3 C 6.38 g/m*3 16.3 C 0 km/h
700 20-09-2007 19:56:02 15.7 C 6.56 g/m*3 15.7 C 0 km/h
Sensor: Nr:Datum:Temp:Abs-Feuchte:Windchill:Wind:
Aussen-T/F 701 20-09-2007 20:08:02 15.4 C 6.57 g/m*3 15.4 C 0 km/h
702 20-09-2007 20:20:02 15.2 C 6.62 g/m*3 15.2 C 0 km/h
703 20-09-2007 20:32:02 15 C 6.67 g/m*3 15 C 0 km/h
704 20-09-2007 20:44:02 14.8 C 6.59 g/m*3 14.8 C 0 km/h
705 20-09-2007 20:56:02 14.6 C 6.51 g/m*3 14.6 C 0 km/h
706 20-09-2007 21:08:02 14.2 C 6.84 g/m*3 14.2 C 0 km/h
707 20-09-2007 21:20:02 13.9 C 7.07 g/m*3 13.9 C 0 km/h
708 20-09-2007 21:32:02 13.4 C 6.97 g/m*3 13.4 C 0 km/h
709 20-09-2007 21:44:03 13 C 7.03 g/m*3 13 C 0 km/h
710 20-09-2007 21:56:02 12.9 C 6.99 g/m*3 12.9 C 0 km/h
711 20-09-2007 22:08:01 12.8 C 7.17 g/m*3 12.8 C 0 km/h
712 20-09-2007 22:20:02 12.6 C 7.19 g/m*3 12.6 C 0 km/h
713 20-09-2007 22:32:02 12.4 C 7.21 g/m*3 12.4 C 0 km/h
714 20-09-2007 22:44:02 12 C 7.25 g/m*3 12 C 0 km/h
715 20-09-2007 22:56:03 11.8 C 7.37 g/m*3 11.8 C 0 km/h
716 20-09-2007 23:08:02 11.6 C 7.28 g/m*3 11.6 C 0 km/h
717 20-09-2007 23:20:02 11.4 C 7.29 g/m*3 11.4 C 0 km/h
718 20-09-2007 23:32:02 11.2 C 7.3 g/m*3 11.2 C 0 km/h
719 20-09-2007 23:44:02 11.1 C 7.25 g/m*3 11.1 C 0 km/h
720 20-09-2007 23:56:02 11 C 7.31 g/m*3 11 C 0 km/h
721 21-09-2007 00:08:02 10.9 C 7.36 g/m*3 10.9 C 0 km/h
722 21-09-2007 00:20:03 10.4 C 7.32 g/m*3 10.4 C 0 km/h
723 21-09-2007 00:32:02 10.3 C 7.37 g/m*3 10.3 C 0 km/h
724 21-09-2007 00:44:02 10.2 C 7.33 g/m*3 10.2 C 0 km/h
725 21-09-2007 00:56:04 10.2 C 7.33 g/m*3 10.2 C 0 km/h
Sensor: Nr:Datum:Temp:Abs-Feuchte:Windchill:Wind:
Aussen-T/F 726 21-09-2007 01:08:03 10 C 7.33 g/m*3 10 C 0 km/h
727 21-09-2007 01:20:03 10 C 7.33 g/m*3 10 C 0 km/h
728 21-09-2007 01:32:03 9.8 C 7.42 g/m*3 9.8 C 0 km/h
729 21-09-2007 01:44:03 9.7 C 7.38 g/m*3 9.7 C 0 km/h
730 21-09-2007 01:56:03 9.8 C 7.42 g/m*3 9.8 C 0 km/h
731 21-09-2007 02:08:02 9.6 C 7.24 g/m*3 9.6 C 0 km/h
732 21-09-2007 02:20:03 9.3 C 7.19 g/m*3 9.3 C 0 km/h
733 21-09-2007 02:32:03 9.1 C 7.1 g/m*3 9.1 C 0 km/h
734 21-09-2007 02:44:03 9 C 7.05 g/m*3 9 C 0 km/h
735 21-09-2007 02:57:05 8.9 C 7.18 g/m*3 8.9 C 0 km/h
736 21-09-2007 03:09:05 8.7 C 7.18 g/m*3 8.7 C 0 km/h
737 21-09-2007 03:21:05 8.6 C 7.13 g/m*3 8.6 C 0 km/h
738 21-09-2007 03:33:03 8.5 C 7.09 g/m*3 8.5 C 0 km/h
739 21-09-2007 03:45:03 8.5 C 7.17 g/m*3 8.5 C 0 km/h
740 21-09-2007 03:57:03 8.4 C 7.13 g/m*3 8.4 C 0 km/h
741 21-09-2007 04:09:02 8.2 C 7.03 g/m*3 8.2 C 0 km/h
742 21-09-2007 04:21:03 8.1 C 7.07 g/m*3 8.1 C 0 km/h
743 21-09-2007 04:33:03 8 C 7.03 g/m*3 8 C 0 km/h
744 21-09-2007 04:45:02 8 C 7.03 g/m*3 8 C 0 km/h
745 21-09-2007 04:57:02 7.9 C 7.15 g/m*3 7.9 C 0 km/h
746 21-09-2007 05:09:03 7.7 C 7.05 g/m*3 7.7 C 0 km/h
747 21-09-2007 05:21:03 7.6 C 7.01 g/m*3 7.6 C 0 km/h
748 21-09-2007 05:33:03 7.5 C 6.96 g/m*3 7.5 C 0 km/h
749 21-09-2007 05:45:02 7.6 C 7.01 g/m*3 7.6 C 0 km/h
750 21-09-2007 05:57:03 7.7 C 7.14 g/m*3 7.7 C 0 km/h
Sensor: Nr:Datum:Temp:Abs-Feuchte:Windchill:Wind:
Aussen-T/F 751 21-09-2007 06:09:02 7.7 C 7.14 g/m*3 7.7 C 0 km/h
752 21-09-2007 06:21:02 7.7 C 7.05 g/m*3 7.7 C 0 km/h
753 21-09-2007 06:33:02 7.3 C 6.87 g/m*3 7.3 C 0 km/h
754 21-09-2007 06:45:03 7 C 6.74 g/m*3 7 C 0 km/h
755 21-09-2007 06:57:03 7 C 6.74 g/m*3 7 C 0 km/h
756 21-09-2007 07:09:02 6.9 C 6.77 g/m*3 6.9 C 0 km/h
757 21-09-2007 07:21:02 6.8 C 6.73 g/m*3 6.8 C 0 km/h
758 21-09-2007 07:33:02 6.8 C 6.81 g/m*3 6.8 C 0 km/h
759 21-09-2007 07:45:02 6.8 C 6.81 g/m*3 6.8 C 0 km/h
760 21-09-2007 07:57:02 6.9 C 6.85 g/m*3 6.9 C 0 km/h
761 21-09-2007 08:09:02 7 C 6.82 g/m*3 7 C 0 km/h
762 21-09-2007 08:21:01 7.1 C 6.94 g/m*3 7.1 C 0 km/h
763 21-09-2007 08:33:02 7.1 C 6.94 g/m*3 7.1 C 0 km/h
764 21-09-2007 08:45:02 7.3 C 7.03 g/m*3 7.3 C 0 km/h
765 21-09-2007 08:57:02 7.4 C 7.08 g/m*3 7.4 C 0 km/h
766 21-09-2007 09:09:01 7.7 C 7.3 g/m*3 7.7 C 0 km/h
767 21-09-2007 09:21:02 8 C 7.36 g/m*3 8 C 0 km/h
768 21-09-2007 09:33:02 8.2 C 7.45 g/m*3 8.2 C 0 km/h
769 21-09-2007 09:45:02 8.7 C 7.7 g/m*3 8.7 C 0 km/h
770 21-09-2007 09:57:02 9.3 C 7.91 g/m*3 9.3 C 0 km/h
771 21-09-2007 10:09:03 10.4 C 8 g/m*3 10.4 C 0 km/h
772 21-09-2007 10:21:02 11.4 C 7.6 g/m*3 11.4 C 0 km/h
773 21-09-2007 10:33:02 11.9 C 7.63 g/m*3 11.9 C 0 km/h
774 21-09-2007 10:45:02 12.5 C 7.59 g/m*3 12.5 C 0 km/h
775 21-09-2007 10:57:02 13.1 C 7.76 g/m*3 13.1 C 0 km/h
Sensor: Nr:Datum:Temp:Abs-Feuchte:Windchill:Wind:
Aussen-T/F 776 21-09-2007 11:09:02 13.7 C 7.93 g/m*3 13.7 C 0 km/h
777 21-09-2007 11:21:02 14.4 C 8.16 g/m*3 14.4 C 0 km/h
778 21-09-2007 11:33:02 15.7 C 8.03 g/m*3 15.7 C 0 km/h
779 21-09-2007 11:45:02 16.3 C 7.91 g/m*3 16.3 C 0 km/h
780 21-09-2007 11:57:02 17 C 7.67 g/m*3 17 C 0 km/h
781 21-09-2007 12:09:01 17.4 C 8 g/m*3 17.4 C 0 km/h
782 21-09-2007 12:21:01 18.2 C 6.99 g/m*3 18.2 C 0 km/h
783 21-09-2007 12:33:02 18.4 C 6.76 g/m*3 18.4 C 0 km/h
784 21-09-2007 12:45:02 18.6 C 6.53 g/m*3 18.6 C 0 km/h
785 21-09-2007 12:57:02 18.7 C 6.56 g/m*3 18.7 C 0 km/h
786 21-09-2007 13:09:03 19.1 C 6.88 g/m*3 19.1 C 0 km/h
787 21-09-2007 13:21:02 18.7 C 6.72 g/m*3 18.7 C 0 km/h
788 21-09-2007 13:33:02 18.7 C 7.04 g/m*3 18.7 C 0 km/h
789 21-09-2007 13:45:02 19.4 C 6.84 g/m*3 19.4 C 0 km/h
790 21-09-2007 13:57:03 19.8 C 7 g/m*3 19.8 C 0 km/h
791 21-09-2007 14:09:02 20.7 C 7.2 g/m*3 20.7 C 0 km/h
792 21-09-2007 14:21:02 21.1 C 6.63 g/m*3 21.1 C 0 km/h
793 21-09-2007 14:33:02 22 C 6.79 g/m*3 22 C 0 km/h
794 21-09-2007 14:45:02 22.1 C 6.25 g/m*3 22.1 C 0 km/h
795 21-09-2007 14:57:02 22.3 C 5.92 g/m*3 22.3 C 0 km/h
796 21-09-2007 15:09:02 22.6 C 6.23 g/m*3 22.6 C 0 km/h
797 21-09-2007 15:21:02 23.3 C 6.06 g/m*3 23.3 C 0 km/h
798 21-09-2007 15:33:02 23.3 C 6.27 g/m*3 23.3 C 0 km/h
799 21-09-2007 15:45:02 24.1 C 6.13 g/m*3 24.1 C 0 km/h
800 21-09-2007 15:57:02 24.5 C 6.04 g/m*3 24.5 C 0 km/h
Sensor: Nr:Datum:Temp:Abs-Feuchte:Windchill:Wind:
Aussen-T/F 801 21-09-2007 16:09:02 25.7 C 6.46 g/m*3 25.7 C 0 km/h
802 21-09-2007 16:21:01 24.9 C 5.72 g/m*3 24.9 C 0 km/h
803 21-09-2007 16:33:02 24.6 C 6.08 g/m*3 24.6 C 0 km/h
804 21-09-2007 16:45:02 24.4 C 6.01 g/m*3 24.4 C 0 km/h
805 21-09-2007 16:57:02 24.8 C 6.37 g/m*3 24.8 C 0 km/h
806 21-09-2007 17:09:02 24.7 C 6.11 g/m*3 24.7 C 0 km/h
807 21-09-2007 17:21:02 25 C 5.52 g/m*3 25 C 0 km/h
808 21-09-2007 17:33:02 25.3 C 6.32 g/m*3 25.3 C 0 km/h
809 21-09-2007 17:45:02 25.3 C 6.32 g/m*3 25.3 C 0 km/h
810 21-09-2007 17:57:02 24.9 C 5.95 g/m*3 24.9 C 0 km/h
811 21-09-2007 18:09:02 25.2 C 6.29 g/m*3 25.2 C 0 km/h
812 21-09-2007 18:21:02 24.6 C 6.53 g/m*3 24.6 C 0 km/h
813 21-09-2007 18:33:02 24.2 C 6.82 g/m*3 24.2 C 0 km/h
814 21-09-2007 18:45:01 23.4 C 7.15 g/m*3 23.4 C 0 km/h
815 21-09-2007 18:57:01 22 C 6.99 g/m*3 22 C 0 km/h
816 21-09-2007 19:09:01 21.1 C 7.19 g/m*3 21.1 C 0 km/h
817 21-09-2007 19:21:01 19.7 C 7.3 g/m*3 19.7 C 0 km/h
818 21-09-2007 19:33:01 18.8 C 7.41 g/m*3 18.8 C 0 km/h
819 21-09-2007 19:45:02 18 C 7.22 g/m*3 18 C 0 km/h
820 21-09-2007 19:57:02 17.2 C 7.18 g/m*3 17.2 C 0 km/h
821 21-09-2007 20:09:01 16.9 C 7.19 g/m*3 16.9 C 0 km/h
822 21-09-2007 20:21:02 16.7 C 7.39 g/m*3 16.7 C 0 km/h
823 21-09-2007 20:33:02 16.4 C 7.68 g/m*3 16.4 C 0 km/h
824 21-09-2007 20:45:03 16.2 C 7.17 g/m*3 16.2 C 0 km/h
825 21-09-2007 20:57:03 16 C 7.22 g/m*3 16 C 0 km/h
Sensor: Nr:Datum:Temp:Abs-Feuchte:Windchill:Wind:
Aussen-T/F 826 21-09-2007 21:09:02 15.8 C 7.4 g/m*3 15.8 C 0 km/h
827 21-09-2007 21:21:02 15.6 C 7.58 g/m*3 15.6 C 0 km/h
828 21-09-2007 21:33:03 15.4 C 7.62 g/m*3 15.4 C 0 km/h
829 21-09-2007 21:45:02 15.1 C 7.74 g/m*3 15.1 C 0 km/h
830 21-09-2007 21:57:02 14.8 C 7.6 g/m*3 14.8 C 0 km/h
831 21-09-2007 22:09:03 14.7 C 7.43 g/m*3 14.7 C 0 km/h
832 21-09-2007 22:21:02 14.5 C 7.46 g/m*3 14.5 C 0 km/h
833 21-09-2007 22:33:02 14 C 7.84 g/m*3 14 C 0 km/h
834 21-09-2007 22:45:02 13.6 C 8 g/m*3 13.6 C 0 km/h
835 21-09-2007 22:57:02 13.4 C 7.9 g/m*3 13.4 C 0 km/h
836 21-09-2007 23:09:03 13.2 C 7.69 g/m*3 13.2 C 0 km/h
837 21-09-2007 23:21:02 13 C 7.6 g/m*3 13 C 0 km/h
838 21-09-2007 23:33:02 12.7 C 7.68 g/m*3 12.7 C 0 km/h
839 21-09-2007 23:45:01 12.5 C 7.59 g/m*3 12.5 C 0 km/h
840 21-09-2007 23:57:01 12.4 C 7.54 g/m*3 12.4 C 0 km/h
841 22-09-2007 00:09:01 12.1 C 7.61 g/m*3 12.1 C 0 km/h
842 22-09-2007 00:21:02 11.8 C 7.79 g/m*3 11.8 C 0 km/h
843 22-09-2007 00:33:02 11.8 C 7.79 g/m*3 11.8 C 0 km/h
844 22-09-2007 00:45:02 11.7 C 7.64 g/m*3 11.7 C 0 km/h
845 22-09-2007 00:57:02 11.5 C 7.64 g/m*3 11.5 C 0 km/h
846 22-09-2007 01:09:02 11.5 C 7.75 g/m*3 11.5 C 0 km/h
847 22-09-2007 01:21:02 11.4 C 7.7 g/m*3 11.4 C 0 km/h
848 22-09-2007 01:33:02 11.4 C 7.6 g/m*3 11.4 C 0 km/h
849 22-09-2007 01:45:03 11.2 C 7.6 g/m*3 11.2 C 0 km/h
850 22-09-2007 01:57:03 11.2 C 7.6 g/m*3 11.2 C 0 km/h
Sensor: Nr:Datum:Temp:Abs-Feuchte:Windchill:Wind:
Aussen-T/F 851 22-09-2007 02:09:02 10.9 C 7.76 g/m*3 10.9 C 0 km/h
852 22-09-2007 02:21:03 10.7 C 7.76 g/m*3 10.7 C 0 km/h
853 22-09-2007 02:33:03 10.7 C 7.76 g/m*3 10.7 C 0 km/h
854 22-09-2007 02:46:03 10.8 C 7.81 g/m*3 10.8 C 0 km/h
855 22-09-2007 02:58:03 10.9 C 7.76 g/m*3 10.9 C 0 km/h
856 22-09-2007 03:10:03 10.7 C 7.66 g/m*3 10.7 C 0 km/h
857 22-09-2007 03:22:03 10.7 C 7.76 g/m*3 10.7 C 0 km/h
858 22-09-2007 03:34:03 10.6 C 7.61 g/m*3 10.6 C 0 km/h
859 22-09-2007 03:46:03 10.4 C 7.61 g/m*3 10.4 C 0 km/h
860 22-09-2007 03:58:03 10.4 C 7.71 g/m*3 10.4 C 0 km/h
861 22-09-2007 04:10:03 10.2 C 7.71 g/m*3 10.2 C 0 km/h
862 22-09-2007 04:22:03 10.1 C 7.66 g/m*3 10.1 C 0 km/h
863 22-09-2007 04:34:02 10.1 C 7.66 g/m*3 10.1 C 0 km/h
864 22-09-2007 04:46:02 10 C 7.71 g/m*3 10 C 0 km/h
865 22-09-2007 04:58:02 10 C 7.71 g/m*3 10 C 0 km/h
866 22-09-2007 05:10:02 9.8 C 7.7 g/m*3 9.8 C 0 km/h
867 22-09-2007 05:22:02 9.7 C 7.65 g/m*3 9.7 C 0 km/h
868 22-09-2007 05:34:03 9.6 C 7.6 g/m*3 9.6 C 0 km/h
869 22-09-2007 05:46:02 9.5 C 7.55 g/m*3 9.5 C 0 km/h
870 22-09-2007 05:58:02 9.4 C 7.51 g/m*3 9.4 C 0 km/h
871 22-09-2007 06:10:02 9.3 C 7.46 g/m*3 9.3 C 0 km/h
872 22-09-2007 06:22:03 9.2 C 7.41 g/m*3 9.2 C 0 km/h
873 22-09-2007 06:34:02 9.1 C 7.36 g/m*3 9.1 C 0 km/h
874 22-09-2007 06:46:02 9 C 7.41 g/m*3 9 C 0 km/h
875 22-09-2007 06:58:02 8.9 C 7.45 g/m*3 8.9 C 0 km/h
Sensor: Nr:Datum:Temp:Abs-Feuchte:Windchill:Wind:
Aussen-T/F 876 22-09-2007 07:10:02 8.8 C 7.4 g/m*3 8.8 C 0 km/h
877 22-09-2007 07:22:01 8.7 C 7.44 g/m*3 8.7 C 0 km/h
878 22-09-2007 07:34:02 8.7 C 7.52 g/m*3 8.7 C 0 km/h
879 22-09-2007 07:46:02 8.5 C 7.43 g/m*3 8.5 C 0 km/h
880 22-09-2007 07:58:02 8.6 C 7.48 g/m*3 8.6 C 0 km/h
881 22-09-2007 08:10:02 8.8 C 7.57 g/m*3 8.8 C 0 km/h
882 22-09-2007 08:22:02 9 C 7.58 g/m*3 9 C 0 km/h
883 22-09-2007 08:34:02 9.2 C 7.68 g/m*3 9.2 C 0 km/h
884 22-09-2007 08:46:02 9.4 C 7.69 g/m*3 9.4 C 0 km/h
885 22-09-2007 08:58:02 9.6 C 7.79 g/m*3 9.6 C 0 km/h
886 22-09-2007 09:10:02 9.6 C 7.69 g/m*3 9.6 C 0 km/h
887 22-09-2007 09:22:01 9.7 C 7.74 g/m*3 9.7 C 0 km/h
888 22-09-2007 09:34:02 9.8 C 7.79 g/m*3 9.8 C 0 km/h
889 22-09-2007 09:46:02 10.1 C 7.85 g/m*3 10.1 C 0 km/h
890 22-09-2007 09:58:02 10.3 C 7.95 g/m*3 10.3 C 0 km/h
891 22-09-2007 10:10:03 10.8 C 8.2 g/m*3 10.8 C 0 km/h
892 22-09-2007 10:22:02 11.1 C 8.06 g/m*3 11.1 C 0 km/h
893 22-09-2007 10:34:02 11.5 C 8.26 g/m*3 11.5 C 0 km/h
894 22-09-2007 10:46:02 12.3 C 8.58 g/m*3 12.3 C 0 km/h
895 22-09-2007 10:58:02 12.7 C 8.68 g/m*3 12.7 C 0 km/h
896 22-09-2007 11:10:02 13.4 C 8.72 g/m*3 13.4 C 0 km/h
897 22-09-2007 11:22:02 13.7 C 8.76 g/m*3 13.7 C 0 km/h
898 22-09-2007 11:34:02 14.4 C 8.78 g/m*3 14.4 C 0 km/h
899 22-09-2007 11:46:01 15.5 C 8.86 g/m*3 15.5 C 0 km/h
900 22-09-2007 11:58:01 16.2 C 8.69 g/m*3 16.2 C 0 km/h
Sensor: Nr:Datum:Temp:Abs-Feuchte:Windchill:Wind:
Aussen-T/F 901 22-09-2007 12:10:01 16.8 C 8.86 g/m*3 16.8 C 0 km/h
902 22-09-2007 12:22:02 17.7 C 9.05 g/m*3 17.7 C 0 km/h
903 22-09-2007 12:34:01 17.7 C 9.05 g/m*3 17.7 C 0 km/h
904 22-09-2007 12:46:02 18.1 C 9.12 g/m*3 18.1 C 0 km/h
905 22-09-2007 12:58:03 18.4 C 9.28 g/m*3 18.4 C 0 km/h
906 22-09-2007 13:10:01 19.1 C 9.18 g/m*3 19.1 C 0 km/h
907 22-09-2007 13:22:02 19.7 C 9.34 g/m*3 19.7 C 0 km/h
908 22-09-2007 13:34:02 20.4 C 9.38 g/m*3 20.4 C 0 km/h
909 22-09-2007 13:46:02 21.3 C 9.13 g/m*3 21.3 C 0 km/h
910 22-09-2007 13:58:02 22.3 C 8.69 g/m*3 22.3 C 0 km/h
911 22-09-2007 14:10:02 22.9 C 8.79 g/m*3 22.9 C 0 km/h
912 22-09-2007 14:22:01 23.5 C 8.67 g/m*3 23.5 C 0 km/h
913 22-09-2007 14:34:02 24 C 8.7 g/m*3 24 C 0 km/h
914 22-09-2007 14:46:01 24.6 C 8.1 g/m*3 24.6 C 0 km/h
915 22-09-2007 14:58:01 25.2 C 8.15 g/m*3 25.2 C 0 km/h
916 22-09-2007 15:10:03 25.4 C 8.24 g/m*3 25.4 C 0 km/h
917 22-09-2007 15:22:02 25.9 C 8.47 g/m*3 25.9 C 0 km/h
918 22-09-2007 15:34:01 26.2 C 8.37 g/m*3 26.2 C 0 km/h
919 22-09-2007 15:46:02 26.5 C 8.51 g/m*3 26.5 C 0 km/h
920 22-09-2007 15:58:02 27.1 C 8.54 g/m*3 27.1 C 0 km/h
921 22-09-2007 16:10:01 27.5 C 7.94 g/m*3 27.5 C 0 km/h
922 22-09-2007 16:22:01 27.4 C 7.1 g/m*3 27.4 C 0 km/h
923 22-09-2007 16:34:02 27.8 C 8.07 g/m*3 27.8 C 0 km/h
924 22-09-2007 16:46:03 28.2 C 7.97 g/m*3 28.2 C 0 km/h
925 22-09-2007 16:58:03 28.3 C 7.46 g/m*3 28.3 C 0 km/h
Sensor: Nr:Datum:Temp:Abs-Feuchte:Windchill:Wind:
Aussen-T/F 926 22-09-2007 17:10:02 28.4 C 7.23 g/m*3 28.4 C 0 km/h
927 22-09-2007 17:22:02 28.3 C 7.46 g/m*3 28.3 C 0 km/h
928 22-09-2007 17:34:03 28.2 C 7.7 g/m*3 28.2 C 0 km/h
929 22-09-2007 17:46:02 27.9 C 8.11 g/m*3 27.9 C 0 km/h
930 22-09-2007 17:58:02 26.7 C 7.85 g/m*3 26.7 C 0 km/h
931 22-09-2007 18:10:02 26.3 C 7.92 g/m*3 26.3 C 0 km/h
932 22-09-2007 18:22:02 26 C 7.79 g/m*3 26 C 0 km/h
933 22-09-2007 18:34:02 24.7 C 7.92 g/m*3 24.7 C 0 km/h
934 22-09-2007 18:46:02 24 C 7.83 g/m*3 24 C 0 km/h
935 22-09-2007 18:58:02 23.3 C 7.95 g/m*3 23.3 C 0 km/h
936 22-09-2007 19:10:01 22.5 C 8.19 g/m*3 22.5 C 0 km/h
937 22-09-2007 19:22:02 21.5 C 8.3 g/m*3 21.5 C 0 km/h
938 22-09-2007 19:34:02 20.7 C 8.28 g/m*3 20.7 C 0 km/h
939 22-09-2007 19:46:02 20 C 7.95 g/m*3 20 C 0 km/h
940 22-09-2007 19:58:02 19.6 C 8.27 g/m*3 19.6 C 0 km/h
941 22-09-2007 20:10:02 19.2 C 8.41 g/m*3 19.2 C 0 km/h
942 22-09-2007 20:22:02 19 C 8.47 g/m*3 19 C 0 km/h
943 22-09-2007 20:34:02 18.5 C 8.7 g/m*3 18.5 C 0 km/h
944 22-09-2007 20:46:02 18.2 C 8.7 g/m*3 18.2 C 0 km/h
945 22-09-2007 20:58:02 18 C 8.75 g/m*3 18 C 0 km/h
946 22-09-2007 21:10:02 17.7 C 9.05 g/m*3 17.7 C 0 km/h
947 22-09-2007 21:22:02 17.4 C 9.04 g/m*3 17.4 C 0 km/h
948 22-09-2007 21:34:02 17.1 C 9.17 g/m*3 17.1 C 0 km/h
949 22-09-2007 21:46:01 16.8 C 9.29 g/m*3 16.8 C 0 km/h
950 22-09-2007 21:58:01 16.5 C 9.41 g/m*3 16.5 C 0 km/h
Sensor: Nr:Datum:Temp:Abs-Feuchte:Windchill:Wind:
Aussen-T/F 951 22-09-2007 22:10:02 16.2 C 9.38 g/m*3 16.2 C 0 km/h
952 22-09-2007 22:22:02 16 C 9.4 g/m*3 16 C 0 km/h
953 22-09-2007 22:34:02 15.7 C 9.37 g/m*3 15.7 C 0 km/h
954 22-09-2007 22:46:02 15.6 C 9.44 g/m*3 15.6 C 0 km/h
955 22-09-2007 22:58:02 15.2 C 9.22 g/m*3 15.2 C 0 km/h
956 22-09-2007 23:10:02 15 C 9.23 g/m*3 15 C 0 km/h
957 22-09-2007 23:22:02 14.8 C 9.37 g/m*3 14.8 C 0 km/h
958 22-09-2007 23:34:02 14.7 C 9.32 g/m*3 14.7 C 0 km/h
959 22-09-2007 23:46:01 14.4 C 9.15 g/m*3 14.4 C 0 km/h
960 22-09-2007 23:58:02 14.3 C 9.21 g/m*3 14.3 C 0 km/h
961 23-09-2007 00:10:02 14.2 C 9.16 g/m*3 14.2 C 0 km/h
962 23-09-2007 00:22:02 14 C 9.05 g/m*3 14 C 0 km/h
963 23-09-2007 00:34:02 14 C 9.17 g/m*3 14 C 0 km/h
964 23-09-2007 00:46:03 13.7 C 9.12 g/m*3 13.7 C 0 km/h
965 23-09-2007 00:58:03 13.4 C 9.07 g/m*3 13.4 C 0 km/h
966 23-09-2007 01:10:02 13.3 C 9.01 g/m*3 13.3 C 0 km/h
967 23-09-2007 01:22:03 13.2 C 9.07 g/m*3 13.2 C 0 km/h
968 23-09-2007 01:34:02 13.2 C 9.19 g/m*3 13.2 C 0 km/h
969 23-09-2007 01:46:02 13.1 C 9.13 g/m*3 13.1 C 0 km/h
970 23-09-2007 01:58:02 13 C 9.07 g/m*3 13 C 0 km/h
971 23-09-2007 02:10:02 12.8 C 9.07 g/m*3 12.8 C 0 km/h
972 23-09-2007 02:22:02 12.5 C 8.91 g/m*3 12.5 C 0 km/h
973 23-09-2007 02:34:02 12.5 C 8.91 g/m*3 12.5 C 0 km/h
974 23-09-2007 02:46:02 12.4 C 8.96 g/m*3 12.4 C 0 km/h
975 23-09-2007 02:58:02 12.1 C 8.79 g/m*3 12.1 C 0 km/h
Sensor: Nr:Datum:Temp:Abs-Feuchte:Windchill:Wind:
Aussen-T/F 976 23-09-2007 03:10:02 12.1 C 8.9 g/m*3 12.1 C 0 km/h
977 23-09-2007 03:22:02 12 C 8.85 g/m*3 12 C 0 km/h
978 23-09-2007 03:34:01 12 C 8.85 g/m*3 12 C 0 km/h
979 23-09-2007 03:46:01 11.9 C 8.9 g/m*3 11.9 C 0 km/h
980 23-09-2007 03:58:01 11.8 C 8.84 g/m*3 11.8 C 0 km/h
981 23-09-2007 04:10:02 11.7 C 8.89 g/m*3 11.7 C 0 km/h
982 23-09-2007 04:22:01 11.7 C 8.89 g/m*3 11.7 C 0 km/h
983 23-09-2007 04:34:01 11.7 C 8.89 g/m*3 11.7 C 0 km/h
984 23-09-2007 04:46:01 11.4 C 8.72 g/m*3 11.4 C 0 km/h
985 23-09-2007 04:58:01 11.4 C 8.72 g/m*3 11.4 C 0 km/h
986 23-09-2007 05:10:01 11.4 C 8.72 g/m*3 11.4 C 0 km/h
987 23-09-2007 05:22:02 11.4 C 8.72 g/m*3 11.4 C 0 km/h
988 23-09-2007 05:34:02 11.1 C 8.56 g/m*3 11.1 C 0 km/h
989 23-09-2007 05:46:01 11 C 8.51 g/m*3 11 C 0 km/h
990 23-09-2007 05:58:01 10.9 C 8.45 g/m*3 10.9 C 0 km/h
991 23-09-2007 06:10:01 10.8 C 8.4 g/m*3 10.8 C 0 km/h
992 23-09-2007 06:22:02 10.7 C 8.45 g/m*3 10.7 C 0 km/h
993 23-09-2007 06:34:01 10.7 C 8.45 g/m*3 10.7 C 0 km/h
994 23-09-2007 06:46:01 10.7 C 8.45 g/m*3 10.7 C 0 km/h
995 23-09-2007 06:58:02 10.8 C 8.6 g/m*3 10.8 C 0 km/h
996 23-09-2007 07:10:01 10.7 C 8.45 g/m*3 10.7 C 0 km/h
997 23-09-2007 07:22:01 10.7 C 8.45 g/m*3 10.7 C 0 km/h
998 23-09-2007 07:34:02 10.7 C 8.55 g/m*3 10.7 C 0 km/h
999 23-09-2007 07:46:02 10.7 C 8.55 g/m*3 10.7 C 0 km/h
1000 23-09-2007 07:58:02 11.1 C 8.76 g/m*3 11.1 C 0 km/h
Sensor: Nr:Datum:Temp:Abs-Feuchte:Windchill:Wind:
Aussen-T/F 1001 23-09-2007 08:10:02 11.5 C 8.99 g/m*3 11.5 C 0 km/h
1002 23-09-2007 08:22:01 11.9 C 9 g/m*3 11.9 C 0 km/h
1003 23-09-2007 08:34:02 12.2 C 9.06 g/m*3 12.2 C 0 km/h
1004 23-09-2007 08:46:01 12.4 C 8.96 g/m*3 12.4 C 0 km/h
1005 23-09-2007 08:58:01 12.6 C 9.07 g/m*3 12.6 C 0 km/h
1006 23-09-2007 09:10:02 12.7 C 9.02 g/m*3 12.7 C 0 km/h
1007 23-09-2007 09:22:02 12.4 C 8.96 g/m*3 12.4 C 0 km/h
1008 23-09-2007 09:34:02 12.4 C 9.07 g/m*3 12.4 C 0 km/h
1009 23-09-2007 09:46:02 12.5 C 9.13 g/m*3 12.5 C 0 km/h
1010 23-09-2007 09:58:02 13.2 C 9.53 g/m*3 13.2 C 0 km/h
1011 23-09-2007 10:10:01 13.7 C 9.71 g/m*3 13.7 C 0 km/h
1012 23-09-2007 10:22:01 14 C 9.65 g/m*3 14 C 0 km/h
1013 23-09-2007 10:34:02 14.4 C 9.77 g/m*3 14.4 C 0 km/h
1014 23-09-2007 10:46:01 14.9 C 9.94 g/m*3 14.9 C 0 km/h
1015 23-09-2007 10:58:01 15.5 C 9.78 g/m*3 15.5 C 0 km/h
1016 23-09-2007 11:10:01 16.2 C 9.65 g/m*3 16.2 C 0 km/h
1017 23-09-2007 11:22:02 16.8 C 10.15 g/m*3 16.8 C 0 km/h
1018 23-09-2007 11:34:02 17.4 C 9.78 g/m*3 17.4 C 0 km/h
1019 23-09-2007 11:46:02 17.8 C 10.02 g/m*3 17.8 C 0 km/h
1020 23-09-2007 11:58:02 18.5 C 10.13 g/m*3 18.5 C 0 km/h
1021 23-09-2007 12:10:02 19.1 C 9.84 g/m*3 19.1 C 0 km/h
1022 23-09-2007 12:22:01 19.4 C 10.18 g/m*3 19.4 C 0 km/h
1023 23-09-2007 12:34:01 19.7 C 10.36 g/m*3 19.7 C 0 km/h
1024 23-09-2007 12:46:01 20.4 C 10.44 g/m*3 20.4 C 0 km/h
1025 23-09-2007 12:58:01 20.9 C 10.56 g/m*3 20.9 C 0 km/h
Sensor: Nr:Datum:Temp:Abs-Feuchte:Windchill:Wind:
Aussen-T/F 1026 23-09-2007 13:10:02 21.3 C 10.62 g/m*3 21.3 C 0 km/h
1027 23-09-2007 13:22:01 21.9 C 10.23 g/m*3 21.9 C 0 km/h
1028 23-09-2007 13:34:01 22.7 C 8.89 g/m*3 22.7 C 0 km/h
1029 23-09-2007 13:46:01 23.3 C 9.83 g/m*3 23.3 C 0 km/h
1030 23-09-2007 13:58:01 23.8 C 9.46 g/m*3 23.8 C 0 km/h
1031 23-09-2007 14:10:02 24.6 C 9.23 g/m*3 24.6 C 0 km/h
1032 23-09-2007 14:22:02 25.7 C 9.34 g/m*3 25.7 C 0 km/h
1033 23-09-2007 14:34:02 26.1 C 8.57 g/m*3 26.1 C 0 km/h
1034 23-09-2007 14:46:01 25.1 C 8.1 g/m*3 25.1 C 0 km/h
1035 23-09-2007 14:58:01 26.2 C 7.88 g/m*3 26.2 C 0 km/h
1036 23-09-2007 15:10:01 26.2 C 7.88 g/m*3 26.2 C 0 km/h
1037 23-09-2007 15:22:02 26.2 C 7.88 g/m*3 26.2 C 0 km/h
1038 23-09-2007 15:34:01 26.2 C 7.88 g/m*3 26.2 C 0 km/h
1039 23-09-2007 15:46:01 26.2 C 7.88 g/m*3 26.2 C 0 km/h
1040 23-09-2007 15:58:01 29.4 C 7.63 g/m*3 29.4 C 0 km/h
1041 23-09-2007 16:10:01 29.7 C 7.76 g/m*3 29.7 C 0 km/h
1042 23-09-2007 16:22:01 30 C 7.28 g/m*3 30 C 0 km/h
1043 23-09-2007 16:34:02 29.8 C 7.2 g/m*3 29.8 C 0 km/h
1044 23-09-2007 16:46:02 29 C 6.89 g/m*3 29 C 0 km/h
1045 23-09-2007 16:58:02 29 C 7.47 g/m*3 29 C 0 km/h
1046 23-09-2007 17:10:01 29.6 C 7.72 g/m*3 29.6 C 0 km/h
1047 23-09-2007 17:22:01 29.5 C 7.38 g/m*3 29.5 C 0 km/h
1048 23-09-2007 17:34:02 29 C 7.76 g/m*3 29 C 0 km/h
1049 23-09-2007 17:46:02 29 C 7.18 g/m*3 29 C 0 km/h
1050 23-09-2007 17:58:02 28.6 C 8.15 g/m*3 28.6 C 0 km/h
Sensor: Nr:Datum:Temp:Abs-Feuchte:Windchill:Wind:
Aussen-T/F 1051 23-09-2007 18:10:02 27.9 C 7.3 g/m*3 27.9 C 0 km/h
1052 23-09-2007 18:22:01 27.3 C 7.85 g/m*3 27.3 C 0 km/h
1053 23-09-2007 18:34:01 27.2 C 7.81 g/m*3 27.2 C 0 km/h
1054 23-09-2007 18:46:01 26.4 C 7.97 g/m*3 26.4 C 0 km/h
1055 23-09-2007 18:58:01 24.7 C 8.15 g/m*3 24.7 C 0 km/h
1056 23-09-2007 19:10:02 23.7 C 8.56 g/m*3 23.7 C 0 km/h
1057 23-09-2007 19:22:03 22.5 C 8.59 g/m*3 22.5 C 0 km/h
1058 23-09-2007 19:34:02 21.6 C 8.72 g/m*3 21.6 C 0 km/h
1059 23-09-2007 19:46:02 21.1 C 8.48 g/m*3 21.1 C 0 km/h
1060 23-09-2007 19:58:02 20.7 C 8.64 g/m*3 20.7 C 0 km/h
1061 23-09-2007 20:10:01 20.3 C 8.44 g/m*3 20.3 C 0 km/h
1062 23-09-2007 20:22:01 19.9 C 8.59 g/m*3 19.9 C 0 km/h
1063 23-09-2007 20:34:02 19.5 C 8.73 g/m*3 19.5 C 0 km/h
1064 23-09-2007 20:46:02 19.2 C 8.57 g/m*3 19.2 C 0 km/h
1065 23-09-2007 20:58:02 19.3 C 8.46 g/m*3 19.3 C 0 km/h
1066 23-09-2007 21:10:01 19.4 C 8.68 g/m*3 19.4 C 0 km/h
1067 23-09-2007 21:22:01 19.1 C 8.69 g/m*3 19.1 C 0 km/h
1068 23-09-2007 21:34:02 18.9 C 8.59 g/m*3 18.9 C 0 km/h
1069 23-09-2007 21:46:02 18.7 C 8.65 g/m*3 18.7 C 0 km/h
1070 23-09-2007 21:58:02 18.5 C 8.39 g/m*3 18.5 C 0 km/h
1071 23-09-2007 22:10:02 18.3 C 8.6 g/m*3 18.3 C 0 km/h
1072 23-09-2007 22:22:01 17.9 C 8.55 g/m*3 17.9 C 0 km/h
1073 23-09-2007 22:34:02 17.8 C 8.5 g/m*3 17.8 C 0 km/h
1074 23-09-2007 22:46:02 17.6 C 8.55 g/m*3 17.6 C 0 km/h
1075 23-09-2007 22:58:02 17.3 C 8.54 g/m*3 17.3 C 0 km/h
Sensor: Nr:Datum:Temp:Abs-Feuchte:Windchill:Wind:
Aussen-T/F 1076 23-09-2007 23:10:02 16.9 C 8.63 g/m*3 16.9 C 0 km/h
1077 23-09-2007 23:22:01 16.7 C 8.81 g/m*3 16.7 C 0 km/h
1078 23-09-2007 23:34:01 16.5 C 8.85 g/m*3 16.5 C 0 km/h
1079 23-09-2007 23:46:01 16.2 C 8.96 g/m*3 16.2 C 0 km/h
1080 23-09-2007 23:58:01 16.2 C 8.96 g/m*3 16.2 C 0 km/h
1081 24-09-2007 00:10:02 16.1 C 9.05 g/m*3 16.1 C 0 km/h
1082 24-09-2007 00:22:02 15.9 C 9.07 g/m*3 15.9 C 0 km/h
1083 24-09-2007 00:34:02 16 C 9.13 g/m*3 16 C 0 km/h
1084 24-09-2007 00:46:02 16 C 9.13 g/m*3 16 C 0 km/h
1085 24-09-2007 00:58:02 15.7 C 9.1 g/m*3 15.7 C 0 km/h
1086 24-09-2007 01:10:02 15.5 C 9.12 g/m*3 15.5 C 0 km/h
1087 24-09-2007 01:22:02 15.3 C 9.01 g/m*3 15.3 C 0 km/h
1088 24-09-2007 01:34:02 15.2 C 9.09 g/m*3 15.2 C 0 km/h
1089 24-09-2007 01:46:02 15 C 9.1 g/m*3 15 C 0 km/h
1090 24-09-2007 01:58:02 14.9 C 9.18 g/m*3 14.9 C 0 km/h
1091 24-09-2007 02:10:02 14.7 C 9.19 g/m*3 14.7 C 0 km/h
1092 24-09-2007 02:22:02 14.7 C 9.19 g/m*3 14.7 C 0 km/h
1093 24-09-2007 02:34:01 14.5 C 9.08 g/m*3 14.5 C 0 km/h
1094 24-09-2007 02:46:01 14.3 C 9.21 g/m*3 14.3 C 0 km/h
1095 24-09-2007 02:58:01 14.3 C 9.34 g/m*3 14.3 C 0 km/h
1096 24-09-2007 03:10:01 14.5 C 9.45 g/m*3 14.5 C 0 km/h
1097 24-09-2007 03:22:01 14.5 C 9.33 g/m*3 14.5 C 0 km/h
1098 24-09-2007 03:34:02 14.3 C 9.34 g/m*3 14.3 C 0 km/h
1099 24-09-2007 03:46:02 14.3 C 9.46 g/m*3 14.3 C 0 km/h
1100 24-09-2007 03:58:02 14.2 C 9.4 g/m*3 14.2 C 0 km/h
Sensor: Nr:Datum:Temp:Abs-Feuchte:Windchill:Wind:
Aussen-T/F 1101 24-09-2007 04:10:02 14 C 9.29 g/m*3 14 C 0 km/h
1102 24-09-2007 04:22:02 13.9 C 9.35 g/m*3 13.9 C 0 km/h
1103 24-09-2007 04:34:02 13.7 C 9.35 g/m*3 13.7 C 0 km/h
1104 24-09-2007 04:46:02 13.5 C 9.24 g/m*3 13.5 C 0 km/h
1105 24-09-2007 04:58:02 13.5 C 9.36 g/m*3 13.5 C 0 km/h
1106 24-09-2007 05:10:02 13.5 C 9.47 g/m*3 13.5 C 0 km/h
1107 24-09-2007 05:22:02 13.3 C 9.47 g/m*3 13.3 C 0 km/h
1108 24-09-2007 05:34:02 13.2 C 9.3 g/m*3 13.2 C 0 km/h
1109 24-09-2007 05:46:02 13.2 C 9.42 g/m*3 13.2 C 0 km/h
1110 24-09-2007 05:58:02 13.1 C 9.24 g/m*3 13.1 C 0 km/h
1111 24-09-2007 06:10:02 13 C 9.3 g/m*3 13 C 0 km/h
1112 24-09-2007 06:22:01 13 C 9.41 g/m*3 13 C 0 km/h
1113 24-09-2007 06:34:02 12.8 C 9.41 g/m*3 12.8 C 0 km/h
1114 24-09-2007 06:46:01 12.7 C 9.35 g/m*3 12.7 C 0 km/h
1115 24-09-2007 06:58:01 12.7 C 9.46 g/m*3 12.7 C 0 km/h
1116 24-09-2007 07:10:02 12.5 C 9.35 g/m*3 12.5 C 0 km/h
1117 24-09-2007 07:22:01 12.5 C 9.35 g/m*3 12.5 C 0 km/h
1118 24-09-2007 07:34:01 12.4 C 9.4 g/m*3 12.4 C 0 km/h
1119 24-09-2007 07:46:01 12.4 C 9.4 g/m*3 12.4 C 0 km/h
1120 24-09-2007 07:58:01 12.4 C 9.51 g/m*3 12.4 C 0 km/h
1121 24-09-2007 08:10:02 12.4 C 9.51 g/m*3 12.4 C 0 km/h
1122 24-09-2007 08:22:01 12.5 C 9.57 g/m*3 12.5 C 0 km/h
1123 24-09-2007 08:34:01 12.4 C 9.51 g/m*3 12.4 C 0 km/h
1124 24-09-2007 08:46:01 12.5 C 9.57 g/m*3 12.5 C 0 km/h
1125 24-09-2007 08:58:01 12.7 C 9.8 g/m*3 12.7 C 0 km/h
Sensor: Nr:Datum:Temp:Abs-Feuchte:Windchill:Wind:
Aussen-T/F 1126 24-09-2007 09:10:02 12.9 C 9.92 g/m*3 12.9 C 0 km/h
1127 24-09-2007 09:22:02 13 C 9.98 g/m*3 13 C 0 km/h
1128 24-09-2007 09:34:01 13.2 C 10.1 g/m*3 13.2 C 0 km/h
1129 24-09-2007 09:46:01 13.6 C 10.47 g/m*3 13.6 C 0 km/h
1130 24-09-2007 09:58:02 14.1 C 10.8 g/m*3 14.1 C 0 km/h
1131 24-09-2007 10:10:01 14.6 C 11.14 g/m*3 14.6 C 0 km/h
1132 24-09-2007 10:22:01 15.3 C 11.36 g/m*3 15.3 C 0 km/h
1133 24-09-2007 10:34:02 15.9 C 11.24 g/m*3 15.9 C 0 km/h
1134 24-09-2007 10:46:02 16.7 C 10.23 g/m*3 16.7 C 0 km/h
1135 24-09-2007 10:58:02 17.7 C 9.35 g/m*3 17.7 C 0 km/h
1136 24-09-2007 11:10:02 18.1 C 8.81 g/m*3 18.1 C 0 km/h
1137 24-09-2007 11:22:01 18.5 C 8.86 g/m*3 18.5 C 0 km/h
1138 24-09-2007 11:34:01 19.1 C 8.2 g/m*3 19.1 C 0 km/h
1139 24-09-2007 11:46:01 19.5 C 8.22 g/m*3 19.5 C 0 km/h
1140 24-09-2007 11:58:01 20 C 8.3 g/m*3 20 C 0 km/h
1141 24-09-2007 12:10:01 20.4 C 8.14 g/m*3 20.4 C 0 km/h
1142 24-09-2007 12:22:02 21 C 7.88 g/m*3 21 C 0 km/h
1143 24-09-2007 12:34:01 21.7 C 7.63 g/m*3 21.7 C 0 km/h
1144 24-09-2007 12:46:01 22.2 C 7.46 g/m*3 22.2 C 0 km/h
1145 24-09-2007 12:58:01 22.4 C 7.75 g/m*3 22.4 C 0 km/h
1146 24-09-2007 13:10:01 22.3 C 7.7 g/m*3 22.3 C 0 km/h
1147 24-09-2007 13:22:02 22.4 C 7.35 g/m*3 22.4 C 0 km/h
1148 24-09-2007 13:34:01 22.7 C 7.27 g/m*3 22.7 C 0 km/h
1149 24-09-2007 13:46:01 23 C 7.19 g/m*3 23 C 0 km/h
1150 24-09-2007 13:58:01 23.2 C 7.28 g/m*3 23.2 C 0 km/h
Sensor: Nr:Datum:Temp:Abs-Feuchte:Windchill:Wind:
Aussen-T/F 1151 24-09-2007 14:10:01 23.4 C 7.57 g/m*3 23.4 C 0 km/h
1152 24-09-2007 14:22:02 23.7 C 7.49 g/m*3 23.7 C 0 km/h
1153 24-09-2007 14:34:01 24.1 C 7.44 g/m*3 24.1 C 0 km/h
1154 24-09-2007 14:46:02 24 C 7.61 g/m*3 24 C 0 km/h
1155 24-09-2007 14:58:02 23.6 C 7.44 g/m*3 23.6 C 0 km/h
1156 24-09-2007 15:10:01 23.7 C 7.49 g/m*3 23.7 C 0 km/h
1157 24-09-2007 15:22:01 23.7 C 7.49 g/m*3 23.7 C 0 km/h
1158 24-09-2007 15:34:02 23.3 C 7.53 g/m*3 23.3 C 0 km/h
1159 24-09-2007 15:46:02 23.7 C 7.49 g/m*3 23.7 C 0 km/h
1160 24-09-2007 15:58:02 23.6 C 7.23 g/m*3 23.6 C 0 km/h
1161 24-09-2007 16:10:01 23.2 C 7.28 g/m*3 23.2 C 0 km/h
1162 24-09-2007 16:22:01 23 C 7.19 g/m*3 23 C 0 km/h
1163 24-09-2007 16:34:02 22.8 C 7.32 g/m*3 22.8 C 0 km/h
1164 24-09-2007 16:46:02 22.5 C 7.39 g/m*3 22.5 C 0 km/h
1165 24-09-2007 16:58:02 22.1 C 7.03 g/m*3 22.1 C 0 km/h
1166 24-09-2007 17:10:02 22 C 7.18 g/m*3 22 C 0 km/h
1167 24-09-2007 17:22:01 21.9 C 7.53 g/m*3 21.9 C 0 km/h
1168 24-09-2007 17:34:01 21.9 C 7.53 g/m*3 21.9 C 0 km/h
1169 24-09-2007 17:46:01 21.9 C 7.53 g/m*3 21.9 C 0 km/h
1170 24-09-2007 17:58:01 21.7 C 7.63 g/m*3 21.7 C 0 km/h
1171 24-09-2007 18:10:02 21.4 C 7.69 g/m*3 21.4 C 0 km/h
1172 24-09-2007 18:22:01 21 C 7.88 g/m*3 21 C 0 km/h
1173 24-09-2007 18:34:01 20.3 C 8.09 g/m*3 20.3 C 0 km/h
1174 24-09-2007 18:46:01 20.1 C 8.17 g/m*3 20.1 C 0 km/h
1175 24-09-2007 18:58:01 19.6 C 8.44 g/m*3 19.6 C 0 km/h
Sensor: Nr:Datum:Temp:Abs-Feuchte:Windchill:Wind:
Aussen-T/F 1176 24-09-2007 19:10:02 18.8 C 9.18 g/m*3 18.8 C 0 km/h
1177 24-09-2007 19:22:02 18 C 9.52 g/m*3 18 C 0 km/h
1178 24-09-2007 19:34:01 17.7 C 9.96 g/m*3 17.7 C 0 km/h
1179 24-09-2007 19:46:01 17.5 C 10.29 g/m*3 17.5 C 0 km/h
1180 24-09-2007 19:58:01 17.6 C 10.35 g/m*3 17.6 C 0 km/h
1181 24-09-2007 20:10:01 17.5 C 10.29 g/m*3 17.5 C 0 km/h
1182 24-09-2007 20:22:02 17.2 C 10.54 g/m*3 17.2 C 0 km/h
1183 24-09-2007 20:34:01 17.1 C 10.48 g/m*3 17.1 C 0 km/h
1184 24-09-2007 20:46:01 17 C 10.27 g/m*3 17 C 0 km/h
1185 24-09-2007 20:58:01 16.8 C 9.87 g/m*3 16.8 C 0 km/h
1186 24-09-2007 21:10:01 15.5 C 9.78 g/m*3 15.5 C 0 km/h
1187 24-09-2007 21:22:02 14.8 C 10.13 g/m*3 14.8 C 0 km/h
1188 24-09-2007 21:34:01 14.1 C 10.07 g/m*3 14.1 C 0 km/h
1189 24-09-2007 21:46:01 13.8 C 10.25 g/m*3 13.8 C 0 km/h
1190 24-09-2007 21:58:02 14.1 C 10.44 g/m*3 14.1 C 0 km/h
1191 24-09-2007 22:10:01 14.4 C 10.63 g/m*3 14.4 C 0 km/h
1192 24-09-2007 22:22:02 14.6 C 10.76 g/m*3 14.6 C 0 km/h
1193 24-09-2007 22:34:02 14.2 C 10.38 g/m*3 14.2 C 0 km/h
1194 24-09-2007 22:46:02 14.3 C 10.57 g/m*3 14.3 C 0 km/h
1195 24-09-2007 22:58:02 14.4 C 10.63 g/m*3 14.4 C 0 km/h
1196 24-09-2007 23:10:01 14.1 C 10.44 g/m*3 14.1 C 0 km/h
1197 24-09-2007 23:22:01 13.9 C 10.31 g/m*3 13.9 C 0 km/h
1198 24-09-2007 23:34:02 13 C 8.96 g/m*3 13 C 0 km/h
1199 24-09-2007 23:46:02 12.8 C 9.3 g/m*3 12.8 C 0 km/h
1200 24-09-2007 23:58:02 12.4 C 9.29 g/m*3 12.4 C 0 km/h
Sensor: Nr:Datum:Temp:Abs-Feuchte:Windchill:Wind:
Aussen-T/F 1201 25-09-2007 00:10:02 12.3 C 9.45 g/m*3 12.3 C 0 km/h
1202 25-09-2007 00:22:02 12.2 C 9.5 g/m*3 12.2 C 0 km/h
1203 25-09-2007 00:34:02 12.1 C 9.44 g/m*3 12.1 C 0 km/h
1204 25-09-2007 00:46:02 12 C 9.48 g/m*3 12 C 0 km/h
1205 25-09-2007 00:58:02 12 C 9.48 g/m*3 12 C 0 km/h
1206 25-09-2007 01:10:02 11.9 C 9.53 g/m*3 11.9 C 0 km/h
1207 25-09-2007 01:22:02 11.8 C 9.47 g/m*3 11.8 C 0 km/h
1208 25-09-2007 01:34:01 11.8 C 9.47 g/m*3 11.8 C 0 km/h
1209 25-09-2007 01:46:01 11.7 C 9.52 g/m*3 11.7 C 0 km/h
1210 25-09-2007 01:58:01 11.7 C 9.52 g/m*3 11.7 C 0 km/h
1211 25-09-2007 02:10:01 11.7 C 9.52 g/m*3 11.7 C 0 km/h
1212 25-09-2007 02:22:02 11.7 C 9.52 g/m*3 11.7 C 0 km/h
1213 25-09-2007 02:34:02 11.7 C 9.52 g/m*3 11.7 C 0 km/h
1214 25-09-2007 02:46:01 11.8 C 9.58 g/m*3 11.8 C 0 km/h
1215 25-09-2007 02:58:01 11.8 C 9.58 g/m*3 11.8 C 0 km/h
1216 25-09-2007 03:10:02 11.4 C 9.34 g/m*3 11.4 C 0 km/h
1217 25-09-2007 03:22:02 11.2 C 9.12 g/m*3 11.2 C 0 km/h
1218 25-09-2007 03:34:02 11.1 C 9.07 g/m*3 11.1 C 0 km/h
1219 25-09-2007 03:46:02 11 C 9.01 g/m*3 11 C 0 km/h
1220 25-09-2007 03:58:02 11 C 9.01 g/m*3 11 C 0 km/h
1221 25-09-2007 04:10:01 10.8 C 8.9 g/m*3 10.8 C 0 km/h
1222 25-09-2007 04:22:02 10.8 C 8.9 g/m*3 10.8 C 0 km/h
1223 25-09-2007 04:34:02 10.7 C 8.84 g/m*3 10.7 C 0 km/h
1224 25-09-2007 04:46:02 10.7 C 8.84 g/m*3 10.7 C 0 km/h
1225 25-09-2007 04:58:02 10.8 C 8.9 g/m*3 10.8 C 0 km/h
Sensor: Nr:Datum:Temp:Abs-Feuchte:Windchill:Wind:
Aussen-T/F 1226 25-09-2007 05:10:02 10.6 C 8.78 g/m*3 10.6 C 0 km/h
1227 25-09-2007 05:22:02 10.7 C 8.84 g/m*3 10.7 C 0 km/h
1228 25-09-2007 05:34:02 10.6 C 8.78 g/m*3 10.6 C 0 km/h
1229 25-09-2007 05:46:01 10.5 C 8.63 g/m*3 10.5 C 0 km/h
1230 25-09-2007 05:58:01 10.4 C 8.58 g/m*3 10.4 C 0 km/h
1231 25-09-2007 06:10:02 10.3 C 8.52 g/m*3 10.3 C 0 km/h
1232 25-09-2007 06:22:02 10.2 C 8.47 g/m*3 10.2 C 0 km/h
1233 25-09-2007 06:34:01 10.2 C 8.56 g/m*3 10.2 C 0 km/h
1234 25-09-2007 06:46:01 10.2 C 8.47 g/m*3 10.2 C 0 km/h
1235 25-09-2007 06:58:01 10.2 C 8.47 g/m*3 10.2 C 0 km/h
1236 25-09-2007 07:10:02 10.1 C 8.42 g/m*3 10.1 C 0 km/h
1237 25-09-2007 07:22:02 10.2 C 8.47 g/m*3 10.2 C 0 km/h
1238 25-09-2007 07:34:01 10.2 C 8.37 g/m*3 10.2 C 0 km/h
1239 25-09-2007 07:46:01 10.2 C 8.28 g/m*3 10.2 C 0 km/h
1240 25-09-2007 07:58:01 10 C 8.17 g/m*3 10 C 0 km/h
1241 25-09-2007 08:10:02 9.8 C 8.26 g/m*3 9.8 C 0 km/h
1242 25-09-2007 08:22:02 10.1 C 8.32 g/m*3 10.1 C 0 km/h
1243 25-09-2007 08:34:01 10.1 C 8.42 g/m*3 10.1 C 0 km/h
1244 25-09-2007 08:46:02 10.1 C 8.42 g/m*3 10.1 C 0 km/h
1245 25-09-2007 08:58:02 10.2 C 8.47 g/m*3 10.2 C 0 km/h
1246 25-09-2007 09:10:01 10.4 C 8.48 g/m*3 10.4 C 0 km/h
1247 25-09-2007 09:22:01 10.6 C 8.49 g/m*3 10.6 C 0 km/h
1248 25-09-2007 09:34:02 10.9 C 8.45 g/m*3 10.9 C 0 km/h
1249 25-09-2007 09:46:01 11.3 C 8.16 g/m*3 11.3 C 0 km/h
1250 25-09-2007 09:58:01 11.5 C 8.06 g/m*3 11.5 C 0 km/h
Sensor: Nr:Datum:Temp:Abs-Feuchte:Windchill:Wind:
Aussen-T/F 1251 25-09-2007 10:10:02 11.8 C 7.89 g/m*3 11.8 C 0 km/h
1252 25-09-2007 10:22:02 12.2 C 7.77 g/m*3 12.2 C 0 km/h
1253 25-09-2007 10:34:02 12.7 C 7.68 g/m*3 12.7 C 0 km/h
1254 25-09-2007 10:46:01 13 C 7.71 g/m*3 13 C 0 km/h
1255 25-09-2007 10:58:01 13.4 C 7.44 g/m*3 13.4 C 0 km/h
1256 25-09-2007 11:10:02 13.5 C 7.37 g/m*3 13.5 C 0 km/h
1257 25-09-2007 11:22:02 13.5 C 7.25 g/m*3 13.5 C 0 km/h
1258 25-09-2007 11:34:02 13.7 C 7.22 g/m*3 13.7 C 0 km/h
1259 25-09-2007 11:46:01 13.8 C 7.27 g/m*3 13.8 C 0 km/h
1260 25-09-2007 11:58:01 13.9 C 7.07 g/m*3 13.9 C 0 km/h
1261 25-09-2007 12:10:02 14 C 7 g/m*3 14 C 0 km/h
1262 25-09-2007 12:22:01 14.2 C 6.84 g/m*3 14.2 C 0 km/h
1263 25-09-2007 12:34:01 14.3 C 6.63 g/m*3 14.3 C 0 km/h
1264 25-09-2007 12:46:01 14.6 C 6.63 g/m*3 14.6 C 0 km/h
1265 25-09-2007 12:58:01 15 C 6.67 g/m*3 15 C 0 km/h
1266 25-09-2007 13:10:02 15.5 C 6.48 g/m*3 15.5 C 0 km/h
1267 25-09-2007 13:22:02 15.8 C 6.6 g/m*3 15.8 C 0 km/h
1268 25-09-2007 13:34:01 16 C 6.27 g/m*3 16 C 0 km/h
1269 25-09-2007 13:46:01 16.6 C 6.5 g/m*3 16.6 C 0 km/h
1270 25-09-2007 13:58:01 16.4 C 6.42 g/m*3 16.4 C 0 km/h
1271 25-09-2007 14:10:01 15.7 C 6.29 g/m*3 15.7 C 0 km/h
1272 25-09-2007 14:22:02 16.5 C 6.18 g/m*3 16.5 C 0 km/h
1273 25-09-2007 14:34:01 16 C 6.13 g/m*3 16 C 0 km/h
1274 25-09-2007 14:46:01 15.4 C 6.57 g/m*3 15.4 C 0 km/h
1275 25-09-2007 14:58:02 15.6 C 6.52 g/m*3 15.6 C 0 km/h
Sensor: Nr:Datum:Temp:Abs-Feuchte:Windchill:Wind:
Aussen-T/F 1276 25-09-2007 15:10:02 15.6 C 6.38 g/m*3 15.6 C 0 km/h
1277 25-09-2007 15:22:01 16 C 6.4 g/m*3 16 C 0 km/h
1278 25-09-2007 15:34:01 16.1 C 6.31 g/m*3 16.1 C 0 km/h
1279 25-09-2007 15:46:01 16.2 C 6.21 g/m*3 16.2 C 0 km/h
1280 25-09-2007 15:58:01 16.3 C 6.24 g/m*3 16.3 C 0 km/h
1281 25-09-2007 16:10:02 16.5 C 6.18 g/m*3 16.5 C 0 km/h
1282 25-09-2007 16:22:01 17.3 C 6.04 g/m*3 17.3 C 0 km/h
1283 25-09-2007 16:34:01 17.9 C 6.11 g/m*3 17.9 C 0 km/h
1284 25-09-2007 16:46:01 16.9 C 6.04 g/m*3 16.9 C 0 km/h
1285 25-09-2007 16:58:01 16.4 C 6 g/m*3 16.4 C 0 km/h
1286 25-09-2007 17:10:02 16.1 C 5.89 g/m*3 16.1 C 0 km/h
1287 25-09-2007 17:22:02 16 C 5.86 g/m*3 16 C 0 km/h
1288 25-09-2007 17:34:01 16.2 C 5.79 g/m*3 16.2 C 0 km/h
1289 25-09-2007 17:46:01 16.8 C 6 g/m*3 16.8 C 0 km/h
1290 25-09-2007 17:58:01 16.8 C 5.86 g/m*3 16.8 C 0 km/h
1291 25-09-2007 18:10:02 16.8 C 5.86 g/m*3 16.8 C 0 km/h
1292 25-09-2007 18:22:02 17.4 C 5.93 g/m*3 17.4 C 0 km/h
1293 25-09-2007 18:34:01 17.5 C 5.81 g/m*3 17.5 C 0 km/h
1294 25-09-2007 18:46:02 16.4 C 5.72 g/m*3 16.4 C 0 km/h
1295 25-09-2007 18:58:02 16 C 5.86 g/m*3 16 C 0 km/h
1296 25-09-2007 19:10:02 15.3 C 6.01 g/m*3 15.3 C 0 km/h
1297 25-09-2007 19:22:02 14.6 C 6.13 g/m*3 14.6 C 0 km/h
1298 25-09-2007 19:34:01 13.8 C 6.08 g/m*3 13.8 C 0 km/h
1299 25-09-2007 19:46:01 13.5 C 6.08 g/m*3 13.5 C 0 km/h
1300 25-09-2007 19:58:01 13.2 C 6.2 g/m*3 13.2 C 0 km/h
Sensor: Nr:Datum:Temp:Abs-Feuchte:Windchill:Wind:
Aussen-T/F 1301 25-09-2007 20:10:01 12.7 C 6.35 g/m*3 12.7 C 0 km/h
1302 25-09-2007 20:22:02 12.5 C 6.49 g/m*3 12.5 C 0 km/h
1303 25-09-2007 20:34:02 12.3 C 6.41 g/m*3 12.3 C 0 km/h
1304 25-09-2007 20:46:01 12.1 C 6.43 g/m*3 12.1 C 0 km/h
1305 25-09-2007 20:58:02 12.2 C 6.37 g/m*3 12.2 C 0 km/h
1306 25-09-2007 21:10:01 12 C 6.29 g/m*3 12 C 0 km/h
1307 25-09-2007 21:22:01 11.8 C 6.63 g/m*3 11.8 C 0 km/h
1308 25-09-2007 21:34:02 11.8 C 6.63 g/m*3 11.8 C 0 km/h
1309 25-09-2007 21:46:02 11.7 C 6.8 g/m*3 11.7 C 0 km/h
1310 25-09-2007 21:58:02 11.8 C 6.63 g/m*3 11.8 C 0 km/h
1311 25-09-2007 22:10:01 11.8 C 6.63 g/m*3 11.8 C 0 km/h
1312 25-09-2007 22:22:01 11.8 C 6.63 g/m*3 11.8 C 0 km/h
1313 25-09-2007 22:34:02 11.8 C 6.74 g/m*3 11.8 C 0 km/h
1314 25-09-2007 22:46:02 11.8 C 6.74 g/m*3 11.8 C 0 km/h
1315 25-09-2007 22:58:02 11.8 C 6.74 g/m*3 11.8 C 0 km/h
1316 25-09-2007 23:10:01 11.8 C 6.74 g/m*3 11.8 C 0 km/h
1317 25-09-2007 23:22:01 11.8 C 6.74 g/m*3 11.8 C 0 km/h
1318 25-09-2007 23:34:02 11.7 C 6.8 g/m*3 11.7 C 0 km/h
1319 25-09-2007 23:46:02 11.6 C 6.86 g/m*3 11.6 C 0 km/h
1320 25-09-2007 23:58:02 11.5 C 6.82 g/m*3 11.5 C 0 km/h
1321 26-09-2007 00:10:02 11.6 C 6.86 g/m*3 11.6 C 0 km/h
1322 26-09-2007 00:22:01 11.5 C 6.82 g/m*3 11.5 C 0 km/h
1323 26-09-2007 00:34:02 11.5 C 6.92 g/m*3 11.5 C 0 km/h
1324 26-09-2007 00:46:02 11.5 C 6.92 g/m*3 11.5 C 0 km/h
1325 26-09-2007 00:58:02 11.5 C 6.92 g/m*3 11.5 C 0 km/h
Sensor: Nr:Datum:Temp:Abs-Feuchte:Windchill:Wind:
Aussen-T/F 1326 26-09-2007 01:10:02 11.5 C 6.92 g/m*3 11.5 C 0 km/h
1327 26-09-2007 01:22:02 11.4 C 6.88 g/m*3 11.4 C 0 km/h
1328 26-09-2007 01:34:02 11.4 C 6.88 g/m*3 11.4 C 0 km/h
1329 26-09-2007 01:46:02 11.3 C 6.94 g/m*3 11.3 C 0 km/h
1330 26-09-2007 01:58:02 11.3 C 6.94 g/m*3 11.3 C 0 km/h
1331 26-09-2007 02:10:02 11.3 C 7.04 g/m*3 11.3 C 0 km/h
1332 26-09-2007 02:22:02 11.3 C 7.14 g/m*3 11.3 C 0 km/h
1333 26-09-2007 02:34:02 11.3 C 7.14 g/m*3 11.3 C 0 km/h
1334 26-09-2007 02:46:02 11.3 C 7.14 g/m*3 11.3 C 0 km/h
1335 26-09-2007 02:58:02 11.3 C 7.24 g/m*3 11.3 C 0 km/h
1336 26-09-2007 03:10:02 11.2 C 7.2 g/m*3 11.2 C 0 km/h
1337 26-09-2007 03:22:02 11.2 C 7.2 g/m*3 11.2 C 0 km/h
1338 26-09-2007 03:34:02 11.2 C 7.3 g/m*3 11.2 C 0 km/h
1339 26-09-2007 03:46:02 11.1 C 7.25 g/m*3 11.1 C 0 km/h
1340 26-09-2007 03:58:02 10.9 C 7.36 g/m*3 10.9 C 0 km/h
1341 26-09-2007 04:10:02 10.7 C 7.27 g/m*3 10.7 C 0 km/h
1342 26-09-2007 04:22:02 10.7 C 7.27 g/m*3 10.7 C 0 km/h
1343 26-09-2007 04:34:02 10.8 C 7.22 g/m*3 10.8 C 0 km/h
1344 26-09-2007 04:46:01 11 C 7.11 g/m*3 11 C 0 km/h
1345 26-09-2007 04:58:01 10.9 C 7.16 g/m*3 10.9 C 0 km/h
1346 26-09-2007 05:10:01 10.9 C 7.16 g/m*3 10.9 C 0 km/h
1347 26-09-2007 05:22:02 10.8 C 7.12 g/m*3 10.8 C 0 km/h
1348 26-09-2007 05:34:02 10.6 C 7.12 g/m*3 10.6 C 0 km/h
1349 26-09-2007 05:46:02 10.2 C 7.23 g/m*3 10.2 C 0 km/h
1350 26-09-2007 05:58:02 9.8 C 7.52 g/m*3 9.8 C 0 km/h
Sensor: Nr:Datum:Temp:Abs-Feuchte:Windchill:Wind:
Aussen-T/F 1351 26-09-2007 06:10:01 9.9 C 7.66 g/m*3 9.9 C 0 km/h
1352 26-09-2007 06:22:01 10 C 7.61 g/m*3 10 C 0 km/h
1353 26-09-2007 06:34:02 10 C 7.61 g/m*3 10 C 0 km/h
1354 26-09-2007 06:46:02 10 C 7.61 g/m*3 10 C 0 km/h
1355 26-09-2007 06:58:02 9.8 C 7.7 g/m*3 9.8 C 0 km/h
1356 26-09-2007 07:10:01 9.6 C 7.6 g/m*3 9.6 C 0 km/h
1357 26-09-2007 07:22:01 9.1 C 7.45 g/m*3 9.1 C 0 km/h
1358 26-09-2007 07:34:02 8.9 C 7.45 g/m*3 8.9 C 0 km/h
1359 26-09-2007 07:46:01 8.9 C 7.53 g/m*3 8.9 C 0 km/h
1360 26-09-2007 07:58:01 9.3 C 7.64 g/m*3 9.3 C 0 km/h
1361 26-09-2007 08:10:01 9.6 C 7.88 g/m*3 9.6 C 0 km/h
1362 26-09-2007 08:22:02 9.9 C 8.03 g/m*3 9.9 C 0 km/h
1363 26-09-2007 08:34:02 10.3 C 8.04 g/m*3 10.3 C 0 km/h
1364 26-09-2007 08:46:02 10.4 C 8 g/m*3 10.4 C 0 km/h
1365 26-09-2007 08:58:02 10.5 C 7.95 g/m*3 10.5 C 0 km/h
1366 26-09-2007 09:10:01 10.6 C 7.91 g/m*3 10.6 C 0 km/h
1367 26-09-2007 09:22:01 10.7 C 7.96 g/m*3 10.7 C 0 km/h
1368 26-09-2007 09:34:02 11.1 C 7.86 g/m*3 11.1 C 0 km/h
1369 26-09-2007 09:46:02 11.4 C 7.8 g/m*3 11.4 C 0 km/h
1370 26-09-2007 09:58:02 11.7 C 7.64 g/m*3 11.7 C 0 km/h
1371 26-09-2007 10:10:02 12.3 C 7.49 g/m*3 12.3 C 0 km/h
1372 26-09-2007 10:22:01 13 C 7.26 g/m*3 13 C 0 km/h
1373 26-09-2007 10:34:01 13.5 C 7.25 g/m*3 13.5 C 0 km/h
1374 26-09-2007 10:46:01 14.2 C 7.2 g/m*3 14.2 C 0 km/h
1375 26-09-2007 10:58:01 15.1 C 7.1 g/m*3 15.1 C 0 km/h
Sensor: Nr:Datum:Temp:Abs-Feuchte:Windchill:Wind:
Aussen-T/F 1376 26-09-2007 11:10:02 14.8 C 7.22 g/m*3 14.8 C 0 km/h
1377 26-09-2007 11:22:02 14.9 C 7.26 g/m*3 14.9 C 0 km/h
1378 26-09-2007 11:34:02 15 C 6.92 g/m*3 15 C 0 km/h
1379 26-09-2007 11:46:02 16 C 7.08 g/m*3 16 C 0 km/h
1380 26-09-2007 11:58:02 16.1 C 7.13 g/m*3 16.1 C 0 km/h
1381 26-09-2007 12:10:02 16.1 C 6.85 g/m*3 16.1 C 0 km/h
1382 26-09-2007 12:22:02 15.1 C 6.97 g/m*3 15.1 C 0 km/h
1383 26-09-2007 12:34:01 14.8 C 7.22 g/m*3 14.8 C 0 km/h
1384 26-09-2007 12:46:01 14.7 C 7.3 g/m*3 14.7 C 0 km/h
1385 26-09-2007 12:58:01 15.1 C 7.22 g/m*3 15.1 C 0 km/h
1386 26-09-2007 13:10:01 14.5 C 7.21 g/m*3 14.5 C 0 km/h
1387 26-09-2007 13:22:02 13.8 C 7.51 g/m*3 13.8 C 0 km/h
1388 26-09-2007 13:34:01 13.3 C 7.97 g/m*3 13.3 C 0 km/h
1389 26-09-2007 13:46:01 12.8 C 8.96 g/m*3 12.8 C 0 km/h
1390 26-09-2007 13:58:01 13.9 C 9.83 g/m*3 13.9 C 0 km/h
1391 26-09-2007 14:10:01 14.7 C 10.07 g/m*3 14.7 C 0 km/h
1392 26-09-2007 14:22:02 14.9 C 9.81 g/m*3 14.9 C 0 km/h
1393 26-09-2007 14:34:02 15.3 C 8.75 g/m*3 15.3 C 0 km/h
1394 26-09-2007 14:46:02 15 C 8.98 g/m*3 15 C 0 km/h
1395 26-09-2007 14:58:02 15 C 9.23 g/m*3 15 C 0 km/h
1396 26-09-2007 15:10:01 15.3 C 9.4 g/m*3 15.3 C 0 km/h
1397 26-09-2007 15:22:01 15.6 C 7.71 g/m*3 15.6 C 0 km/h
1398 26-09-2007 15:34:02 16.1 C 8.22 g/m*3 16.1 C 0 km/h
1399 26-09-2007 15:46:02 17.5 C 7.9 g/m*3 17.5 C 0 km/h
1400 26-09-2007 15:58:02 19.2 C 7.91 g/m*3 19.2 C 0 km/h
Sensor: Nr:Datum:Temp:Abs-Feuchte:Windchill:Wind:
Aussen-T/F 1401 26-09-2007 16:10:02 20.1 C 6.95 g/m*3 20.1 C 0 km/h
1402 26-09-2007 16:22:01 18.6 C 7.48 g/m*3 18.6 C 0 km/h
1403 26-09-2007 16:34:01 17.4 C 7.85 g/m*3 17.4 C 0 km/h
1404 26-09-2007 16:46:01 16.5 C 7.86 g/m*3 16.5 C 0 km/h
1405 26-09-2007 16:58:01 15.4 C 7.62 g/m*3 15.4 C 0 km/h
1406 26-09-2007 17:10:02 15.5 C 7.93 g/m*3 15.5 C 0 km/h
1407 26-09-2007 17:22:02 15.2 C 7.53 g/m*3 15.2 C 0 km/h
1408 26-09-2007 17:34:01 14.9 C 8.16 g/m*3 14.9 C 0 km/h
1409 26-09-2007 17:46:01 14.1 C 8.25 g/m*3 14.1 C 0 km/h
1410 26-09-2007 17:58:01 13.2 C 8.38 g/m*3 13.2 C 0 km/h
1411 26-09-2007 18:10:01 12.9 C 8.9 g/m*3 12.9 C 0 km/h
1412 26-09-2007 18:22:02 12.4 C 8.85 g/m*3 12.4 C 0 km/h
1413 26-09-2007 18:34:01 12.4 C 9.07 g/m*3 12.4 C 0 km/h
1414 26-09-2007 18:46:01 12.4 C 9.07 g/m*3 12.4 C 0 km/h
1415 26-09-2007 18:58:02 12.1 C 8.79 g/m*3 12.1 C 0 km/h
1416 26-09-2007 19:10:01 12 C 8.74 g/m*3 12 C 0 km/h
1417 26-09-2007 19:22:01 11.9 C 8.58 g/m*3 11.9 C 0 km/h
1418 26-09-2007 19:34:02 11.8 C 8.53 g/m*3 11.8 C 0 km/h
1419 26-09-2007 19:46:02 11.8 C 8.42 g/m*3 11.8 C 0 km/h
1420 26-09-2007 19:58:02 11.5 C 8.37 g/m*3 11.5 C 0 km/h
1421 26-09-2007 20:10:01 11.5 C 8.37 g/m*3 11.5 C 0 km/h
1422 26-09-2007 20:22:01 11.3 C 8.36 g/m*3 11.3 C 0 km/h
1423 26-09-2007 20:34:02 11.3 C 8.36 g/m*3 11.3 C 0 km/h
1424 26-09-2007 20:46:02 11.4 C 8.42 g/m*3 11.4 C 0 km/h
1425 26-09-2007 20:58:02 11.5 C 8.47 g/m*3 11.5 C 0 km/h
Sensor: Nr:Datum:Temp:Abs-Feuchte:Windchill:Wind:
Aussen-T/F 1426 26-09-2007 21:10:02 11.3 C 8.36 g/m*3 11.3 C 0 km/h
1427 26-09-2007 21:22:01 11 C 8.21 g/m*3 11 C 0 km/h
1428 26-09-2007 21:34:02 10.7 C 8.15 g/m*3 10.7 C 0 km/h
1429 26-09-2007 21:46:01 10.7 C 8.25 g/m*3 10.7 C 0 km/h
1430 26-09-2007 21:58:01 10.3 C 8.04 g/m*3 10.3 C 0 km/h
1431 26-09-2007 22:10:02 10.2 C 8.09 g/m*3 10.2 C 0 km/h
1432 26-09-2007 22:22:01 10 C 7.99 g/m*3 10 C 0 km/h
1433 26-09-2007 22:34:01 10 C 7.99 g/m*3 10 C 0 km/h
1434 26-09-2007 22:46:01 9.7 C 8.02 g/m*3 9.7 C 0 km/h
1435 26-09-2007 22:58:01 9.6 C 7.97 g/m*3 9.6 C 0 km/h
1436 26-09-2007 23:10:02 9.6 C 8.06 g/m*3 9.6 C 0 km/h
1437 26-09-2007 23:22:01 9.4 C 7.96 g/m*3 9.4 C 0 km/h
1438 26-09-2007 23:34:01 9.3 C 7.91 g/m*3 9.3 C 0 km/h
1439 26-09-2007 23:46:01 9.4 C 8.05 g/m*3 9.4 C 0 km/h
1440 26-09-2007 23:58:01 9.5 C 8.1 g/m*3 9.5 C 0 km/h
1441 27-09-2007 00:10:02 9.5 C 8.1 g/m*3 9.5 C 0 km/h
1442 27-09-2007 00:22:02 9.5 C 8.1 g/m*3 9.5 C 0 km/h
1443 27-09-2007 00:34:02 9.6 C 8.15 g/m*3 9.6 C 0 km/h
1444 27-09-2007 00:46:02 9.6 C 8.15 g/m*3 9.6 C 0 km/h
1445 27-09-2007 00:58:02 9.7 C 8.2 g/m*3 9.7 C 0 km/h
1446 27-09-2007 01:10:02 9.7 C 8.2 g/m*3 9.7 C 0 km/h
1447 27-09-2007 01:22:01 9.8 C 8.26 g/m*3 9.8 C 0 km/h
1448 27-09-2007 01:34:02 9.9 C 8.31 g/m*3 9.9 C 0 km/h
1449 27-09-2007 01:46:01 10.1 C 8.32 g/m*3 10.1 C 0 km/h
1450 27-09-2007 01:58:02 10.1 C 8.23 g/m*3 10.1 C 0 km/h
Sensor: Nr:Datum:Temp:Abs-Feuchte:Windchill:Wind:
Aussen-T/F 1451 27-09-2007 02:10:01 9.9 C 8.22 g/m*3 9.9 C 0 km/h
1452 27-09-2007 02:22:02 9.9 C 8.22 g/m*3 9.9 C 0 km/h
1453 27-09-2007 02:34:02 9.8 C 8.16 g/m*3 9.8 C 0 km/h
1454 27-09-2007 02:47:08 9.8 C 8.16 g/m*3 9.8 C 0 km/h
1455 27-09-2007 02:59:08 9.8 C 8.16 g/m*3 9.8 C 0 km/h
1456 27-09-2007 03:11:09 9.7 C 8.11 g/m*3 9.7 C 0 km/h
1457 27-09-2007 03:23:09 9.6 C 8.06 g/m*3 9.6 C 0 km/h
1458 27-09-2007 03:35:02 9.6 C 8.06 g/m*3 9.6 C 0 km/h
1459 27-09-2007 03:47:02 9.6 C 8.06 g/m*3 9.6 C 0 km/h
1460 27-09-2007 03:59:02 9.6 C 8.06 g/m*3 9.6 C 0 km/h
1461 27-09-2007 04:11:02 9.6 C 8.06 g/m*3 9.6 C 0 km/h
1462 27-09-2007 04:23:02 9.5 C 8.1 g/m*3 9.5 C 0 km/h
1463 27-09-2007 04:35:03 9.4 C 8.05 g/m*3 9.4 C 0 km/h
1464 27-09-2007 04:47:03 9.3 C 8 g/m*3 9.3 C 0 km/h
1465 27-09-2007 04:59:03 9.3 C 8.09 g/m*3 9.3 C 0 km/h
1466 27-09-2007 05:11:02 9.3 C 8.18 g/m*3 9.3 C 0 km/h
1467 27-09-2007 05:23:03 9.2 C 8.13 g/m*3 9.2 C 0 km/h
1468 27-09-2007 05:35:02 9.3 C 8.18 g/m*3 9.3 C 0 km/h
1469 27-09-2007 05:47:02 9.3 C 8.18 g/m*3 9.3 C 0 km/h
1470 27-09-2007 05:59:03 9.2 C 8.13 g/m*3 9.2 C 0 km/h
1471 27-09-2007 06:11:02 9.2 C 8.22 g/m*3 9.2 C 0 km/h
1472 27-09-2007 06:23:03 9.2 C 8.22 g/m*3 9.2 C 0 km/h
1473 27-09-2007 06:35:02 9.2 C 8.22 g/m*3 9.2 C 0 km/h
1474 27-09-2007 06:47:02 9.2 C 8.22 g/m*3 9.2 C 0 km/h
1475 27-09-2007 06:59:02 9.2 C 8.22 g/m*3 9.2 C 0 km/h
Sensor: Nr:Datum:Temp:Abs-Feuchte:Windchill:Wind:
Aussen-T/F 1476 27-09-2007 07:11:01 9.2 C 8.22 g/m*3 9.2 C 0 km/h
1477 27-09-2007 07:23:02 9.3 C 8.27 g/m*3 9.3 C 0 km/h
1478 27-09-2007 07:35:02 9.2 C 8.3 g/m*3 9.2 C 0 km/h
1479 27-09-2007 07:47:02 9.2 C 8.3 g/m*3 9.2 C 0 km/h
1480 27-09-2007 07:59:02 9.3 C 8.36 g/m*3 9.3 C 0 km/h
1481 27-09-2007 08:11:02 9.4 C 8.41 g/m*3 9.4 C 0 km/h
1482 27-09-2007 08:23:02 9.4 C 8.41 g/m*3 9.4 C 0 km/h
1483 27-09-2007 08:35:02 9.4 C 8.41 g/m*3 9.4 C 0 km/h
1484 27-09-2007 08:47:02 9.4 C 8.41 g/m*3 9.4 C 0 km/h
1485 27-09-2007 08:59:02 9.5 C 8.47 g/m*3 9.5 C 0 km/h
1486 27-09-2007 09:11:02 9.5 C 8.47 g/m*3 9.5 C 0 km/h
1487 27-09-2007 09:23:03 9.5 C 8.47 g/m*3 9.5 C 0 km/h
1488 27-09-2007 09:35:02 9.5 C 8.56 g/m*3 9.5 C 0 km/h
1489 27-09-2007 09:47:02 9.5 C 8.56 g/m*3 9.5 C 0 km/h
1490 27-09-2007 09:59:02 9.5 C 8.56 g/m*3 9.5 C 0 km/h
1491 27-09-2007 10:11:01 9.6 C 8.61 g/m*3 9.6 C 0 km/h
1492 27-09-2007 10:23:02 9.5 C 8.56 g/m*3 9.5 C 0 km/h
1493 27-09-2007 10:35:02 9.6 C 8.61 g/m*3 9.6 C 0 km/h
1494 27-09-2007 10:47:02 9.7 C 8.67 g/m*3 9.7 C 0 km/h
1495 27-09-2007 10:59:02 9.7 C 8.67 g/m*3 9.7 C 0 km/h
1496 27-09-2007 11:11:02 9.8 C 8.81 g/m*3 9.8 C 0 km/h
1497 27-09-2007 11:23:02 9.9 C 8.87 g/m*3 9.9 C 0 km/h
1498 27-09-2007 11:35:02 10 C 8.83 g/m*3 10 C 0 km/h
1499 27-09-2007 11:47:02 9.9 C 8.87 g/m*3 9.9 C 0 km/h
1500 27-09-2007 11:59:02 10.1 C 8.89 g/m*3 10.1 C 0 km/h
Sensor: Nr:Datum:Temp:Abs-Feuchte:Windchill:Wind:
Aussen-T/F 1501 27-09-2007 12:11:02 10.1 C 8.89 g/m*3 10.1 C 0 km/h
1502 27-09-2007 12:23:02 10.1 C 8.89 g/m*3 10.1 C 0 km/h
1503 27-09-2007 12:35:02 10.2 C 9.04 g/m*3 10.2 C 0 km/h
1504 27-09-2007 12:47:02 10.2 C 9.04 g/m*3 10.2 C 0 km/h
1505 27-09-2007 12:59:02 10.2 C 9.04 g/m*3 10.2 C 0 km/h
1506 27-09-2007 13:11:02 10.3 C 9.1 g/m*3 10.3 C 0 km/h
1507 27-09-2007 13:23:02 10.3 C 9.1 g/m*3 10.3 C 0 km/h
1508 27-09-2007 13:35:01 10.4 C 9.16 g/m*3 10.4 C 0 km/h
1509 27-09-2007 13:47:02 10.4 C 9.16 g/m*3 10.4 C 0 km/h
1510 27-09-2007 13:59:02 10.5 C 9.21 g/m*3 10.5 C 0 km/h
1511 27-09-2007 14:11:02 10.6 C 9.27 g/m*3 10.6 C 0 km/h
1512 27-09-2007 14:23:02 10.7 C 9.33 g/m*3 10.7 C 0 km/h
1513 27-09-2007 14:35:02 10.7 C 9.33 g/m*3 10.7 C 0 km/h
1514 27-09-2007 14:47:02 10.7 C 9.33 g/m*3 10.7 C 0 km/h
1515 27-09-2007 14:59:02 10.8 C 9.39 g/m*3 10.8 C 0 km/h
1516 27-09-2007 15:11:01 10.8 C 9.39 g/m*3 10.8 C 0 km/h
1517 27-09-2007 15:23:01 10.9 C 9.45 g/m*3 10.9 C 0 km/h
1518 27-09-2007 15:35:02 11 C 9.51 g/m*3 11 C 0 km/h
1519 27-09-2007 15:47:02 11 C 9.51 g/m*3 11 C 0 km/h
1520 27-09-2007 15:59:02 11 C 9.51 g/m*3 11 C 0 km/h
1521 27-09-2007 16:11:01 11 C 9.51 g/m*3 11 C 0 km/h
1522 27-09-2007 16:23:02 11.1 C 9.57 g/m*3 11.1 C 0 km/h
1523 27-09-2007 16:35:02 11.1 C 9.57 g/m*3 11.1 C 0 km/h
1524 27-09-2007 16:47:02 11.1 C 9.57 g/m*3 11.1 C 0 km/h
1525 27-09-2007 16:59:03 11.1 C 9.57 g/m*3 11.1 C 0 km/h
Sensor: Nr:Datum:Temp:Abs-Feuchte:Windchill:Wind:
Aussen-T/F 1526 27-09-2007 17:11:02 11.1 C 9.57 g/m*3 11.1 C 0 km/h
1527 27-09-2007 17:23:02 11.1 C 9.57 g/m*3 11.1 C 0 km/h
1528 27-09-2007 17:35:04 11.1 C 9.57 g/m*3 11.1 C 0 km/h
1529 27-09-2007 17:47:02 11.1 C 9.57 g/m*3 11.1 C 0 km/h
1530 27-09-2007 17:59:02 11.1 C 9.57 g/m*3 11.1 C 0 km/h
1531 27-09-2007 18:11:02 11 C 9.51 g/m*3 11 C 0 km/h
1532 27-09-2007 18:23:01 11 C 9.51 g/m*3 11 C 0 km/h
1533 27-09-2007 18:35:02 11 C 9.51 g/m*3 11 C 0 km/h
1534 27-09-2007 18:47:03 11 C 9.51 g/m*3 11 C 0 km/h
1535 27-09-2007 18:59:03 11 C 9.51 g/m*3 11 C 0 km/h
1536 27-09-2007 19:11:02 11 C 9.51 g/m*3 11 C 0 km/h
1537 27-09-2007 19:23:02 11 C 9.51 g/m*3 11 C 0 km/h
1538 27-09-2007 19:35:02 11 C 9.51 g/m*3 11 C 0 km/h
1539 27-09-2007 19:47:02 11 C 9.51 g/m*3 11 C 0 km/h
1540 27-09-2007 19:59:02 11 C 9.51 g/m*3 11 C 0 km/h
1541 27-09-2007 20:11:03 11 C 9.51 g/m*3 11 C 0 km/h
1542 27-09-2007 20:23:03 11 C 9.51 g/m*3 11 C 0 km/h
1543 27-09-2007 20:35:02 11 C 9.51 g/m*3 11 C 0 km/h
1544 27-09-2007 20:47:01 11 C 9.51 g/m*3 11 C 0 km/h
1545 27-09-2007 20:59:01 11 C 9.51 g/m*3 11 C 0 km/h
1546 27-09-2007 21:11:01 11 C 9.51 g/m*3 11 C 0 km/h
1547 27-09-2007 21:23:02 11 C 9.51 g/m*3 11 C 0 km/h
1548 27-09-2007 21:35:01 11 C 9.51 g/m*3 11 C 0 km/h
1549 27-09-2007 21:47:02 11 C 9.51 g/m*3 11 C 0 km/h
1550 27-09-2007 21:59:02 10.9 C 9.45 g/m*3 10.9 C 0 km/h
Sensor: Nr:Datum:Temp:Abs-Feuchte:Windchill:Wind:
Aussen-T/F 1551 27-09-2007 22:11:02 10.8 C 9.39 g/m*3 10.8 C 0 km/h
1552 27-09-2007 22:23:02 10.8 C 9.39 g/m*3 10.8 C 0 km/h
1553 27-09-2007 22:35:02 10.8 C 9.39 g/m*3 10.8 C 0 km/h
1554 27-09-2007 22:47:02 10.8 C 9.39 g/m*3 10.8 C 0 km/h
1555 27-09-2007 22:59:02 10.8 C 9.39 g/m*3 10.8 C 0 km/h
1556 27-09-2007 23:11:01 10.9 C 9.45 g/m*3 10.9 C 0 km/h
1557 27-09-2007 23:23:01 10.9 C 9.45 g/m*3 10.9 C 0 km/h
1558 27-09-2007 23:35:02 10.9 C 9.45 g/m*3 10.9 C 0 km/h
1559 27-09-2007 23:47:02 10.9 C 9.45 g/m*3 10.9 C 0 km/h
1560 27-09-2007 23:59:02 10.8 C 9.39 g/m*3 10.8 C 0 km/h
1561 28-09-2007 00:11:02 10.8 C 9.39 g/m*3 10.8 C 0 km/h
1562 28-09-2007 00:23:03 10.8 C 9.39 g/m*3 10.8 C 0 km/h
1563 28-09-2007 00:35:03 10.8 C 9.39 g/m*3 10.8 C 0 km/h
1564 28-09-2007 00:47:03 10.8 C 9.39 g/m*3 10.8 C 0 km/h
1565 28-09-2007 00:59:03 10.8 C 9.39 g/m*3 10.8 C 0 km/h
1566 28-09-2007 01:11:02 10.8 C 9.39 g/m*3 10.8 C 0 km/h
1567 28-09-2007 01:23:03 10.7 C 9.33 g/m*3 10.7 C 0 km/h
1568 28-09-2007 01:35:03 10.7 C 9.33 g/m*3 10.7 C 0 km/h
1569 28-09-2007 01:47:02 10.6 C 9.27 g/m*3 10.6 C 0 km/h
1570 28-09-2007 01:59:02 10.6 C 9.27 g/m*3 10.6 C 0 km/h
1571 28-09-2007 02:11:02 10.6 C 9.27 g/m*3 10.6 C 0 km/h
1572 28-09-2007 02:23:02 10.6 C 9.27 g/m*3 10.6 C 0 km/h
1573 28-09-2007 02:35:02 10.6 C 9.27 g/m*3 10.6 C 0 km/h
1574 28-09-2007 02:48:03 10.7 C 9.33 g/m*3 10.7 C 0 km/h
1575 28-09-2007 03:00:03 10.7 C 9.33 g/m*3 10.7 C 0 km/h
Sensor: Nr:Datum:Temp:Abs-Feuchte:Windchill:Wind:
Aussen-T/F 1576 28-09-2007 03:12:03 10.8 C 9.39 g/m*3 10.8 C 0 km/h
1577 28-09-2007 03:24:03 10.9 C 9.45 g/m*3 10.9 C 0 km/h
1578 28-09-2007 03:36:03 10.9 C 9.45 g/m*3 10.9 C 0 km/h
1579 28-09-2007 03:48:03 10.9 C 9.45 g/m*3 10.9 C 0 km/h
1580 28-09-2007 04:00:03 10.9 C 9.45 g/m*3 10.9 C 0 km/h
1581 28-09-2007 04:12:03 10.9 C 9.45 g/m*3 10.9 C 0 km/h
1582 28-09-2007 04:24:03 10.8 C 9.39 g/m*3 10.8 C 0 km/h
1583 28-09-2007 04:36:02 10.7 C 9.33 g/m*3 10.7 C 0 km/h
1584 28-09-2007 04:48:02 10.8 C 9.39 g/m*3 10.8 C 0 km/h
1585 28-09-2007 05:00:02 10.8 C 9.39 g/m*3 10.8 C 0 km/h
1586 28-09-2007 05:12:02 10.8 C 9.39 g/m*3 10.8 C 0 km/h
1587 28-09-2007 05:24:02 10.8 C 9.39 g/m*3 10.8 C 0 km/h
1588 28-09-2007 05:36:02 10.8 C 9.39 g/m*3 10.8 C 0 km/h
1589 28-09-2007 05:48:02 10.8 C 9.39 g/m*3 10.8 C 0 km/h
1590 28-09-2007 06:00:02 10.8 C 9.39 g/m*3 10.8 C 0 km/h
1591 28-09-2007 06:12:01 10.7 C 9.33 g/m*3 10.7 C 0 km/h
1592 28-09-2007 06:24:01 10.7 C 9.33 g/m*3 10.7 C 0 km/h
1593 28-09-2007 06:36:02 10.7 C 9.33 g/m*3 10.7 C 0 km/h
1594 28-09-2007 06:48:02 10.8 C 9.39 g/m*3 10.8 C 0 km/h
1595 28-09-2007 07:00:02 10.8 C 9.39 g/m*3 10.8 C 0 km/h
1596 28-09-2007 07:12:02 10.7 C 9.33 g/m*3 10.7 C 0 km/h
1597 28-09-2007 07:24:02 10.7 C 9.33 g/m*3 10.7 C 0 km/h
1598 28-09-2007 07:36:03 10.6 C 9.27 g/m*3 10.6 C 0 km/h
1599 28-09-2007 07:48:01 10.5 C 9.21 g/m*3 10.5 C 0 km/h
1600 28-09-2007 08:00:01 10.4 C 9.16 g/m*3 10.4 C 0 km/h
Sensor: Nr:Datum:Temp:Abs-Feuchte:Windchill:Wind:
Aussen-T/F 1601 28-09-2007 08:12:02 10.5 C 9.21 g/m*3 10.5 C 0 km/h
1602 28-09-2007 08:24:02 10.6 C 9.27 g/m*3 10.6 C 0 km/h
1603 28-09-2007 08:36:01 10.7 C 9.33 g/m*3 10.7 C 0 km/h
1604 28-09-2007 08:48:01 10.8 C 9.39 g/m*3 10.8 C 0 km/h
1605 28-09-2007 09:00:01 11 C 9.51 g/m*3 11 C 0 km/h
1606 28-09-2007 09:12:02 11.1 C 9.57 g/m*3 11.1 C 0 km/h
1607 28-09-2007 09:24:02 11.2 C 9.63 g/m*3 11.2 C 0 km/h
1608 28-09-2007 09:36:01 11.2 C 9.63 g/m*3 11.2 C 0 km/h
1609 28-09-2007 09:48:01 11.2 C 9.63 g/m*3 11.2 C 0 km/h
1610 28-09-2007 10:00:01 11.2 C 9.63 g/m*3 11.2 C 0 km/h
1611 28-09-2007 10:12:02 11.4 C 9.75 g/m*3 11.4 C 0 km/h
1612 28-09-2007 10:24:02 11.6 C 9.87 g/m*3 11.6 C 0 km/h
1613 28-09-2007 10:36:01 12.2 C 9.93 g/m*3 12.2 C 0 km/h
1614 28-09-2007 10:48:02 12.5 C 9.78 g/m*3 12.5 C 0 km/h
1615 28-09-2007 11:00:02 12.6 C 9.07 g/m*3 12.6 C 0 km/h
1616 28-09-2007 11:12:01 12.8 C 8.85 g/m*3 12.8 C 0 km/h
1617 28-09-2007 11:24:02 13.3 C 8.43 g/m*3 13.3 C 0 km/h
1618 28-09-2007 11:36:02 13.6 C 8.83 g/m*3 13.6 C 0 km/h
1619 28-09-2007 11:48:02 13.9 C 8.99 g/m*3 13.9 C 0 km/h
1620 28-09-2007 12:00:02 13.5 C 8.3 g/m*3 13.5 C 0 km/h
1621 28-09-2007 12:12:02 14.2 C 8.43 g/m*3 14.2 C 0 km/h
1622 28-09-2007 12:24:02 14.5 C 8.21 g/m*3 14.5 C 0 km/h
1623 28-09-2007 12:36:03 14.4 C 8.03 g/m*3 14.4 C 0 km/h
1624 28-09-2007 12:48:02 14.3 C 7.62 g/m*3 14.3 C 0 km/h
1625 28-09-2007 13:00:02 14.3 C 7.99 g/m*3 14.3 C 0 km/h
Sensor: Nr:Datum:Temp:Abs-Feuchte:Windchill:Wind:
Aussen-T/F 1626 28-09-2007 13:12:02 14.8 C 8.23 g/m*3 14.8 C 0 km/h
1627 28-09-2007 13:24:02 15 C 8.08 g/m*3 15 C 0 km/h
1628 28-09-2007 13:36:02 15.1 C 8.13 g/m*3 15.1 C 0 km/h
1629 28-09-2007 13:48:02 15.1 C 7.87 g/m*3 15.1 C 0 km/h
1630 28-09-2007 14:00:02 15.2 C 7.79 g/m*3 15.2 C 0 km/h
1631 28-09-2007 14:12:02 15.7 C 7.76 g/m*3 15.7 C 0 km/h
1632 28-09-2007 14:24:03 16 C 7.36 g/m*3 16 C 0 km/h
1633 28-09-2007 14:36:03 16 C 7.22 g/m*3 16 C 0 km/h
1634 28-09-2007 14:48:02 16 C 7.22 g/m*3 16 C 0 km/h
1635 28-09-2007 15:00:02 16 C 7.49 g/m*3 16 C 0 km/h
1636 28-09-2007 15:12:02 16.1 C 7.4 g/m*3 16.1 C 0 km/h
1637 28-09-2007 15:24:02 16.3 C 7.08 g/m*3 16.3 C 0 km/h
1638 28-09-2007 15:36:02 16.5 C 6.88 g/m*3 16.5 C 0 km/h
1639 28-09-2007 15:48:02 16.6 C 6.92 g/m*3 16.6 C 0 km/h
1640 28-09-2007 16:00:02 16.6 C 6.92 g/m*3 16.6 C 0 km/h
1641 28-09-2007 16:12:03 16.6 C 7.06 g/m*3 16.6 C 0 km/h
1642 28-09-2007 16:24:02 16.3 C 7.21 g/m*3 16.3 C 0 km/h
1643 28-09-2007 16:36:02 15.6 C 6.78 g/m*3 15.6 C 0 km/h
1644 28-09-2007 16:48:01 15.4 C 7.09 g/m*3 15.4 C 0 km/h
1645 28-09-2007 17:00:01 15.1 C 7.87 g/m*3 15.1 C 0 km/h
1646 28-09-2007 17:12:01 14.7 C 8.44 g/m*3 14.7 C 0 km/h
1647 28-09-2007 17:24:02 14.5 C 8.58 g/m*3 14.5 C 0 km/h
1648 28-09-2007 17:36:01 14.1 C 8.5 g/m*3 14.1 C 0 km/h
1649 28-09-2007 17:48:02 13.9 C 8.51 g/m*3 13.9 C 0 km/h
1650 28-09-2007 18:00:02 13.7 C 8.41 g/m*3 13.7 C 0 km/h
Sensor: Nr:Datum:Temp:Abs-Feuchte:Windchill:Wind:
Aussen-T/F 1651 28-09-2007 18:12:01 13.6 C 8.47 g/m*3 13.6 C 0 km/h
1652 28-09-2007 18:24:02 13.5 C 8.3 g/m*3 13.5 C 0 km/h
1653 28-09-2007 18:36:02 13.4 C 8.49 g/m*3 13.4 C 0 km/h
1654 28-09-2007 18:48:02 13.3 C 8.32 g/m*3 13.3 C 0 km/h
1655 28-09-2007 19:00:02 13.2 C 8.27 g/m*3 13.2 C 0 km/h
1656 28-09-2007 19:12:02 13.1 C 7.87 g/m*3 13.1 C 0 km/h
1657 28-09-2007 19:24:02 12.8 C 7.95 g/m*3 12.8 C 0 km/h
1658 28-09-2007 19:36:02 12.8 C 8.06 g/m*3 12.8 C 0 km/h
1659 28-09-2007 19:48:02 12.7 C 8.01 g/m*3 12.7 C 0 km/h
1660 28-09-2007 20:00:02 12.7 C 7.68 g/m*3 12.7 C 0 km/h
1661 28-09-2007 20:12:02 12.6 C 7.63 g/m*3 12.6 C 0 km/h
1662 28-09-2007 20:24:02 12.5 C 7.48 g/m*3 12.5 C 0 km/h
1663 28-09-2007 20:36:02 12.4 C 7.32 g/m*3 12.4 C 0 km/h
1664 28-09-2007 20:48:02 12.4 C 7.32 g/m*3 12.4 C 0 km/h
1665 28-09-2007 21:00:02 12.5 C 7.59 g/m*3 12.5 C 0 km/h
1666 28-09-2007 21:12:02 12.3 C 7.49 g/m*3 12.3 C 0 km/h
1667 28-09-2007 21:24:02 12.2 C 7.55 g/m*3 12.2 C 0 km/h
1668 28-09-2007 21:36:02 12.2 C 7.55 g/m*3 12.2 C 0 km/h
1669 28-09-2007 21:48:02 12.2 C 7.66 g/m*3 12.2 C 0 km/h
1670 28-09-2007 22:00:02 12.1 C 7.61 g/m*3 12.1 C 0 km/h
1671 28-09-2007 22:12:02 12.1 C 7.72 g/m*3 12.1 C 0 km/h
1672 28-09-2007 22:24:01 12.1 C 7.83 g/m*3 12.1 C 0 km/h
1673 28-09-2007 22:36:01 12.1 C 7.83 g/m*3 12.1 C 0 km/h
1674 28-09-2007 22:48:01 12.1 C 7.83 g/m*3 12.1 C 0 km/h
1675 28-09-2007 23:00:01 12 C 7.89 g/m*3 12 C 0 km/h
Sensor: Nr:Datum:Temp:Abs-Feuchte:Windchill:Wind:
Aussen-T/F 1676 28-09-2007 23:12:02 12 C 7.99 g/m*3 12 C 0 km/h
1677 28-09-2007 23:24:02 11.9 C 8.05 g/m*3 11.9 C 0 km/h
1678 28-09-2007 23:36:01 11.9 C 8.05 g/m*3 11.9 C 0 km/h
1679 28-09-2007 23:48:01 11.9 C 8.15 g/m*3 11.9 C 0 km/h
1680 29-09-2007 00:00:01 11.9 C 8.15 g/m*3 11.9 C 0 km/h
1681 29-09-2007 00:12:02 11.9 C 8.15 g/m*3 11.9 C 0 km/h
1682 29-09-2007 00:24:02 11.8 C 8.1 g/m*3 11.8 C 0 km/h
1683 29-09-2007 00:36:02 11.8 C 8.1 g/m*3 11.8 C 0 km/h
1684 29-09-2007 00:48:02 11.8 C 8.21 g/m*3 11.8 C 0 km/h
1685 29-09-2007 01:00:02 11.8 C 8.21 g/m*3 11.8 C 0 km/h
1686 29-09-2007 01:12:03 11.8 C 8.21 g/m*3 11.8 C 0 km/h
1687 29-09-2007 01:24:02 11.8 C 8.21 g/m*3 11.8 C 0 km/h
1688 29-09-2007 01:36:02 11.8 C 8.21 g/m*3 11.8 C 0 km/h
1689 29-09-2007 01:48:02 12 C 8.21 g/m*3 12 C 0 km/h
1690 29-09-2007 02:00:03 12 C 8.1 g/m*3 12 C 0 km/h
1691 29-09-2007 02:12:02 12 C 8.21 g/m*3 12 C 0 km/h
1692 29-09-2007 02:24:02 12 C 8.21 g/m*3 12 C 0 km/h
1693 29-09-2007 02:36:02 12.1 C 8.26 g/m*3 12.1 C 0 km/h
1694 29-09-2007 02:49:03 12.1 C 8.15 g/m*3 12.1 C 0 km/h
1695 29-09-2007 03:01:03 12.1 C 8.15 g/m*3 12.1 C 0 km/h
1696 29-09-2007 03:13:03 12.1 C 8.15 g/m*3 12.1 C 0 km/h
1697 29-09-2007 03:25:04 12.1 C 8.15 g/m*3 12.1 C 0 km/h
1698 29-09-2007 03:37:03 12.1 C 8.15 g/m*3 12.1 C 0 km/h
1699 29-09-2007 03:49:03 12 C 8.21 g/m*3 12 C 0 km/h
1700 29-09-2007 04:01:03 11.9 C 8.15 g/m*3 11.9 C 0 km/h
Sensor: Nr:Datum:Temp:Abs-Feuchte:Windchill:Wind:
Aussen-T/F 1701 29-09-2007 04:13:03 11.7 C 8.16 g/m*3 11.7 C 0 km/h
1702 29-09-2007 04:25:03 11.7 C 8.16 g/m*3 11.7 C 0 km/h
1703 29-09-2007 04:37:02 11.7 C 8.16 g/m*3 11.7 C 0 km/h
1704 29-09-2007 04:49:03 11.6 C 8.11 g/m*3 11.6 C 0 km/h
1705 29-09-2007 05:01:03 11.7 C 8.05 g/m*3 11.7 C 0 km/h
1706 29-09-2007 05:13:03 11.7 C 8.05 g/m*3 11.7 C 0 km/h
1707 29-09-2007 05:25:02 11.7 C 8.05 g/m*3 11.7 C 0 km/h
1708 29-09-2007 05:37:02 11.8 C 8.1 g/m*3 11.8 C 0 km/h
1709 29-09-2007 05:49:01 11.9 C 8.15 g/m*3 11.9 C 0 km/h
1710 29-09-2007 06:01:02 11.9 C 8.05 g/m*3 11.9 C 0 km/h
1711 29-09-2007 06:13:02 11.8 C 8 g/m*3 11.8 C 0 km/h
1712 29-09-2007 06:25:02 11.7 C 8.05 g/m*3 11.7 C 0 km/h
1713 29-09-2007 06:37:01 11.7 C 8.05 g/m*3 11.7 C 0 km/h
1714 29-09-2007 06:49:02 11.8 C 8.1 g/m*3 11.8 C 0 km/h
1715 29-09-2007 07:01:01 11.8 C 8.1 g/m*3 11.8 C 0 km/h
1716 29-09-2007 07:13:01 12 C 8.21 g/m*3 12 C 0 km/h
1717 29-09-2007 07:25:01 12 C 8.31 g/m*3 12 C 0 km/h
1718 29-09-2007 07:37:02 12 C 8.31 g/m*3 12 C 0 km/h
1719 29-09-2007 07:49:02 12.1 C 8.36 g/m*3 12.1 C 0 km/h
1720 29-09-2007 08:01:02 12.2 C 8.42 g/m*3 12.2 C 0 km/h
1721 29-09-2007 08:13:02 12.2 C 8.52 g/m*3 12.2 C 0 km/h
1722 29-09-2007 08:25:02 12.4 C 8.63 g/m*3 12.4 C 0 km/h
1723 29-09-2007 08:37:02 12 C 8.74 g/m*3 12 C 0 km/h
1724 29-09-2007 08:49:02 11.9 C 9 g/m*3 11.9 C 0 km/h
1725 29-09-2007 09:01:02 12 C 9.06 g/m*3 12 C 0 km/h
Sensor: Nr:Datum:Temp:Abs-Feuchte:Windchill:Wind:
Aussen-T/F 1726 29-09-2007 09:13:02 12.4 C 9.18 g/m*3 12.4 C 0 km/h
1727 29-09-2007 09:25:01 12.5 C 9.02 g/m*3 12.5 C 0 km/h
1728 29-09-2007 09:37:02 12.7 C 9.02 g/m*3 12.7 C 0 km/h
1729 29-09-2007 09:49:51 13.2 C 8.96 g/m*3 13.2 C 0 km/h
1730 29-09-2007 10:01:02 13.9 C 8.99 g/m*3 13.9 C 0 km/h
1731 29-09-2007 10:13:02 13.8 C 9.06 g/m*3 13.8 C 0 km/h
1732 29-09-2007 10:25:02 12.8 C 9.18 g/m*3 12.8 C 0 km/h
1733 29-09-2007 10:37:03 12.4 C 9.4 g/m*3 12.4 C 0 km/h
1734 29-09-2007 10:49:02 12.4 C 9.62 g/m*3 12.4 C 0 km/h
1735 29-09-2007 11:01:03 12.3 C 9.66 g/m*3 12.3 C 0 km/h
1736 29-09-2007 11:13:03 12.3 C 9.66 g/m*3 12.3 C 0 km/h
1737 29-09-2007 11:25:21 12.4 C 9.62 g/m*3 12.4 C 0 km/h
1738 29-09-2007 11:37:02 12.9 C 9.58 g/m*3 12.9 C 0 km/h
1739 29-09-2007 11:49:02 13.2 C 9.3 g/m*3 13.2 C 0 km/h
1740 29-09-2007 12:01:03 13.4 C 9.07 g/m*3 13.4 C 0 km/h
1741 29-09-2007 12:13:03 14.1 C 9.1 g/m*3 14.1 C 0 km/h
1742 29-09-2007 12:25:03 14.1 C 8.86 g/m*3 14.1 C 0 km/h
1743 29-09-2007 12:37:02 14.4 C 8.78 g/m*3 14.4 C 0 km/h
1744 29-09-2007 12:47:02 14.7 C 8.81 g/m*3 14.7 C 0 km/h
1745 29-09-2007 12:50:02 14.7 C 8.69 g/m*3 14.7 C 0 km/h
1746 29-09-2007 12:53:02 14.9 C 8.92 g/m*3 14.9 C 0 km/h
1747 29-09-2007 12:56:02 14.8 C 8.74 g/m*3 14.8 C 0 km/h
1748 29-09-2007 12:59:02 14.8 C 8.61 g/m*3 14.8 C 0 km/h
1749 29-09-2007 13:02:02 14.8 C 8.61 g/m*3 14.8 C 0 km/h
1750 29-09-2007 13:05:02 14.8 C 8.61 g/m*3 14.8 C 0 km/h
Sensor: Nr:Datum:Temp:Abs-Feuchte:Windchill:Wind:
Aussen-T/F 1751 29-09-2007 13:08:02 14.9 C 8.54 g/m*3 14.9 C 0 km/h
1752 29-09-2007 13:11:02 14.9 C 8.54 g/m*3 14.9 C 0 km/h
1753 29-09-2007 13:14:02 15 C 8.46 g/m*3 15 C 0 km/h
1754 29-09-2007 13:17:02 15 C 8.46 g/m*3 15 C 0 km/h
1755 29-09-2007 13:20:02 14.9 C 8.28 g/m*3 14.9 C 0 km/h
1756 29-09-2007 13:23:02 14.8 C 8.36 g/m*3 14.8 C 0 km/h
1757 29-09-2007 13:26:02 14.8 C 8.36 g/m*3 14.8 C 0 km/h
1758 29-09-2007 13:29:02 14.7 C 8.44 g/m*3 14.7 C 0 km/h
1759 29-09-2007 13:32:24 14.7 C 8.44 g/m*3 14.7 C 0 km/h
1760 29-09-2007 13:35:24 14.7 C 8.56 g/m*3 14.7 C 0 km/h
1761 29-09-2007 13:38:30 14.7 C 8.44 g/m*3 14.7 C 0 km/h
1762 29-09-2007 13:41:02 14.4 C 8.28 g/m*3 14.4 C 0 km/h
1763 29-09-2007 13:44:01 14.2 C 8.18 g/m*3 14.2 C 0 km/h
1764 29-09-2007 13:50:22 14.1 C 8.37 g/m*3 14.1 C 0 km/h
1765 29-09-2007 13:53:02 14.1 C 8.37 g/m*3 14.1 C 0 km/h
1766 29-09-2007 13:56:02 14.2 C 8.43 g/m*3 14.2 C 0 km/h
1767 29-09-2007 13:59:02 14.1 C 8.37 g/m*3 14.1 C 0 km/h
1768 29-09-2007 14:02:02 14 C 8.32 g/m*3 14 C 0 km/h
1769 29-09-2007 14:05:02 14 C 8.44 g/m*3 14 C 0 km/h
1770 29-09-2007 14:08:02 14 C 8.44 g/m*3 14 C 0 km/h
1771 29-09-2007 14:11:03 13.9 C 8.39 g/m*3 13.9 C 0 km/h
1772 29-09-2007 14:14:03 13.9 C 8.51 g/m*3 13.9 C 0 km/h
1773 29-09-2007 14:17:02 14 C 8.44 g/m*3 14 C 0 km/h
1774 29-09-2007 14:20:02 14.1 C 8.37 g/m*3 14.1 C 0 km/h
1775 29-09-2007 14:23:02 14.2 C 8.43 g/m*3 14.2 C 0 km/h
Sensor: Nr:Datum:Temp:Abs-Feuchte:Windchill:Wind:
Aussen-T/F 1776 29-09-2007 14:26:02 14.3 C 8.35 g/m*3 14.3 C 0 km/h
1777 29-09-2007 14:29:03 14.2 C 8.3 g/m*3 14.2 C 0 km/h
1778 29-09-2007 14:32:02 14.3 C 8.35 g/m*3 14.3 C 0 km/h
1779 29-09-2007 14:35:02 14.4 C 8.28 g/m*3 14.4 C 0 km/h
1780 29-09-2007 14:38:02 14.4 C 8.16 g/m*3 14.4 C 0 km/h
1781 29-09-2007 14:41:02 14.9 C 8.28 g/m*3 14.9 C 0 km/h
1782 29-09-2007 14:44:02 15.2 C 8.18 g/m*3 15.2 C 0 km/h
1783 29-09-2007 14:47:02 15.1 C 8.13 g/m*3 15.1 C 0 km/h
1784 29-09-2007 14:50:02 15 C 8.08 g/m*3 15 C 0 km/h
1785 29-09-2007 14:53:03 14.9 C 8.03 g/m*3 14.9 C 0 km/h
1786 29-09-2007 14:56:03 14.9 C 8.16 g/m*3 14.9 C 0 km/h
1787 29-09-2007 14:59:03 15.4 C 8.15 g/m*3 15.4 C 0 km/h
1788 29-09-2007 15:02:02 16 C 8.04 g/m*3 16 C 0 km/h
1789 29-09-2007 15:05:02 16.4 C 7.96 g/m*3 16.4 C 0 km/h
1790 29-09-2007 15:08:02 16.7 C 7.96 g/m*3 16.7 C 0 km/h
1791 29-09-2007 15:11:03 16.7 C 7.96 g/m*3 16.7 C 0 km/h
1792 29-09-2007 15:14:03 16.8 C 7.72 g/m*3 16.8 C 0 km/h
1793 29-09-2007 15:17:01 16.8 C 7.58 g/m*3 16.8 C 0 km/h
1794 29-09-2007 15:20:01 17.2 C 7.47 g/m*3 17.2 C 0 km/h
1795 29-09-2007 15:23:01 16.7 C 7.39 g/m*3 16.7 C 0 km/h
1796 29-09-2007 15:26:01 16.8 C 7.43 g/m*3 16.8 C 0 km/h
1797 29-09-2007 15:29:01 17 C 7.38 g/m*3 17 C 0 km/h
1798 29-09-2007 15:32:01 16.9 C 7.48 g/m*3 16.9 C 0 km/h
1799 29-09-2007 15:35:01 16.8 C 7.58 g/m*3 16.8 C 0 km/h
1800 29-09-2007 15:38:01 17 C 7.67 g/m*3 17 C 0 km/h
Sensor: Nr:Datum:Temp:Abs-Feuchte:Windchill:Wind:
Aussen-T/F 1801 29-09-2007 15:41:01 16.9 C 7.62 g/m*3 16.9 C 0 km/h
1802 29-09-2007 15:44:01 17.2 C 7.61 g/m*3 17.2 C 0 km/h
1803 29-09-2007 15:47:02 17.1 C 7.42 g/m*3 17.1 C 0 km/h
1804 29-09-2007 15:50:02 17.1 C 7.42 g/m*3 17.1 C 0 km/h
1805 29-09-2007 15:53:02 16.7 C 7.53 g/m*3 16.7 C 0 km/h
1806 29-09-2007 15:56:02 16.3 C 7.35 g/m*3 16.3 C 0 km/h
1807 29-09-2007 15:59:02 16.4 C 7.4 g/m*3 16.4 C 0 km/h
1808 29-09-2007 16:02:02 16.2 C 7.45 g/m*3 16.2 C 0 km/h
1809 29-09-2007 16:05:02 16.3 C 7.49 g/m*3 16.3 C 0 km/h
1810 29-09-2007 16:08:02 16.2 C 7.45 g/m*3 16.2 C 0 km/h
1811 29-09-2007 16:11:03 16 C 7.36 g/m*3 16 C 0 km/h
1812 29-09-2007 16:14:03 16 C 7.36 g/m*3 16 C 0 km/h
1813 29-09-2007 16:17:02 15.7 C 7.36 g/m*3 15.7 C 0 km/h
1814 29-09-2007 16:20:02 15.7 C 7.49 g/m*3 15.7 C 0 km/h
1815 29-09-2007 16:23:02 15.7 C 7.63 g/m*3 15.7 C 0 km/h
1816 29-09-2007 16:26:03 15.6 C 7.58 g/m*3 15.6 C 0 km/h
1817 29-09-2007 16:29:03 15.6 C 7.45 g/m*3 15.6 C 0 km/h
1818 29-09-2007 16:32:02 15.6 C 7.58 g/m*3 15.6 C 0 km/h
1819 29-09-2007 16:35:02 15.5 C 7.53 g/m*3 15.5 C 0 km/h
1820 29-09-2007 16:38:02 15.7 C 7.63 g/m*3 15.7 C 0 km/h
1821 29-09-2007 16:41:02 15.5 C 7.4 g/m*3 15.5 C 0 km/h
1822 29-09-2007 16:44:02 15.6 C 7.58 g/m*3 15.6 C 0 km/h
1823 29-09-2007 16:47:02 15.8 C 7.67 g/m*3 15.8 C 0 km/h
1824 29-09-2007 16:50:02 15.8 C 7.54 g/m*3 15.8 C 0 km/h
1825 29-09-2007 16:53:02 15.8 C 7.54 g/m*3 15.8 C 0 km/h
Sensor: Nr:Datum:Temp:Abs-Feuchte:Windchill:Wind:
Aussen-T/F 1826 29-09-2007 16:56:02 16 C 7.49 g/m*3 16 C 0 km/h
1827 29-09-2007 16:59:02 16 C 7.36 g/m*3 16 C 0 km/h
1828 29-09-2007 17:02:02 16.2 C 7.45 g/m*3 16.2 C 0 km/h
1829 29-09-2007 17:05:02 15.9 C 7.45 g/m*3 15.9 C 0 km/h
1830 29-09-2007 17:08:02 15.8 C 7.4 g/m*3 15.8 C 0 km/h
1831 29-09-2007 17:11:02 15.8 C 7.4 g/m*3 15.8 C 0 km/h
1832 29-09-2007 17:14:02 15.8 C 7.4 g/m*3 15.8 C 0 km/h
1833 29-09-2007 17:17:02 15.9 C 7.58 g/m*3 15.9 C 0 km/h
1834 29-09-2007 17:20:03 16 C 7.36 g/m*3 16 C 0 km/h
1835 29-09-2007 17:23:03 15.8 C 7.4 g/m*3 15.8 C 0 km/h
1836 29-09-2007 17:26:03 15.9 C 7.45 g/m*3 15.9 C 0 km/h
1837 29-09-2007 17:29:03 15.6 C 7.45 g/m*3 15.6 C 0 km/h
1838 29-09-2007 17:32:01 15.4 C 7.36 g/m*3 15.4 C 0 km/h
1839 29-09-2007 17:35:01 15.2 C 7.4 g/m*3 15.2 C 0 km/h
1840 29-09-2007 17:38:02 15.1 C 7.48 g/m*3 15.1 C 0 km/h
1841 29-09-2007 17:41:02 14.9 C 7.52 g/m*3 14.9 C 0 km/h
1842 29-09-2007 17:44:02 14.7 C 7.55 g/m*3 14.7 C 0 km/h
1843 29-09-2007 17:47:02 14.7 C 7.55 g/m*3 14.7 C 0 km/h
1844 29-09-2007 17:50:02 14.7 C 7.68 g/m*3 14.7 C 0 km/h
1845 29-09-2007 17:53:02 14.7 C 7.68 g/m*3 14.7 C 0 km/h
1846 29-09-2007 17:56:02 14.7 C 7.81 g/m*3 14.7 C 0 km/h
1847 29-09-2007 17:59:02 14.7 C 7.81 g/m*3 14.7 C 0 km/h
1848 29-09-2007 18:02:02 14.5 C 7.71 g/m*3 14.5 C 0 km/h
1849 29-09-2007 18:05:03 14.5 C 7.71 g/m*3 14.5 C 0 km/h
1850 29-09-2007 18:08:03 14.4 C 7.79 g/m*3 14.4 C 0 km/h
Sensor: Nr:Datum:Temp:Abs-Feuchte:Windchill:Wind:
Aussen-T/F 1851 29-09-2007 18:11:03 14.5 C 7.84 g/m*3 14.5 C 0 km/h
1852 29-09-2007 18:14:03 14.4 C 7.66 g/m*3 14.4 C 0 km/h
1853 29-09-2007 18:17:02 14.4 C 7.79 g/m*3 14.4 C 0 km/h
1854 29-09-2007 18:20:02 14.3 C 7.74 g/m*3 14.3 C 0 km/h
1855 29-09-2007 18:23:02 14.3 C 7.74 g/m*3 14.3 C 0 km/h
1856 29-09-2007 18:26:03 14.3 C 7.74 g/m*3 14.3 C 0 km/h
1857 29-09-2007 18:29:03 14.3 C 7.86 g/m*3 14.3 C 0 km/h
1858 29-09-2007 18:32:02 14.2 C 7.94 g/m*3 14.2 C 0 km/h
1859 29-09-2007 18:35:02 14.1 C 7.89 g/m*3 14.1 C 0 km/h
1860 29-09-2007 18:38:02 14.1 C 7.89 g/m*3 14.1 C 0 km/h
1861 29-09-2007 18:41:02 14.1 C 8.01 g/m*3 14.1 C 0 km/h
1862 29-09-2007 18:44:02 14.1 C 8.01 g/m*3 14.1 C 0 km/h
1863 29-09-2007 18:47:02 14.1 C 8.01 g/m*3 14.1 C 0 km/h
1864 29-09-2007 18:50:03 14 C 8.08 g/m*3 14 C 0 km/h
1865 29-09-2007 18:53:03 14 C 8.08 g/m*3 14 C 0 km/h
1866 29-09-2007 18:56:03 13.9 C 8.27 g/m*3 13.9 C 0 km/h
1867 29-09-2007 18:59:03 13.7 C 8.41 g/m*3 13.7 C 0 km/h
1868 29-09-2007 19:02:01 13.7 C 8.41 g/m*3 13.7 C 0 km/h
1869 29-09-2007 19:05:01 13.3 C 8.55 g/m*3 13.3 C 0 km/h
1870 29-09-2007 19:08:01 13.2 C 8.61 g/m*3 13.2 C 0 km/h
1871 29-09-2007 19:11:01 13 C 8.73 g/m*3 13 C 0 km/h
1872 29-09-2007 19:14:02 12.8 C 8.85 g/m*3 12.8 C 0 km/h
1873 29-09-2007 19:17:01 12.7 C 9.02 g/m*3 12.7 C 0 km/h
1874 29-09-2007 19:20:01 12.5 C 9.02 g/m*3 12.5 C 0 km/h
1875 29-09-2007 19:23:01 12.4 C 9.07 g/m*3 12.4 C 0 km/h
Sensor: Nr:Datum:Temp:Abs-Feuchte:Windchill:Wind:
Aussen-T/F 1876 29-09-2007 19:26:01 12.3 C 9.12 g/m*3 12.3 C 0 km/h
1877 29-09-2007 19:29:01 12.4 C 9.18 g/m*3 12.4 C 0 km/h
1878 29-09-2007 19:32:02 12.2 C 9.17 g/m*3 12.2 C 0 km/h
1879 29-09-2007 19:35:03 12.1 C 9.12 g/m*3 12.1 C 0 km/h
1880 29-09-2007 19:38:03 12.1 C 9.12 g/m*3 12.1 C 0 km/h
1881 29-09-2007 19:41:03 12 C 9.17 g/m*3 12 C 0 km/h
1882 29-09-2007 19:44:03 12 C 9.17 g/m*3 12 C 0 km/h
1883 29-09-2007 19:47:03 12 C 9.17 g/m*3 12 C 0 km/h
1884 29-09-2007 19:50:03 12 C 9.27 g/m*3 12 C 0 km/h
1885 29-09-2007 19:53:03 12 C 9.27 g/m*3 12 C 0 km/h
1886 29-09-2007 19:56:03 12.1 C 9.33 g/m*3 12.1 C 0 km/h
1887 29-09-2007 19:59:03 12 C 9.27 g/m*3 12 C 0 km/h
1888 29-09-2007 20:02:02 12.1 C 9.22 g/m*3 12.1 C 0 km/h
1889 29-09-2007 20:05:02 12.1 C 9.22 g/m*3 12.1 C 0 km/h
1890 29-09-2007 20:08:02 12.1 C 9.22 g/m*3 12.1 C 0 km/h
1891 29-09-2007 20:11:02 12.1 C 9.22 g/m*3 12.1 C 0 km/h
1892 29-09-2007 20:14:02 12.2 C 9.28 g/m*3 12.2 C 0 km/h
1893 29-09-2007 20:17:02 12.2 C 9.28 g/m*3 12.2 C 0 km/h
1894 29-09-2007 20:20:02 12.2 C 9.28 g/m*3 12.2 C 0 km/h
1895 29-09-2007 20:23:02 12.2 C 9.28 g/m*3 12.2 C 0 km/h
1896 29-09-2007 20:26:02 12.2 C 9.28 g/m*3 12.2 C 0 km/h
1897 29-09-2007 20:29:02 12.2 C 9.28 g/m*3 12.2 C 0 km/h
1898 29-09-2007 20:32:02 12.1 C 9.22 g/m*3 12.1 C 0 km/h
1899 29-09-2007 20:35:02 12.1 C 9.22 g/m*3 12.1 C 0 km/h
1900 29-09-2007 20:38:02 12.1 C 9.22 g/m*3 12.1 C 0 km/h
Sensor: Nr:Datum:Temp:Abs-Feuchte:Windchill:Wind:
Aussen-T/F 1901 29-09-2007 20:41:02 12.1 C 9.22 g/m*3 12.1 C 0 km/h
1902 29-09-2007 20:44:02 12.2 C 9.28 g/m*3 12.2 C 0 km/h
1903 29-09-2007 20:47:02 12.1 C 9.22 g/m*3 12.1 C 0 km/h
1904 29-09-2007 20:50:02 12.1 C 9.22 g/m*3 12.1 C 0 km/h
1905 29-09-2007 20:53:02 12.1 C 9.22 g/m*3 12.1 C 0 km/h
1906 29-09-2007 20:56:02 12.1 C 9.22 g/m*3 12.1 C 0 km/h
1907 29-09-2007 20:59:02 12.1 C 9.22 g/m*3 12.1 C 0 km/h
1908 29-09-2007 21:02:02 12.1 C 9.22 g/m*3 12.1 C 0 km/h
1909 29-09-2007 21:05:02 12.1 C 9.22 g/m*3 12.1 C 0 km/h
1910 29-09-2007 21:08:02 12.2 C 9.28 g/m*3 12.2 C 0 km/h
1911 29-09-2007 21:11:02 12.2 C 9.28 g/m*3 12.2 C 0 km/h
1912 29-09-2007 21:14:02 12.1 C 9.22 g/m*3 12.1 C 0 km/h
1913 29-09-2007 21:17:02 12.1 C 9.33 g/m*3 12.1 C 0 km/h
1914 29-09-2007 21:20:02 12.1 C 9.33 g/m*3 12.1 C 0 km/h
1915 29-09-2007 21:23:02 12 C 9.27 g/m*3 12 C 0 km/h
1916 29-09-2007 21:26:02 12 C 9.27 g/m*3 12 C 0 km/h
1917 29-09-2007 21:29:02 12 C 9.27 g/m*3 12 C 0 km/h
1918 29-09-2007 21:32:02 12 C 9.38 g/m*3 12 C 0 km/h
1919 29-09-2007 21:35:02 11.9 C 9.32 g/m*3 11.9 C 0 km/h
1920 29-09-2007 21:38:02 12 C 9.38 g/m*3 12 C 0 km/h
1921 29-09-2007 21:41:02 12 C 9.38 g/m*3 12 C 0 km/h
1922 29-09-2007 21:44:02 12 C 9.38 g/m*3 12 C 0 km/h
1923 29-09-2007 21:47:02 12 C 9.38 g/m*3 12 C 0 km/h
1924 29-09-2007 21:50:02 12 C 9.38 g/m*3 12 C 0 km/h
1925 29-09-2007 21:53:02 12 C 9.38 g/m*3 12 C 0 km/h
Sensor: Nr:Datum:Temp:Abs-Feuchte:Windchill:Wind:
Aussen-T/F 1926 29-09-2007 21:56:02 12 C 9.38 g/m*3 12 C 0 km/h
1927 29-09-2007 21:59:02 12 C 9.38 g/m*3 12 C 0 km/h
1928 29-09-2007 22:02:02 12 C 9.38 g/m*3 12 C 0 km/h
1929 29-09-2007 22:05:02 12.1 C 9.33 g/m*3 12.1 C 0 km/h
1930 29-09-2007 22:08:02 12.1 C 9.33 g/m*3 12.1 C 0 km/h
1931 29-09-2007 22:11:02 12.3 C 9.45 g/m*3 12.3 C 0 km/h
1932 29-09-2007 22:14:02 12.3 C 9.45 g/m*3 12.3 C 0 km/h
1933 29-09-2007 22:17:01 12.4 C 9.51 g/m*3 12.4 C 0 km/h
1934 29-09-2007 22:20:01 12.4 C 9.4 g/m*3 12.4 C 0 km/h
1935 29-09-2007 22:23:01 12.4 C 9.4 g/m*3 12.4 C 0 km/h
1936 29-09-2007 22:26:01 12.5 C 9.46 g/m*3 12.5 C 0 km/h
1937 29-09-2007 22:29:01 12.5 C 9.35 g/m*3 12.5 C 0 km/h
1938 29-09-2007 22:32:02 12.5 C 9.35 g/m*3 12.5 C 0 km/h
1939 29-09-2007 22:35:02 12.4 C 9.29 g/m*3 12.4 C 0 km/h
1940 29-09-2007 22:38:02 12.5 C 9.35 g/m*3 12.5 C 0 km/h
1941 29-09-2007 22:41:02 12.5 C 9.35 g/m*3 12.5 C 0 km/h
1942 29-09-2007 22:44:02 12.5 C 9.35 g/m*3 12.5 C 0 km/h
1943 29-09-2007 22:47:02 12.5 C 9.24 g/m*3 12.5 C 0 km/h
1944 29-09-2007 22:50:02 12.5 C 9.24 g/m*3 12.5 C 0 km/h
1945 29-09-2007 22:53:02 12.5 C 9.24 g/m*3 12.5 C 0 km/h
1946 29-09-2007 22:56:02 12.5 C 9.24 g/m*3 12.5 C 0 km/h
1947 29-09-2007 22:59:02 12.5 C 9.24 g/m*3 12.5 C 0 km/h
1948 29-09-2007 23:02:01 12.5 C 9.24 g/m*3 12.5 C 0 km/h
1949 29-09-2007 23:05:01 12.6 C 9.29 g/m*3 12.6 C 0 km/h
1950 29-09-2007 23:08:01 12.6 C 9.29 g/m*3 12.6 C 0 km/h
Sensor: Nr:Datum:Temp:Abs-Feuchte:Windchill:Wind:
Aussen-T/F 1951 29-09-2007 23:11:01 12.5 C 9.24 g/m*3 12.5 C 0 km/h
1952 29-09-2007 23:14:01 12.6 C 9.29 g/m*3 12.6 C 0 km/h
1953 29-09-2007 23:17:02 12.6 C 9.29 g/m*3 12.6 C 0 km/h
1954 29-09-2007 23:20:02 12.6 C 9.18 g/m*3 12.6 C 0 km/h
1955 29-09-2007 23:23:02 12.6 C 9.29 g/m*3 12.6 C 0 km/h
1956 29-09-2007 23:26:02 12.6 C 9.18 g/m*3 12.6 C 0 km/h
1957 29-09-2007 23:29:02 12.6 C 9.18 g/m*3 12.6 C 0 km/h
1958 29-09-2007 23:32:02 12.7 C 9.24 g/m*3 12.7 C 0 km/h
1959 29-09-2007 23:35:02 12.7 C 9.24 g/m*3 12.7 C 0 km/h
1960 29-09-2007 23:38:02 12.7 C 9.24 g/m*3 12.7 C 0 km/h
1961 29-09-2007 23:41:02 12.7 C 9.24 g/m*3 12.7 C 0 km/h
1962 29-09-2007 23:44:02 12.7 C 9.24 g/m*3 12.7 C 0 km/h
1963 29-09-2007 23:47:02 12.7 C 9.24 g/m*3 12.7 C 0 km/h
1964 29-09-2007 23:50:02 12.8 C 9.3 g/m*3 12.8 C 0 km/h
1965 29-09-2007 23:53:02 12.8 C 9.3 g/m*3 12.8 C 0 km/h
1966 29-09-2007 23:56:02 12.8 C 9.3 g/m*3 12.8 C 0 km/h
1967 29-09-2007 23:59:02 12.8 C 9.18 g/m*3 12.8 C 0 km/h
1968 30-09-2007 00:02:02 12.8 C 9.18 g/m*3 12.8 C 0 km/h
1969 30-09-2007 00:05:02 12.8 C 9.3 g/m*3 12.8 C 0 km/h
1970 30-09-2007 00:08:02 12.8 C 9.3 g/m*3 12.8 C 0 km/h
1971 30-09-2007 00:11:02 12.8 C 9.3 g/m*3 12.8 C 0 km/h
1972 30-09-2007 00:14:02 12.7 C 9.24 g/m*3 12.7 C 0 km/h
1973 30-09-2007 00:17:03 12.7 C 9.24 g/m*3 12.7 C 0 km/h
1974 30-09-2007 00:20:03 12.7 C 9.24 g/m*3 12.7 C 0 km/h
1975 30-09-2007 00:23:03 12.7 C 9.24 g/m*3 12.7 C 0 km/h
Sensor: Nr:Datum:Temp:Abs-Feuchte:Windchill:Wind:
Aussen-T/F 1976 30-09-2007 00:26:04 12.8 C 9.3 g/m*3 12.8 C 0 km/h
1977 30-09-2007 00:29:04 12.8 C 9.3 g/m*3 12.8 C 0 km/h
1978 30-09-2007 00:32:03 12.8 C 9.3 g/m*3 12.8 C 0 km/h
1979 30-09-2007 00:35:03 12.8 C 9.3 g/m*3 12.8 C 0 km/h
1980 30-09-2007 00:38:03 12.8 C 9.3 g/m*3 12.8 C 0 km/h
1981 30-09-2007 00:41:03 12.8 C 9.3 g/m*3 12.8 C 0 km/h
1982 30-09-2007 00:44:03 12.8 C 9.3 g/m*3 12.8 C 0 km/h
1983 30-09-2007 00:47:02 12.8 C 9.18 g/m*3 12.8 C 0 km/h
1984 30-09-2007 00:50:02 12.8 C 9.18 g/m*3 12.8 C 0 km/h
1985 30-09-2007 00:53:02 12.8 C 9.18 g/m*3 12.8 C 0 km/h
1986 30-09-2007 00:56:02 12.8 C 9.18 g/m*3 12.8 C 0 km/h
1987 30-09-2007 00:59:02 12.8 C 9.3 g/m*3 12.8 C 0 km/h
1988 30-09-2007 01:02:02 12.8 C 9.3 g/m*3 12.8 C 0 km/h
1989 30-09-2007 01:05:02 12.8 C 9.3 g/m*3 12.8 C 0 km/h
1990 30-09-2007 01:08:02 12.9 C 9.24 g/m*3 12.9 C 0 km/h
1991 30-09-2007 01:11:02 12.8 C 9.18 g/m*3 12.8 C 0 km/h
1992 30-09-2007 01:14:02 12.8 C 9.18 g/m*3 12.8 C 0 km/h
1993 30-09-2007 01:17:02 12.8 C 9.18 g/m*3 12.8 C 0 km/h
1994 30-09-2007 01:20:02 12.8 C 9.18 g/m*3 12.8 C 0 km/h
1995 30-09-2007 01:23:02 12.9 C 9.24 g/m*3 12.9 C 0 km/h
1996 30-09-2007 01:26:02 12.9 C 9.24 g/m*3 12.9 C 0 km/h
1997 30-09-2007 01:29:02 12.9 C 9.24 g/m*3 12.9 C 0 km/h
1998 30-09-2007 01:32:02 12.9 C 9.24 g/m*3 12.9 C 0 km/h
1999 30-09-2007 01:35:02 12.8 C 9.3 g/m*3 12.8 C 0 km/h
2000 30-09-2007 01:38:02 12.8 C 9.3 g/m*3 12.8 C 0 km/h
Sensor: Nr:Datum:Temp:Abs-Feuchte:Windchill:Wind:
Aussen-T/F 2001 30-09-2007 01:41:02 12.9 C 9.35 g/m*3 12.9 C 0 km/h
2002 30-09-2007 01:44:02 12.9 C 9.35 g/m*3 12.9 C 0 km/h
2003 30-09-2007 01:47:03 12.8 C 9.3 g/m*3 12.8 C 0 km/h
2004 30-09-2007 01:50:03 12.9 C 9.35 g/m*3 12.9 C 0 km/h
2005 30-09-2007 01:53:03 12.9 C 9.35 g/m*3 12.9 C 0 km/h
2006 30-09-2007 01:56:03 12.9 C 9.35 g/m*3 12.9 C 0 km/h
2007 30-09-2007 01:59:03 12.9 C 9.35 g/m*3 12.9 C 0 km/h
2008 30-09-2007 02:02:02 12.9 C 9.35 g/m*3 12.9 C 0 km/h
2009 30-09-2007 02:05:02 12.9 C 9.35 g/m*3 12.9 C 0 km/h
2010 30-09-2007 02:08:02 12.9 C 9.35 g/m*3 12.9 C 0 km/h
2011 30-09-2007 02:11:02 12.9 C 9.35 g/m*3 12.9 C 0 km/h
2012 30-09-2007 02:14:02 12.9 C 9.35 g/m*3 12.9 C 0 km/h
2013 30-09-2007 02:17:03 12.9 C 9.35 g/m*3 12.9 C 0 km/h
2014 30-09-2007 02:20:03 12.9 C 9.35 g/m*3 12.9 C 0 km/h
2015 30-09-2007 02:23:03 12.9 C 9.35 g/m*3 12.9 C 0 km/h
2016 30-09-2007 02:26:03 12.8 C 9.41 g/m*3 12.8 C 0 km/h
2017 30-09-2007 02:29:03 12.8 C 9.41 g/m*3 12.8 C 0 km/h
2018 30-09-2007 02:32:03 12.8 C 9.41 g/m*3 12.8 C 0 km/h
2019 30-09-2007 02:35:03 12.8 C 9.41 g/m*3 12.8 C 0 km/h
2020 30-09-2007 02:38:03 12.8 C 9.41 g/m*3 12.8 C 0 km/h
2021 30-09-2007 02:41:03 12.8 C 9.41 g/m*3 12.8 C 0 km/h
2022 30-09-2007 02:44:03 12.8 C 9.52 g/m*3 12.8 C 0 km/h
2023 30-09-2007 02:47:02 12.8 C 9.52 g/m*3 12.8 C 0 km/h
2024 30-09-2007 02:50:02 12.8 C 9.52 g/m*3 12.8 C 0 km/h
2025 30-09-2007 02:53:02 12.7 C 9.46 g/m*3 12.7 C 0 km/h
Sensor: Nr:Datum:Temp:Abs-Feuchte:Windchill:Wind:
Aussen-T/F 2026 30-09-2007 02:56:02 12.7 C 9.46 g/m*3 12.7 C 0 km/h
2027 30-09-2007 02:59:02 12.7 C 9.46 g/m*3 12.7 C 0 km/h
2028 30-09-2007 03:02:03 12.7 C 9.46 g/m*3 12.7 C 0 km/h
2029 30-09-2007 03:05:03 12.7 C 9.46 g/m*3 12.7 C 0 km/h
2030 30-09-2007 03:08:03 12.7 C 9.57 g/m*3 12.7 C 0 km/h
2031 30-09-2007 03:11:01 12.7 C 9.57 g/m*3 12.7 C 0 km/h
2032 30-09-2007 03:14:01 12.7 C 9.57 g/m*3 12.7 C 0 km/h
2033 30-09-2007 03:17:01 12.7 C 9.57 g/m*3 12.7 C 0 km/h
2034 30-09-2007 03:20:02 12.7 C 9.57 g/m*3 12.7 C 0 km/h
2035 30-09-2007 03:23:02 12.7 C 9.57 g/m*3 12.7 C 0 km/h
2036 30-09-2007 03:26:02 12.7 C 9.57 g/m*3 12.7 C 0 km/h
2037 30-09-2007 03:29:02 12.6 C 9.51 g/m*3 12.6 C 0 km/h
2038 30-09-2007 03:32:01 12.6 C 9.51 g/m*3 12.6 C 0 km/h
2039 30-09-2007 03:35:01 12.6 C 9.51 g/m*3 12.6 C 0 km/h
2040 30-09-2007 03:38:01 12.6 C 9.51 g/m*3 12.6 C 0 km/h
2041 30-09-2007 03:41:01 12.6 C 9.51 g/m*3 12.6 C 0 km/h
2042 30-09-2007 03:44:01 12.6 C 9.51 g/m*3 12.6 C 0 km/h
2043 30-09-2007 03:47:02 12.5 C 9.57 g/m*3 12.5 C 0 km/h
2044 30-09-2007 03:50:02 12.5 C 9.57 g/m*3 12.5 C 0 km/h
2045 30-09-2007 03:53:02 12.5 C 9.57 g/m*3 12.5 C 0 km/h
2046 30-09-2007 03:56:02 12.6 C 9.62 g/m*3 12.6 C 0 km/h
2047 30-09-2007 03:59:02 12.6 C 9.62 g/m*3 12.6 C 0 km/h
2048 30-09-2007 04:02:02 12.6 C 9.62 g/m*3 12.6 C 0 km/h
2049 30-09-2007 04:05:02 12.5 C 9.57 g/m*3 12.5 C 0 km/h
2050 30-09-2007 04:08:02 12.5 C 9.57 g/m*3 12.5 C 0 km/h
Sensor: Nr:Datum:Temp:Abs-Feuchte:Windchill:Wind:
Aussen-T/F 2051 30-09-2007 04:11:02 12.5 C 9.57 g/m*3 12.5 C 0 km/h
2052 30-09-2007 04:14:02 12.5 C 9.57 g/m*3 12.5 C 0 km/h
2053 30-09-2007 04:17:02 12.5 C 9.57 g/m*3 12.5 C 0 km/h
2054 30-09-2007 04:20:02 12.5 C 9.57 g/m*3 12.5 C 0 km/h
2055 30-09-2007 04:23:02 12.6 C 9.62 g/m*3 12.6 C 0 km/h
2056 30-09-2007 04:26:02 12.6 C 9.62 g/m*3 12.6 C 0 km/h
2057 30-09-2007 04:29:02 12.6 C 9.62 g/m*3 12.6 C 0 km/h
2058 30-09-2007 04:32:01 12.6 C 9.62 g/m*3 12.6 C 0 km/h
2059 30-09-2007 04:35:01 12.6 C 9.62 g/m*3 12.6 C 0 km/h
2060 30-09-2007 04:38:01 12.6 C 9.62 g/m*3 12.6 C 0 km/h
2061 30-09-2007 04:41:02 12.6 C 9.62 g/m*3 12.6 C 0 km/h
2062 30-09-2007 04:44:02 12.6 C 9.51 g/m*3 12.6 C 0 km/h
2063 30-09-2007 04:47:01 12.6 C 9.51 g/m*3 12.6 C 0 km/h
2064 30-09-2007 04:50:02 12.5 C 9.46 g/m*3 12.5 C 0 km/h
2065 30-09-2007 04:53:02 12.5 C 9.46 g/m*3 12.5 C 0 km/h
2066 30-09-2007 04:56:02 12.4 C 9.51 g/m*3 12.4 C 0 km/h
2067 30-09-2007 04:59:02 12.4 C 9.51 g/m*3 12.4 C 0 km/h
2068 30-09-2007 05:02:02 12.4 C 9.51 g/m*3 12.4 C 0 km/h
2069 30-09-2007 05:05:02 12.4 C 9.51 g/m*3 12.4 C 0 km/h
2070 30-09-2007 05:08:02 12.4 C 9.51 g/m*3 12.4 C 0 km/h
2071 30-09-2007 05:11:02 12.4 C 9.51 g/m*3 12.4 C 0 km/h
2072 30-09-2007 05:14:02 12.5 C 9.57 g/m*3 12.5 C 0 km/h
2073 30-09-2007 05:17:01 12.4 C 9.51 g/m*3 12.4 C 0 km/h
2074 30-09-2007 05:20:01 12.5 C 9.57 g/m*3 12.5 C 0 km/h
2075 30-09-2007 05:23:01 12.5 C 9.57 g/m*3 12.5 C 0 km/h
Sensor: Nr:Datum:Temp:Abs-Feuchte:Windchill:Wind:
Aussen-T/F 2076 30-09-2007 05:26:01 12.5 C 9.46 g/m*3 12.5 C 0 km/h
2077 30-09-2007 05:29:01 12.5 C 9.46 g/m*3 12.5 C 0 km/h
2078 30-09-2007 05:32:02 12.5 C 9.46 g/m*3 12.5 C 0 km/h
2079 30-09-2007 05:35:02 12.5 C 9.46 g/m*3 12.5 C 0 km/h
2080 30-09-2007 05:38:02 12.5 C 9.46 g/m*3 12.5 C 0 km/h
2081 30-09-2007 05:41:02 12.4 C 9.4 g/m*3 12.4 C 0 km/h
2082 30-09-2007 05:44:02 12.4 C 9.4 g/m*3 12.4 C 0 km/h
2083 30-09-2007 05:47:02 12.4 C 9.4 g/m*3 12.4 C 0 km/h
2084 30-09-2007 05:50:02 12.4 C 9.4 g/m*3 12.4 C 0 km/h
2085 30-09-2007 05:53:02 12.2 C 9.28 g/m*3 12.2 C 0 km/h
2086 30-09-2007 05:56:02 12.1 C 9.22 g/m*3 12.1 C 0 km/h
2087 30-09-2007 05:59:02 12 C 9.27 g/m*3 12 C 0 km/h
2088 30-09-2007 06:02:02 11.9 C 9.21 g/m*3 11.9 C 0 km/h
2089 30-09-2007 06:05:02 11.9 C 9.21 g/m*3 11.9 C 0 km/h
2090 30-09-2007 06:08:02 11.7 C 9.1 g/m*3 11.7 C 0 km/h
2091 30-09-2007 06:11:02 11.6 C 9.04 g/m*3 11.6 C 0 km/h
2092 30-09-2007 06:14:02 11.5 C 8.99 g/m*3 11.5 C 0 km/h
2093 30-09-2007 06:17:02 11.5 C 9.09 g/m*3 11.5 C 0 km/h
2094 30-09-2007 06:20:02 11.4 C 9.03 g/m*3 11.4 C 0 km/h
2095 30-09-2007 06:23:02 11.2 C 8.92 g/m*3 11.2 C 0 km/h
2096 30-09-2007 06:26:02 11.2 C 8.92 g/m*3 11.2 C 0 km/h
2097 30-09-2007 06:29:02 11.1 C 8.86 g/m*3 11.1 C 0 km/h
2098 30-09-2007 06:32:02 11.1 C 8.86 g/m*3 11.1 C 0 km/h
2099 30-09-2007 06:35:02 11 C 8.91 g/m*3 11 C 0 km/h
2100 30-09-2007 06:38:02 11 C 8.91 g/m*3 11 C 0 km/h
Sensor: Nr:Datum:Temp:Abs-Feuchte:Windchill:Wind:
Aussen-T/F 2101 30-09-2007 06:41:02 10.9 C 8.85 g/m*3 10.9 C 0 km/h
2102 30-09-2007 06:44:02 10.9 C 8.85 g/m*3 10.9 C 0 km/h
2103 30-09-2007 06:47:02 11 C 8.91 g/m*3 11 C 0 km/h
2104 30-09-2007 06:50:02 10.9 C 8.95 g/m*3 10.9 C 0 km/h
2105 30-09-2007 06:53:02 10.9 C 8.95 g/m*3 10.9 C 0 km/h
2106 30-09-2007 06:56:02 10.9 C 8.95 g/m*3 10.9 C 0 km/h
2107 30-09-2007 06:59:02 10.9 C 8.95 g/m*3 10.9 C 0 km/h
2108 30-09-2007 07:02:02 10.8 C 8.9 g/m*3 10.8 C 0 km/h
2109 30-09-2007 07:05:02 10.7 C 8.94 g/m*3 10.7 C 0 km/h
2110 30-09-2007 07:08:02 10.7 C 8.94 g/m*3 10.7 C 0 km/h
2111 30-09-2007 07:11:02 10.8 C 8.99 g/m*3 10.8 C 0 km/h
2112 30-09-2007 07:14:02 10.7 C 8.94 g/m*3 10.7 C 0 km/h
2113 30-09-2007 07:17:02 10.6 C 8.88 g/m*3 10.6 C 0 km/h
2114 30-09-2007 07:20:02 10.6 C 8.88 g/m*3 10.6 C 0 km/h
2115 30-09-2007 07:23:02 10.5 C 8.83 g/m*3 10.5 C 0 km/h
2116 30-09-2007 07:26:02 10.6 C 8.88 g/m*3 10.6 C 0 km/h
2117 30-09-2007 07:29:02 10.5 C 8.83 g/m*3 10.5 C 0 km/h
2118 30-09-2007 07:32:02 10.5 C 8.83 g/m*3 10.5 C 0 km/h
2119 30-09-2007 07:35:02 10.5 C 8.83 g/m*3 10.5 C 0 km/h
2120 30-09-2007 07:38:02 10.5 C 8.83 g/m*3 10.5 C 0 km/h
2121 30-09-2007 07:41:02 10.5 C 8.83 g/m*3 10.5 C 0 km/h
2122 30-09-2007 07:44:02 10.5 C 8.83 g/m*3 10.5 C 0 km/h
2123 30-09-2007 07:47:02 10.5 C 8.83 g/m*3 10.5 C 0 km/h
2124 30-09-2007 07:50:02 10.3 C 8.71 g/m*3 10.3 C 0 km/h
2125 30-09-2007 07:53:02 10.4 C 8.77 g/m*3 10.4 C 0 km/h
Sensor: Nr:Datum:Temp:Abs-Feuchte:Windchill:Wind:
Aussen-T/F 2126 30-09-2007 07:56:02 10.5 C 8.92 g/m*3 10.5 C 0 km/h
2127 30-09-2007 07:59:02 10.5 C 8.92 g/m*3 10.5 C 0 km/h
2128 30-09-2007 08:02:02 10.7 C 9.04 g/m*3 10.7 C 0 km/h
2129 30-09-2007 08:05:02 10.8 C 9.09 g/m*3 10.8 C 0 km/h
2130 30-09-2007 08:08:02 10.8 C 9.09 g/m*3 10.8 C 0 km/h
2131 30-09-2007 08:11:02 10.7 C 9.04 g/m*3 10.7 C 0 km/h
2132 30-09-2007 08:14:02 10.7 C 9.04 g/m*3 10.7 C 0 km/h
2133 30-09-2007 08:17:02 10.7 C 9.04 g/m*3 10.7 C 0 km/h
2134 30-09-2007 08:20:02 10.8 C 9.09 g/m*3 10.8 C 0 km/h
2135 30-09-2007 08:23:02 10.8 C 9.09 g/m*3 10.8 C 0 km/h
2136 30-09-2007 08:26:02 10.8 C 9.09 g/m*3 10.8 C 0 km/h
2137 30-09-2007 08:29:02 10.8 C 9.09 g/m*3 10.8 C 0 km/h
2138 30-09-2007 08:32:02 10.8 C 9.09 g/m*3 10.8 C 0 km/h
2139 30-09-2007 08:35:02 10.8 C 9.09 g/m*3 10.8 C 0 km/h
2140 30-09-2007 08:38:02 10.8 C 9.19 g/m*3 10.8 C 0 km/h
2141 30-09-2007 08:41:02 10.8 C 9.19 g/m*3 10.8 C 0 km/h
2142 30-09-2007 08:44:02 10.9 C 9.25 g/m*3 10.9 C 0 km/h
2143 30-09-2007 08:47:02 10.9 C 9.25 g/m*3 10.9 C 0 km/h
2144 30-09-2007 08:50:02 11 C 9.21 g/m*3 11 C 0 km/h
2145 30-09-2007 08:53:02 11 C 9.21 g/m*3 11 C 0 km/h
2146 30-09-2007 08:56:02 11 C 9.21 g/m*3 11 C 0 km/h
2147 30-09-2007 08:59:02 11 C 9.21 g/m*3 11 C 0 km/h
2148 30-09-2007 09:02:02 11.1 C 9.27 g/m*3 11.1 C 0 km/h
2149 30-09-2007 09:05:02 11.1 C 9.27 g/m*3 11.1 C 0 km/h
2150 30-09-2007 09:08:02 11.1 C 9.27 g/m*3 11.1 C 0 km/h
Sensor: Nr:Datum:Temp:Abs-Feuchte:Windchill:Wind:
Aussen-T/F 2151 30-09-2007 09:11:02 11.1 C 9.27 g/m*3 11.1 C 0 km/h
2152 30-09-2007 09:14:02 11.1 C 9.27 g/m*3 11.1 C 0 km/h
2153 30-09-2007 09:17:01 11.1 C 9.27 g/m*3 11.1 C 0 km/h
2154 30-09-2007 09:20:01 11.2 C 9.33 g/m*3 11.2 C 0 km/h
2155 30-09-2007 09:23:01 11.2 C 9.33 g/m*3 11.2 C 0 km/h
2156 30-09-2007 09:26:01 11.2 C 9.33 g/m*3 11.2 C 0 km/h
2157 30-09-2007 09:29:01 11.2 C 9.33 g/m*3 11.2 C 0 km/h
2158 30-09-2007 09:32:02 11.3 C 9.38 g/m*3 11.3 C 0 km/h
2159 30-09-2007 09:35:02 11.3 C 9.38 g/m*3 11.3 C 0 km/h
2160 30-09-2007 09:38:02 11.3 C 9.38 g/m*3 11.3 C 0 km/h
2161 30-09-2007 09:41:02 11.3 C 9.38 g/m*3 11.3 C 0 km/h
2162 30-09-2007 09:44:02 11.4 C 9.44 g/m*3 11.4 C 0 km/h
2163 30-09-2007 09:47:02 11.4 C 9.44 g/m*3 11.4 C 0 km/h
2164 30-09-2007 09:50:02 11.4 C 9.44 g/m*3 11.4 C 0 km/h
2165 30-09-2007 09:53:02 11.4 C 9.44 g/m*3 11.4 C 0 km/h
2166 30-09-2007 09:56:02 11.5 C 9.61 g/m*3 11.5 C 0 km/h
2167 30-09-2007 09:59:02 11.6 C 9.67 g/m*3 11.6 C 0 km/h
2168 30-09-2007 10:02:02 11.6 C 9.67 g/m*3 11.6 C 0 km/h
2169 30-09-2007 10:05:02 11.7 C 9.73 g/m*3 11.7 C 0 km/h
2170 30-09-2007 10:08:02 11.7 C 9.73 g/m*3 11.7 C 0 km/h
2171 30-09-2007 10:11:02 11.7 C 9.73 g/m*3 11.7 C 0 km/h
2172 30-09-2007 10:14:02 11.8 C 9.79 g/m*3 11.8 C 0 km/h
2173 30-09-2007 10:17:02 11.8 C 9.79 g/m*3 11.8 C 0 km/h
2174 30-09-2007 10:20:02 11.8 C 9.79 g/m*3 11.8 C 0 km/h
2175 30-09-2007 10:23:02 11.8 C 9.79 g/m*3 11.8 C 0 km/h
Sensor: Nr:Datum:Temp:Abs-Feuchte:Windchill:Wind:
Aussen-T/F 2176 30-09-2007 10:26:02 12.1 C 9.87 g/m*3 12.1 C 0 km/h
2177 30-09-2007 10:29:02 12.2 C 9.93 g/m*3 12.2 C 0 km/h
2178 30-09-2007 10:32:02 12.3 C 9.99 g/m*3 12.3 C 0 km/h
2179 30-09-2007 10:35:02 12.3 C 9.99 g/m*3 12.3 C 0 km/h
2180 30-09-2007 10:38:02 12.5 C 10.11 g/m*3 12.5 C 0 km/h
2181 30-09-2007 10:41:02 12.5 C 10.11 g/m*3 12.5 C 0 km/h
2182 30-09-2007 10:44:02 12.6 C 10.18 g/m*3 12.6 C 0 km/h
2183 30-09-2007 10:47:02 12.8 C 10.19 g/m*3 12.8 C 0 km/h
2184 30-09-2007 10:50:02 12.9 C 10.26 g/m*3 12.9 C 0 km/h
2185 30-09-2007 10:53:02 13 C 10.09 g/m*3 13 C 0 km/h
2186 30-09-2007 10:56:02 13.2 C 10.1 g/m*3 13.2 C 0 km/h
2187 30-09-2007 10:59:02 13.4 C 10 g/m*3 13.4 C 0 km/h
2188 30-09-2007 11:02:02 13.5 C 9.83 g/m*3 13.5 C 0 km/h
2189 30-09-2007 11:05:02 13.5 C 9.83 g/m*3 13.5 C 0 km/h
2190 30-09-2007 11:08:02 13.9 C 9.59 g/m*3 13.9 C 0 km/h
2191 30-09-2007 11:11:02 14 C 9.41 g/m*3 14 C 0 km/h
2192 30-09-2007 11:14:02 14 C 9.17 g/m*3 14 C 0 km/h
2193 30-09-2007 11:17:02 14.2 C 8.91 g/m*3 14.2 C 0 km/h
2194 30-09-2007 11:20:02 14.3 C 8.85 g/m*3 14.3 C 0 km/h
2195 30-09-2007 11:23:02 14.3 C 8.85 g/m*3 14.3 C 0 km/h
2196 30-09-2007 11:26:02 14.4 C 8.9 g/m*3 14.4 C 0 km/h
2197 30-09-2007 11:29:02 14.5 C 8.95 g/m*3 14.5 C 0 km/h
2198 30-09-2007 11:32:02 14.6 C 9.01 g/m*3 14.6 C 0 km/h
2199 30-09-2007 11:35:02 14.6 C 9.01 g/m*3 14.6 C 0 km/h
2200 30-09-2007 11:38:02 14.7 C 9.07 g/m*3 14.7 C 0 km/h
Sensor: Nr:Datum:Temp:Abs-Feuchte:Windchill:Wind:
Aussen-T/F 2201 30-09-2007 11:41:02 14.7 C 9.07 g/m*3 14.7 C 0 km/h
2202 30-09-2007 11:44:02 14.6 C 8.63 g/m*3 14.6 C 0 km/h
2203 30-09-2007 11:47:02 14.8 C 8.74 g/m*3 14.8 C 0 km/h
2204 30-09-2007 11:50:02 15.1 C 8.64 g/m*3 15.1 C 0 km/h
2205 30-09-2007 11:53:02 15.2 C 8.44 g/m*3 15.2 C 0 km/h
2206 30-09-2007 11:56:02 15.2 C 8.31 g/m*3 15.2 C 0 km/h
2207 30-09-2007 11:59:02 15.3 C 8.36 g/m*3 15.3 C 0 km/h
2208 30-09-2007 12:02:02 15.3 C 8.49 g/m*3 15.3 C 0 km/h
2209 30-09-2007 12:05:02 15.3 C 8.49 g/m*3 15.3 C 0 km/h
2210 30-09-2007 12:08:02 15.4 C 8.41 g/m*3 15.4 C 0 km/h
2211 30-09-2007 12:11:02 15.5 C 8.46 g/m*3 15.5 C 0 km/h
2212 30-09-2007 12:14:02 15.5 C 8.2 g/m*3 15.5 C 0 km/h
2213 30-09-2007 12:17:02 15.6 C 8.25 g/m*3 15.6 C 0 km/h
2214 30-09-2007 12:20:02 15.7 C 8.7 g/m*3 15.7 C 0 km/h
2215 30-09-2007 12:23:02 15.8 C 8.35 g/m*3 15.8 C 0 km/h
2216 30-09-2007 12:26:02 15.9 C 7.85 g/m*3 15.9 C 0 km/h
2217 30-09-2007 12:29:02 16 C 7.9 g/m*3 16 C 0 km/h
2218 30-09-2007 12:32:02 16.1 C 7.95 g/m*3 16.1 C 0 km/h
2219 30-09-2007 12:35:02 16.2 C 8.14 g/m*3 16.2 C 0 km/h
2220 30-09-2007 12:38:02 16.4 C 8.37 g/m*3 16.4 C 0 km/h
2221 30-09-2007 12:41:02 16.5 C 8.14 g/m*3 16.5 C 0 km/h
2222 30-09-2007 12:44:02 16.8 C 8.44 g/m*3 16.8 C 0 km/h
2223 30-09-2007 12:47:01 17 C 8.25 g/m*3 17 C 0 km/h
2224 30-09-2007 12:50:01 17.2 C 8.49 g/m*3 17.2 C 0 km/h
2225 30-09-2007 12:53:01 17.3 C 7.81 g/m*3 17.3 C 0 km/h
Sensor: Nr:Datum:Temp:Abs-Feuchte:Windchill:Wind:
Aussen-T/F 2226 30-09-2007 12:56:01 17.3 C 7.81 g/m*3 17.3 C 0 km/h
2227 30-09-2007 12:59:01 17.4 C 8 g/m*3 17.4 C 0 km/h
2228 30-09-2007 13:02:01 17.5 C 7.9 g/m*3 17.5 C 0 km/h
2229 30-09-2007 13:05:01 17.6 C 7.65 g/m*3 17.6 C 0 km/h
2230 30-09-2007 13:08:01 17.8 C 7.89 g/m*3 17.8 C 0 km/h
2231 30-09-2007 13:11:01 17.9 C 7.63 g/m*3 17.9 C 0 km/h
2232 30-09-2007 13:14:01 17.9 C 7.63 g/m*3 17.9 C 0 km/h
2233 30-09-2007 13:17:02 18.1 C 7.57 g/m*3 18.1 C 0 km/h
2234 30-09-2007 13:20:02 18.1 C 7.73 g/m*3 18.1 C 0 km/h
2235 30-09-2007 13:23:02 18.3 C 8.29 g/m*3 18.3 C 0 km/h
2236 30-09-2007 13:26:02 18.4 C 8.49 g/m*3 18.4 C 0 km/h
2237 30-09-2007 13:29:02 18.6 C 8.44 g/m*3 18.6 C 0 km/h
2238 30-09-2007 13:32:02 18.7 C 8.33 g/m*3 18.7 C 0 km/h
2239 30-09-2007 13:35:02 18.9 C 8.26 g/m*3 18.9 C 0 km/h
2240 30-09-2007 13:38:02 19.1 C 8.2 g/m*3 19.1 C 0 km/h
2241 30-09-2007 13:41:02 19.3 C 8.29 g/m*3 19.3 C 0 km/h
2242 30-09-2007 13:44:02 19.3 C 8.13 g/m*3 19.3 C 0 km/h
2243 30-09-2007 13:47:01 19.3 C 7.63 g/m*3 19.3 C 0 km/h
2244 30-09-2007 13:50:01 19.3 C 7.63 g/m*3 19.3 C 0 km/h
2245 30-09-2007 13:53:01 19.3 C 7.8 g/m*3 19.3 C 0 km/h
2246 30-09-2007 13:56:01 19.3 C 7.8 g/m*3 19.3 C 0 km/h
2247 30-09-2007 13:59:01 19.2 C 7.59 g/m*3 19.2 C 0 km/h
2248 30-09-2007 14:02:01 19.1 C 7.54 g/m*3 19.1 C 0 km/h
2249 30-09-2007 14:05:01 19.1 C 7.54 g/m*3 19.1 C 0 km/h
2250 30-09-2007 14:08:01 19 C 7.5 g/m*3 19 C 0 km/h
Sensor: Nr:Datum:Temp:Abs-Feuchte:Windchill:Wind:
Aussen-T/F 2251 30-09-2007 14:11:01 18.9 C 7.61 g/m*3 18.9 C 0 km/h
2252 30-09-2007 14:14:01 18.9 C 7.78 g/m*3 18.9 C 0 km/h
2253 30-09-2007 14:17:01 19 C 7.82 g/m*3 19 C 0 km/h
2254 30-09-2007 14:20:01 18.9 C 7.94 g/m*3 18.9 C 0 km/h
2255 30-09-2007 14:23:01 18.9 C 7.78 g/m*3 18.9 C 0 km/h
2256 30-09-2007 14:26:01 19 C 7.82 g/m*3 19 C 0 km/h
2257 30-09-2007 14:29:01 19 C 7.82 g/m*3 19 C 0 km/h
2258 30-09-2007 14:32:02 19 C 7.82 g/m*3 19 C 0 km/h
2259 30-09-2007 14:35:02 19.1 C 7.87 g/m*3 19.1 C 0 km/h
2260 30-09-2007 14:38:02 19.3 C 7.8 g/m*3 19.3 C 0 km/h
2261 30-09-2007 14:41:02 19.5 C 7.72 g/m*3 19.5 C 0 km/h
2262 30-09-2007 14:44:02 19.7 C 7.98 g/m*3 19.7 C 0 km/h
2263 30-09-2007 14:47:02 19.7 C 7.81 g/m*3 19.7 C 0 km/h
2264 30-09-2007 14:50:02 19.7 C 7.98 g/m*3 19.7 C 0 km/h
2265 30-09-2007 14:53:02 19.8 C 7.86 g/m*3 19.8 C 0 km/h
2266 30-09-2007 14:56:02 20.2 C 7.87 g/m*3 20.2 C 0 km/h
2267 30-09-2007 14:59:02 20.5 C 7.83 g/m*3 20.5 C 0 km/h
2268 30-09-2007 15:02:02 20.5 C 7.65 g/m*3 20.5 C 0 km/h
2269 30-09-2007 15:05:02 20.5 C 7.83 g/m*3 20.5 C 0 km/h
2270 30-09-2007 15:08:02 20.5 C 7.65 g/m*3 20.5 C 0 km/h
2271 30-09-2007 15:11:02 20.5 C 7.83 g/m*3 20.5 C 0 km/h
2272 30-09-2007 15:14:02 20.7 C 8.1 g/m*3 20.7 C 0 km/h
2273 30-09-2007 15:17:02 20.8 C 8.51 g/m*3 20.8 C 0 km/h
2274 30-09-2007 15:20:02 21.1 C 8.29 g/m*3 21.1 C 0 km/h
2275 30-09-2007 15:23:02 21.3 C 8.2 g/m*3 21.3 C 0 km/h
Sensor: Nr:Datum:Temp:Abs-Feuchte:Windchill:Wind:
Aussen-T/F 2276 30-09-2007 15:26:02 21.6 C 8.53 g/m*3 21.6 C 0 km/h
2277 30-09-2007 15:29:02 21.9 C 7.91 g/m*3 21.9 C 0 km/h
2278 30-09-2007 15:32:02 22.1 C 7.61 g/m*3 22.1 C 0 km/h
2279 30-09-2007 15:35:02 22.4 C 7.35 g/m*3 22.4 C 0 km/h
2280 30-09-2007 15:38:02 22.6 C 7.23 g/m*3 22.6 C 0 km/h
2281 30-09-2007 15:41:02 22.5 C 7.39 g/m*3 22.5 C 0 km/h
2282 30-09-2007 15:44:02 22.5 C 7.19 g/m*3 22.5 C 0 km/h
2283 30-09-2007 15:47:02 22.4 C 6.95 g/m*3 22.4 C 0 km/h
2284 30-09-2007 15:50:02 22.2 C 6.87 g/m*3 22.2 C 0 km/h
2285 30-09-2007 15:53:02 22 C 6.79 g/m*3 22 C 0 km/h
2286 30-09-2007 15:56:02 21.9 C 6.95 g/m*3 21.9 C 0 km/h
2287 30-09-2007 15:59:02 22 C 7.18 g/m*3 22 C 0 km/h
2288 30-09-2007 16:02:02 22.1 C 7.03 g/m*3 22.1 C 0 km/h
2289 30-09-2007 16:05:02 22 C 6.79 g/m*3 22 C 0 km/h
2290 30-09-2007 16:08:02 21.9 C 7.14 g/m*3 21.9 C 0 km/h
2291 30-09-2007 16:11:02 21.8 C 6.91 g/m*3 21.8 C 0 km/h
2292 30-09-2007 16:14:02 21.7 C 6.87 g/m*3 21.7 C 0 km/h
2293 30-09-2007 16:17:02 21.6 C 7.4 g/m*3 21.6 C 0 km/h
2294 30-09-2007 16:20:02 21.1 C 7 g/m*3 21.1 C 0 km/h
2295 30-09-2007 16:23:02 20.9 C 8.01 g/m*3 20.9 C 0 km/h
2296 30-09-2007 16:26:02 20.6 C 8.05 g/m*3 20.6 C 0 km/h
2297 30-09-2007 16:29:02 20.2 C 8.22 g/m*3 20.2 C 0 km/h
2298 30-09-2007 16:32:02 20 C 8.47 g/m*3 20 C 0 km/h
2299 30-09-2007 16:35:02 19.7 C 8.49 g/m*3 19.7 C 0 km/h
2300 30-09-2007 16:38:02 19.9 C 8.59 g/m*3 19.9 C 0 km/h
Sensor: Nr:Datum:Temp:Abs-Feuchte:Windchill:Wind:
Aussen-T/F 2301 30-09-2007 16:41:02 20.3 C 8.27 g/m*3 20.3 C 0 km/h
2302 30-09-2007 16:44:02 20.8 C 8.69 g/m*3 20.8 C 0 km/h
2303 30-09-2007 16:47:01 21.2 C 8.52 g/m*3 21.2 C 0 km/h
2304 30-09-2007 16:50:01 21.4 C 8.62 g/m*3 21.4 C 0 km/h
2305 30-09-2007 16:53:01 21.5 C 8.49 g/m*3 21.5 C 0 km/h
2306 30-09-2007 16:56:01 21.6 C 8.16 g/m*3 21.6 C 0 km/h
2307 30-09-2007 16:59:01 21.8 C 7.87 g/m*3 21.8 C 0 km/h
2308 30-09-2007 17:02:02 22 C 7.57 g/m*3 22 C 0 km/h
2309 30-09-2007 17:05:02 21.9 C 7.33 g/m*3 21.9 C 0 km/h
2310 30-09-2007 17:08:02 22 C 8.15 g/m*3 22 C 0 km/h
2311 30-09-2007 17:11:02 22 C 7.57 g/m*3 22 C 0 km/h
2312 30-09-2007 17:14:02 22 C 7.18 g/m*3 22 C 0 km/h
2313 30-09-2007 17:17:02 22.2 C 8.05 g/m*3 22.2 C 0 km/h
2314 30-09-2007 17:20:02 22.3 C 7.9 g/m*3 22.3 C 0 km/h
2315 30-09-2007 17:23:02 22.4 C 7.94 g/m*3 22.4 C 0 km/h
2316 30-09-2007 17:26:02 22.3 C 7.9 g/m*3 22.3 C 0 km/h
2317 30-09-2007 17:29:02 22.3 C 7.9 g/m*3 22.3 C 0 km/h
2318 30-09-2007 17:32:02 21.5 C 8.3 g/m*3 21.5 C 0 km/h
2319 30-09-2007 17:35:02 21.5 C 8.3 g/m*3 21.5 C 0 km/h
2320 30-09-2007 17:38:02 20.4 C 8.14 g/m*3 20.4 C 0 km/h
2321 30-09-2007 17:41:02 20 C 8.3 g/m*3 20 C 0 km/h
2322 30-09-2007 17:44:02 19.8 C 8.37 g/m*3 19.8 C 0 km/h
2323 30-09-2007 17:47:01 19.7 C 8.32 g/m*3 19.7 C 0 km/h
2324 30-09-2007 17:50:01 19.2 C 8.24 g/m*3 19.2 C 0 km/h
2325 30-09-2007 17:53:01 19 C 8.47 g/m*3 19 C 0 km/h
Sensor: Nr:Datum:Temp:Abs-Feuchte:Windchill:Wind:
Aussen-T/F 2326 30-09-2007 17:56:01 18.8 C 8.54 g/m*3 18.8 C 0 km/h
2327 30-09-2007 17:59:01 18.6 C 8.44 g/m*3 18.6 C 0 km/h
2328 30-09-2007 18:02:02 18.4 C 8.49 g/m*3 18.4 C 0 km/h
2329 30-09-2007 18:05:02 18.2 C 8.55 g/m*3 18.2 C 0 km/h
2330 30-09-2007 18:08:02 18.1 C 8.5 g/m*3 18.1 C 0 km/h
2331 30-09-2007 18:11:02 17.9 C 8.55 g/m*3 17.9 C 0 km/h
2332 30-09-2007 18:14:02 17.7 C 8.6 g/m*3 17.7 C 0 km/h
2333 30-09-2007 18:17:02 17.6 C 8.55 g/m*3 17.6 C 0 km/h
2334 30-09-2007 18:20:02 17.5 C 8.5 g/m*3 17.5 C 0 km/h
2335 30-09-2007 18:23:02 17.5 C 8.5 g/m*3 17.5 C 0 km/h
2336 30-09-2007 18:26:02 17.3 C 8.4 g/m*3 17.3 C 0 km/h
2337 30-09-2007 18:29:02 17.2 C 8.35 g/m*3 17.2 C 0 km/h
2338 30-09-2007 18:32:02 17.1 C 8.44 g/m*3 17.1 C 0 km/h
2339 30-09-2007 18:35:02 17.2 C 8.49 g/m*3 17.2 C 0 km/h
2340 30-09-2007 18:38:02 16.9 C 8.49 g/m*3 16.9 C 0 km/h
2341 30-09-2007 18:41:02 16.8 C 8.44 g/m*3 16.8 C 0 km/h
2342 30-09-2007 18:44:02 16.7 C 8.53 g/m*3 16.7 C 0 km/h
2343 30-09-2007 18:47:01 16.6 C 8.33 g/m*3 16.6 C 0 km/h
2344 30-09-2007 18:50:01 16.5 C 8.43 g/m*3 16.5 C 0 km/h
2345 30-09-2007 18:53:01 16.4 C 8.37 g/m*3 16.4 C 0 km/h
2346 30-09-2007 18:56:01 16.2 C 8.41 g/m*3 16.2 C 0 km/h
2347 30-09-2007 18:59:01 16 C 8.31 g/m*3 16 C 0 km/h
2348 30-09-2007 19:02:01 15.8 C 8.35 g/m*3 15.8 C 0 km/h
2349 30-09-2007 19:05:01 15.7 C 8.3 g/m*3 15.7 C 0 km/h
2350 30-09-2007 19:08:01 15.6 C 8.38 g/m*3 15.6 C 0 km/h
Sensor: Nr:Datum:Temp:Abs-Feuchte:Windchill:Wind:
Aussen-T/F 2351 30-09-2007 19:11:01 15.4 C 8.28 g/m*3 15.4 C 0 km/h
2352 30-09-2007 19:14:01 15.4 C 8.41 g/m*3 15.4 C 0 km/h
2353 30-09-2007 19:17:01 15.2 C 8.18 g/m*3 15.2 C 0 km/h
2354 30-09-2007 19:20:01 15.2 C 8.31 g/m*3 15.2 C 0 km/h
2355 30-09-2007 19:23:01 15.1 C 8.26 g/m*3 15.1 C 0 km/h
2356 30-09-2007 19:26:01 15 C 8.21 g/m*3 15 C 0 km/h
2357 30-09-2007 19:29:01 14.9 C 8.41 g/m*3 14.9 C 0 km/h
2358 30-09-2007 19:32:02 14.8 C 8.36 g/m*3 14.8 C 0 km/h
2359 30-09-2007 19:35:02 14.8 C 8.49 g/m*3 14.8 C 0 km/h
2360 30-09-2007 19:38:02 14.7 C 8.44 g/m*3 14.7 C 0 km/h
2361 30-09-2007 19:41:02 14.6 C 8.38 g/m*3 14.6 C 0 km/h
2362 30-09-2007 19:44:02 14.5 C 8.33 g/m*3 14.5 C 0 km/h
2363 30-09-2007 19:47:01 14.4 C 8.41 g/m*3 14.4 C 0 km/h
2364 30-09-2007 19:50:01 14.3 C 8.48 g/m*3 14.3 C 0 km/h
2365 30-09-2007 19:53:01 14.2 C 8.43 g/m*3 14.2 C 0 km/h
2366 30-09-2007 19:56:01 14.3 C 8.48 g/m*3 14.3 C 0 km/h
2367 30-09-2007 19:59:01 14.2 C 8.55 g/m*3 14.2 C 0 km/h
2368 30-09-2007 20:02:01 14.2 C 8.55 g/m*3 14.2 C 0 km/h
2369 30-09-2007 20:05:01 14.2 C 8.55 g/m*3 14.2 C 0 km/h
2370 30-09-2007 20:08:01 14.1 C 8.62 g/m*3 14.1 C 0 km/h
2371 30-09-2007 20:11:01 14.1 C 8.62 g/m*3 14.1 C 0 km/h
2372 30-09-2007 20:14:01 14 C 8.68 g/m*3 14 C 0 km/h
2373 30-09-2007 20:17:02 14 C 8.68 g/m*3 14 C 0 km/h
2374 30-09-2007 20:20:02 13.9 C 8.75 g/m*3 13.9 C 0 km/h
2375 30-09-2007 20:23:02 13.9 C 8.75 g/m*3 13.9 C 0 km/h
Sensor: Nr:Datum:Temp:Abs-Feuchte:Windchill:Wind:
Aussen-T/F 2376 30-09-2007 20:26:02 13.8 C 8.7 g/m*3 13.8 C 0 km/h
2377 30-09-2007 20:29:02 13.8 C 8.82 g/m*3 13.8 C 0 km/h
2378 30-09-2007 20:32:02 13.8 C 8.82 g/m*3 13.8 C 0 km/h
2379 30-09-2007 20:35:02 13.8 C 8.7 g/m*3 13.8 C 0 km/h
2380 30-09-2007 20:38:02 13.8 C 8.7 g/m*3 13.8 C 0 km/h
2381 30-09-2007 20:41:02 13.7 C 8.64 g/m*3 13.7 C 0 km/h
2382 30-09-2007 20:44:02 13.7 C 8.64 g/m*3 13.7 C 0 km/h
2383 30-09-2007 20:47:01 13.7 C 8.76 g/m*3 13.7 C 0 km/h
2384 30-09-2007 20:50:01 13.6 C 8.71 g/m*3 13.6 C 0 km/h
2385 30-09-2007 20:53:01 13.6 C 8.71 g/m*3 13.6 C 0 km/h
2386 30-09-2007 20:56:01 13.6 C 8.71 g/m*3 13.6 C 0 km/h
2387 30-09-2007 20:59:01 13.6 C 8.71 g/m*3 13.6 C 0 km/h
2388 30-09-2007 21:02:01 13.6 C 8.71 g/m*3 13.6 C 0 km/h
2389 30-09-2007 21:05:01 13.6 C 8.71 g/m*3 13.6 C 0 km/h
2390 30-09-2007 21:08:01 13.7 C 8.76 g/m*3 13.7 C 0 km/h
2391 30-09-2007 21:11:01 13.7 C 8.76 g/m*3 13.7 C 0 km/h
2392 30-09-2007 21:14:01 13.7 C 8.76 g/m*3 13.7 C 0 km/h
2393 30-09-2007 21:17:01 13.7 C 8.76 g/m*3 13.7 C 0 km/h
2394 30-09-2007 21:20:01 13.7 C 8.88 g/m*3 13.7 C 0 km/h
2395 30-09-2007 21:23:01 13.8 C 8.94 g/m*3 13.8 C 0 km/h
2396 30-09-2007 21:26:01 13.8 C 8.94 g/m*3 13.8 C 0 km/h
2397 30-09-2007 21:29:01 13.9 C 8.99 g/m*3 13.9 C 0 km/h
2398 30-09-2007 21:32:02 13.9 C 8.99 g/m*3 13.9 C 0 km/h
2399 30-09-2007 21:35:02 14 C 8.93 g/m*3 14 C 0 km/h
2400 30-09-2007 21:38:02 14 C 8.93 g/m*3 14 C 0 km/h
Sensor: Nr:Datum:Temp:Abs-Feuchte:Windchill:Wind:
Aussen-T/F 2401 30-09-2007 21:41:02 14 C 8.93 g/m*3 14 C 0 km/h
2402 30-09-2007 21:44:02 14 C 8.93 g/m*3 14 C 0 km/h
2403 30-09-2007 21:47:01 13.9 C 8.99 g/m*3 13.9 C 0 km/h
2404 30-09-2007 21:50:01 13.8 C 8.94 g/m*3 13.8 C 0 km/h
2405 30-09-2007 21:53:01 13.7 C 9 g/m*3 13.7 C 0 km/h
2406 30-09-2007 21:56:01 13.6 C 8.94 g/m*3 13.6 C 0 km/h
2407 30-09-2007 21:59:01 13.6 C 8.94 g/m*3 13.6 C 0 km/h
2408 30-09-2007 22:02:01 13.5 C 9.01 g/m*3 13.5 C 0 km/h
2409 30-09-2007 22:05:01 13.5 C 9.01 g/m*3 13.5 C 0 km/h
2410 30-09-2007 22:08:01 13.5 C 9.01 g/m*3 13.5 C 0 km/h
2411 30-09-2007 22:11:01 13.5 C 9.01 g/m*3 13.5 C 0 km/h
2412 30-09-2007 22:14:01 13.5 C 9.01 g/m*3 13.5 C 0 km/h
2413 30-09-2007 22:17:01 13.5 C 9.12 g/m*3 13.5 C 0 km/h
2414 30-09-2007 22:20:01 13.5 C 9.12 g/m*3 13.5 C 0 km/h
2415 30-09-2007 22:23:01 13.5 C 9.12 g/m*3 13.5 C 0 km/h
2416 30-09-2007 22:26:01 13.5 C 9.12 g/m*3 13.5 C 0 km/h
2417 30-09-2007 22:29:01 13.5 C 9.12 g/m*3 13.5 C 0 km/h
2418 30-09-2007 22:32:02 13.5 C 9.12 g/m*3 13.5 C 0 km/h
2419 30-09-2007 22:35:02 13.5 C 9.12 g/m*3 13.5 C 0 km/h
2420 30-09-2007 22:38:02 13.4 C 9.07 g/m*3 13.4 C 0 km/h
2421 30-09-2007 22:41:02 13.4 C 9.07 g/m*3 13.4 C 0 km/h
2422 30-09-2007 22:44:02 13.3 C 9.01 g/m*3 13.3 C 0 km/h
2423 30-09-2007 22:47:01 13.3 C 9.01 g/m*3 13.3 C 0 km/h
2424 30-09-2007 22:50:01 13.2 C 8.96 g/m*3 13.2 C 0 km/h
2425 30-09-2007 22:53:01 13.2 C 8.96 g/m*3 13.2 C 0 km/h
Sensor: Nr:Datum:Temp:Abs-Feuchte:Windchill:Wind:
Aussen-T/F 2426 30-09-2007 22:56:01 13.2 C 8.96 g/m*3 13.2 C 0 km/h
2427 30-09-2007 22:59:02 13.1 C 8.9 g/m*3 13.1 C 0 km/h
2428 30-09-2007 23:02:01 13.1 C 8.9 g/m*3 13.1 C 0 km/h
2429 30-09-2007 23:05:01 13 C 8.85 g/m*3 13 C 0 km/h
2430 30-09-2007 23:08:01 13 C 8.85 g/m*3 13 C 0 km/h
2431 30-09-2007 23:11:01 13 C 8.85 g/m*3 13 C 0 km/h
2432 30-09-2007 23:14:01 13 C 8.96 g/m*3 13 C 0 km/h
2433 30-09-2007 23:17:01 13 C 8.96 g/m*3 13 C 0 km/h
2434 30-09-2007 23:20:01 12.9 C 9.02 g/m*3 12.9 C 0 km/h
2435 30-09-2007 23:23:01 12.9 C 9.02 g/m*3 12.9 C 0 km/h
2436 30-09-2007 23:26:01 12.8 C 8.96 g/m*3 12.8 C 0 km/h
2437 30-09-2007 23:29:01 12.8 C 8.96 g/m*3 12.8 C 0 km/h
2438 30-09-2007 23:32:01 12.8 C 8.96 g/m*3 12.8 C 0 km/h
2439 30-09-2007 23:35:01 12.7 C 8.91 g/m*3 12.7 C 0 km/h
2440 30-09-2007 23:38:01 12.7 C 8.91 g/m*3 12.7 C 0 km/h
2441 30-09-2007 23:41:01 12.5 C 8.8 g/m*3 12.5 C 0 km/h
2442 30-09-2007 23:44:01 12.5 C 8.8 g/m*3 12.5 C 0 km/h
2443 30-09-2007 23:47:01 12.4 C 8.74 g/m*3 12.4 C 0 km/h
2444 30-09-2007 23:50:01 12.4 C 8.85 g/m*3 12.4 C 0 km/h
2445 30-09-2007 23:53:01 12.3 C 8.8 g/m*3 12.3 C 0 km/h
2446 30-09-2007 23:56:02 12.3 C 8.8 g/m*3 12.3 C 0 km/h
2447 30-09-2007 23:59:02 12.2 C 8.85 g/m*3 12.2 C 0 km/h
2448 01-10-2007 00:02:02 12.3 C 8.9 g/m*3 12.3 C 0 km/h
2449 01-10-2007 00:05:02 12.3 C 8.9 g/m*3 12.3 C 0 km/h
2450 01-10-2007 00:08:02 12.2 C 8.85 g/m*3 12.2 C 0 km/h
Sensor: Nr:Datum:Temp:Abs-Feuchte:Windchill:Wind:
Aussen-T/F 2451 01-10-2007 00:11:02 12.1 C 8.79 g/m*3 12.1 C 0 km/h
2452 01-10-2007 00:14:02 12.1 C 8.79 g/m*3 12.1 C 0 km/h
2453 01-10-2007 00:17:02 12 C 8.74 g/m*3 12 C 0 km/h
2454 01-10-2007 00:20:02 11.9 C 8.79 g/m*3 11.9 C 0 km/h
2455 01-10-2007 00:23:02 11.8 C 8.74 g/m*3 11.8 C 0 km/h
2456 01-10-2007 00:26:02 11.8 C 8.74 g/m*3 11.8 C 0 km/h
2457 01-10-2007 00:29:02 11.8 C 8.74 g/m*3 11.8 C 0 km/h
2458 01-10-2007 00:32:01 11.7 C 8.68 g/m*3 11.7 C 0 km/h
2459 01-10-2007 00:35:02 11.7 C 8.68 g/m*3 11.7 C 0 km/h
2460 01-10-2007 00:38:02 11.7 C 8.68 g/m*3 11.7 C 0 km/h
2461 01-10-2007 00:41:02 11.7 C 8.79 g/m*3 11.7 C 0 km/h
2462 01-10-2007 00:44:02 11.7 C 8.79 g/m*3 11.7 C 0 km/h
2463 01-10-2007 00:47:01 11.7 C 8.79 g/m*3 11.7 C 0 km/h
2464 01-10-2007 00:50:01 11.7 C 8.79 g/m*3 11.7 C 0 km/h
2465 01-10-2007 00:53:01 11.7 C 8.79 g/m*3 11.7 C 0 km/h
2466 01-10-2007 00:56:01 11.7 C 8.79 g/m*3 11.7 C 0 km/h
2467 01-10-2007 00:59:02 11.7 C 8.89 g/m*3 11.7 C 0 km/h
2468 01-10-2007 01:02:01 11.7 C 8.89 g/m*3 11.7 C 0 km/h
2469 01-10-2007 01:05:02 11.7 C 8.89 g/m*3 11.7 C 0 km/h
2470 01-10-2007 01:08:02 11.7 C 8.89 g/m*3 11.7 C 0 km/h
2471 01-10-2007 01:11:02 11.7 C 8.89 g/m*3 11.7 C 0 km/h
2472 01-10-2007 01:14:02 11.7 C 8.89 g/m*3 11.7 C 0 km/h
2473 01-10-2007 01:17:02 11.7 C 8.89 g/m*3 11.7 C 0 km/h
2474 01-10-2007 01:20:02 11.7 C 8.89 g/m*3 11.7 C 0 km/h
2475 01-10-2007 01:23:02 11.7 C 8.89 g/m*3 11.7 C 0 km/h
Sensor: Nr:Datum:Temp:Abs-Feuchte:Windchill:Wind:
Aussen-T/F 2476 01-10-2007 01:26:02 11.6 C 8.83 g/m*3 11.6 C 0 km/h
2477 01-10-2007 01:29:02 11.6 C 8.83 g/m*3 11.6 C 0 km/h
2478 01-10-2007 01:32:02 11.5 C 8.78 g/m*3 11.5 C 0 km/h
2479 01-10-2007 01:35:02 11.5 C 8.78 g/m*3 11.5 C 0 km/h
2480 01-10-2007 01:38:02 11.5 C 8.78 g/m*3 11.5 C 0 km/h
2481 01-10-2007 01:41:02 11.4 C 8.72 g/m*3 11.4 C 0 km/h
2482 01-10-2007 01:44:02 11.4 C 8.72 g/m*3 11.4 C 0 km/h
2483 01-10-2007 01:47:01 11.4 C 8.72 g/m*3 11.4 C 0 km/h
2484 01-10-2007 01:50:01 11.4 C 8.72 g/m*3 11.4 C 0 km/h
2485 01-10-2007 01:53:01 11.4 C 8.72 g/m*3 11.4 C 0 km/h
2486 01-10-2007 01:56:02 11.4 C 8.72 g/m*3 11.4 C 0 km/h
2487 01-10-2007 01:59:02 11.4 C 8.72 g/m*3 11.4 C 0 km/h
2488 01-10-2007 02:02:02 11.4 C 8.72 g/m*3 11.4 C 0 km/h
2489 01-10-2007 02:05:02 11.3 C 8.67 g/m*3 11.3 C 0 km/h
2490 01-10-2007 02:08:02 11.3 C 8.67 g/m*3 11.3 C 0 km/h
2491 01-10-2007 02:11:02 11.3 C 8.67 g/m*3 11.3 C 0 km/h
2492 01-10-2007 02:14:02 11.2 C 8.62 g/m*3 11.2 C 0 km/h
2493 01-10-2007 02:17:01 11.2 C 8.62 g/m*3 11.2 C 0 km/h
2494 01-10-2007 02:20:01 11.2 C 8.62 g/m*3 11.2 C 0 km/h
2495 01-10-2007 02:23:01 11.2 C 8.62 g/m*3 11.2 C 0 km/h
2496 01-10-2007 02:26:01 11.2 C 8.62 g/m*3 11.2 C 0 km/h
2497 01-10-2007 02:29:02 11.2 C 8.62 g/m*3 11.2 C 0 km/h
2498 01-10-2007 02:32:02 11.2 C 8.62 g/m*3 11.2 C 0 km/h
2499 01-10-2007 02:35:02 11.2 C 8.62 g/m*3 11.2 C 0 km/h
2500 01-10-2007 02:38:02 11.1 C 8.56 g/m*3 11.1 C 0 km/h
Sensor: Nr:Datum:Temp:Abs-Feuchte:Windchill:Wind:
Aussen-T/F 2501 01-10-2007 02:41:02 11 C 8.51 g/m*3 11 C 0 km/h
2502 01-10-2007 02:44:02 11 C 8.51 g/m*3 11 C 0 km/h
2503 01-10-2007 02:48:04 11 C 8.51 g/m*3 11 C 0 km/h
2504 01-10-2007 02:51:04 10.9 C 8.55 g/m*3 10.9 C 0 km/h
2505 01-10-2007 02:54:04 10.9 C 8.55 g/m*3 10.9 C 0 km/h
2506 01-10-2007 02:57:04 10.8 C 8.5 g/m*3 10.8 C 0 km/h
2507 01-10-2007 03:00:04 10.8 C 8.5 g/m*3 10.8 C 0 km/h
2508 01-10-2007 03:03:04 10.8 C 8.5 g/m*3 10.8 C 0 km/h
2509 01-10-2007 03:06:04 10.8 C 8.5 g/m*3 10.8 C 0 km/h
2510 01-10-2007 03:09:04 10.8 C 8.5 g/m*3 10.8 C 0 km/h
2511 01-10-2007 03:12:04 10.7 C 8.55 g/m*3 10.7 C 0 km/h
2512 01-10-2007 03:15:04 10.7 C 8.55 g/m*3 10.7 C 0 km/h
2513 01-10-2007 03:18:04 10.7 C 8.55 g/m*3 10.7 C 0 km/h
2514 01-10-2007 03:21:04 10.6 C 8.49 g/m*3 10.6 C 0 km/h
2515 01-10-2007 03:24:04 10.6 C 8.49 g/m*3 10.6 C 0 km/h
2516 01-10-2007 03:27:04 10.6 C 8.49 g/m*3 10.6 C 0 km/h
2517 01-10-2007 03:30:04 10.5 C 8.44 g/m*3 10.5 C 0 km/h
2518 01-10-2007 03:33:02 10.5 C 8.44 g/m*3 10.5 C 0 km/h
2519 01-10-2007 03:36:02 10.5 C 8.44 g/m*3 10.5 C 0 km/h
2520 01-10-2007 03:39:02 10.4 C 8.38 g/m*3 10.4 C 0 km/h
2521 01-10-2007 03:42:02 10.4 C 8.38 g/m*3 10.4 C 0 km/h
2522 01-10-2007 03:45:02 10.4 C 8.38 g/m*3 10.4 C 0 km/h
2523 01-10-2007 03:48:02 10.3 C 8.33 g/m*3 10.3 C 0 km/h
2524 01-10-2007 03:51:02 10.3 C 8.33 g/m*3 10.3 C 0 km/h
2525 01-10-2007 03:54:02 10.3 C 8.33 g/m*3 10.3 C 0 km/h
Sensor: Nr:Datum:Temp:Abs-Feuchte:Windchill:Wind:
Aussen-T/F 2526 01-10-2007 03:57:02 10.2 C 8.28 g/m*3 10.2 C 0 km/h
2527 01-10-2007 04:00:02 10.2 C 8.28 g/m*3 10.2 C 0 km/h
2528 01-10-2007 04:03:01 10.2 C 8.28 g/m*3 10.2 C 0 km/h
2529 01-10-2007 04:06:01 10.2 C 8.28 g/m*3 10.2 C 0 km/h
2530 01-10-2007 04:09:01 10.1 C 8.32 g/m*3 10.1 C 0 km/h
2531 01-10-2007 04:12:01 10.1 C 8.32 g/m*3 10.1 C 0 km/h
2532 01-10-2007 04:15:02 10.1 C 8.32 g/m*3 10.1 C 0 km/h
2533 01-10-2007 04:18:02 10.1 C 8.32 g/m*3 10.1 C 0 km/h
2534 01-10-2007 04:21:02 10.1 C 8.32 g/m*3 10.1 C 0 km/h
2535 01-10-2007 04:24:02 10.1 C 8.32 g/m*3 10.1 C 0 km/h
2536 01-10-2007 04:27:02 10.1 C 8.32 g/m*3 10.1 C 0 km/h
2537 01-10-2007 04:30:02 10.1 C 8.32 g/m*3 10.1 C 0 km/h
2538 01-10-2007 04:33:02 10.1 C 8.32 g/m*3 10.1 C 0 km/h
2539 01-10-2007 04:36:02 10.1 C 8.32 g/m*3 10.1 C 0 km/h
2540 01-10-2007 04:39:02 10.2 C 8.37 g/m*3 10.2 C 0 km/h
2541 01-10-2007 04:42:02 10.3 C 8.52 g/m*3 10.3 C 0 km/h
2542 01-10-2007 04:45:03 10.3 C 8.52 g/m*3 10.3 C 0 km/h
2543 01-10-2007 04:48:03 10.3 C 8.52 g/m*3 10.3 C 0 km/h
2544 01-10-2007 04:51:03 10.3 C 8.52 g/m*3 10.3 C 0 km/h
2545 01-10-2007 04:54:03 10.3 C 8.52 g/m*3 10.3 C 0 km/h
2546 01-10-2007 04:57:03 10.4 C 8.58 g/m*3 10.4 C 0 km/h
2547 01-10-2007 05:00:03 10.4 C 8.58 g/m*3 10.4 C 0 km/h
2548 01-10-2007 05:03:02 10.4 C 8.58 g/m*3 10.4 C 0 km/h
2549 01-10-2007 05:06:02 10.3 C 8.52 g/m*3 10.3 C 0 km/h
2550 01-10-2007 05:09:02 10.3 C 8.52 g/m*3 10.3 C 0 km/h
Sensor: Nr:Datum:Temp:Abs-Feuchte:Windchill:Wind:
Aussen-T/F 2551 01-10-2007 05:12:02 10.3 C 8.52 g/m*3 10.3 C 0 km/h
2552 01-10-2007 05:15:02 10.3 C 8.52 g/m*3 10.3 C 0 km/h
2553 01-10-2007 05:18:02 10.2 C 8.47 g/m*3 10.2 C 0 km/h
2554 01-10-2007 05:21:02 10.2 C 8.47 g/m*3 10.2 C 0 km/h
2555 01-10-2007 05:24:02 10.1 C 8.42 g/m*3 10.1 C 0 km/h
2556 01-10-2007 05:27:02 10.2 C 8.47 g/m*3 10.2 C 0 km/h
2557 01-10-2007 05:30:02 10.3 C 8.52 g/m*3 10.3 C 0 km/h
2558 01-10-2007 05:33:03 10.3 C 8.52 g/m*3 10.3 C 0 km/h
2559 01-10-2007 05:36:03 10.3 C 8.52 g/m*3 10.3 C 0 km/h
2560 01-10-2007 05:39:03 10.3 C 8.52 g/m*3 10.3 C 0 km/h
2561 01-10-2007 05:42:03 10.3 C 8.52 g/m*3 10.3 C 0 km/h
2562 01-10-2007 05:45:02 10.3 C 8.52 g/m*3 10.3 C 0 km/h
2563 01-10-2007 05:48:02 10.2 C 8.47 g/m*3 10.2 C 0 km/h
2564 01-10-2007 05:51:03 10.2 C 8.47 g/m*3 10.2 C 0 km/h
2565 01-10-2007 05:54:03 10.1 C 8.42 g/m*3 10.1 C 0 km/h
2566 01-10-2007 05:57:03 10.1 C 8.42 g/m*3 10.1 C 0 km/h
2567 01-10-2007 06:00:03 10.1 C 8.42 g/m*3 10.1 C 0 km/h
2568 01-10-2007 06:03:01 10.2 C 8.47 g/m*3 10.2 C 0 km/h
2569 01-10-2007 06:06:01 10.2 C 8.47 g/m*3 10.2 C 0 km/h
2570 01-10-2007 06:09:02 10.2 C 8.47 g/m*3 10.2 C 0 km/h
2571 01-10-2007 06:12:02 10.3 C 8.52 g/m*3 10.3 C 0 km/h
2572 01-10-2007 06:15:01 10.3 C 8.62 g/m*3 10.3 C 0 km/h
2573 01-10-2007 06:18:01 10.4 C 8.67 g/m*3 10.4 C 0 km/h
2574 01-10-2007 06:21:01 10.4 C 8.67 g/m*3 10.4 C 0 km/h
2575 01-10-2007 06:24:01 10.4 C 8.67 g/m*3 10.4 C 0 km/h
Sensor: Nr:Datum:Temp:Abs-Feuchte:Windchill:Wind:
Aussen-T/F 2576 01-10-2007 06:27:01 10.4 C 8.67 g/m*3 10.4 C 0 km/h
2577 01-10-2007 06:30:02 10.4 C 8.67 g/m*3 10.4 C 0 km/h
2578 01-10-2007 06:33:01 10.3 C 8.52 g/m*3 10.3 C 0 km/h
2579 01-10-2007 06:36:01 10.3 C 8.52 g/m*3 10.3 C 0 km/h
2580 01-10-2007 06:39:01 10.2 C 8.47 g/m*3 10.2 C 0 km/h
2581 01-10-2007 06:42:01 10.2 C 8.47 g/m*3 10.2 C 0 km/h
2582 01-10-2007 06:45:02 10.1 C 8.42 g/m*3 10.1 C 0 km/h
2583 01-10-2007 06:48:02 10.1 C 8.42 g/m*3 10.1 C 0 km/h
2584 01-10-2007 06:51:02 10 C 8.36 g/m*3 10 C 0 km/h
2585 01-10-2007 06:54:02 10 C 8.36 g/m*3 10 C 0 km/h
2586 01-10-2007 06:57:03 10 C 8.36 g/m*3 10 C 0 km/h
2587 01-10-2007 07:00:03 9.9 C 8.4 g/m*3 9.9 C 0 km/h
2588 01-10-2007 07:03:02 10 C 8.36 g/m*3 10 C 0 km/h
2589 01-10-2007 07:06:02 10 C 8.36 g/m*3 10 C 0 km/h
2590 01-10-2007 07:09:02 10 C 8.36 g/m*3 10 C 0 km/h
2591 01-10-2007 07:12:02 10 C 8.36 g/m*3 10 C 0 km/h
2592 01-10-2007 07:15:02 10 C 8.36 g/m*3 10 C 0 km/h
2593 01-10-2007 07:18:02 10 C 8.36 g/m*3 10 C 0 km/h
2594 01-10-2007 07:21:02 10.1 C 8.42 g/m*3 10.1 C 0 km/h
2595 01-10-2007 07:24:02 10.1 C 8.42 g/m*3 10.1 C 0 km/h
2596 01-10-2007 07:27:02 10.1 C 8.42 g/m*3 10.1 C 0 km/h
2597 01-10-2007 07:30:02 10.1 C 8.42 g/m*3 10.1 C 0 km/h
2598 01-10-2007 07:33:02 10.1 C 8.42 g/m*3 10.1 C 0 km/h
2599 01-10-2007 07:36:03 10.1 C 8.42 g/m*3 10.1 C 0 km/h
2600 01-10-2007 07:39:03 10.1 C 8.42 g/m*3 10.1 C 0 km/h
Sensor: Nr:Datum:Temp:Abs-Feuchte:Windchill:Wind:
Aussen-T/F 2601 01-10-2007 07:42:03 10.1 C 8.42 g/m*3 10.1 C 0 km/h
2602 01-10-2007 07:45:03 10.1 C 8.42 g/m*3 10.1 C 0 km/h
2603 01-10-2007 07:48:03 10.1 C 8.42 g/m*3 10.1 C 0 km/h
2604 01-10-2007 07:51:03 10.1 C 8.42 g/m*3 10.1 C 0 km/h
2605 01-10-2007 07:54:03 10.1 C 8.42 g/m*3 10.1 C 0 km/h
2606 01-10-2007 07:57:03 10 C 8.36 g/m*3 10 C 0 km/h
2607 01-10-2007 08:00:03 9.9 C 8.4 g/m*3 9.9 C 0 km/h
2608 01-10-2007 08:03:02 9.8 C 8.35 g/m*3 9.8 C 0 km/h
2609 01-10-2007 08:06:02 9.8 C 8.35 g/m*3 9.8 C 0 km/h
2610 01-10-2007 08:09:02 9.9 C 8.5 g/m*3 9.9 C 0 km/h
2611 01-10-2007 08:12:02 9.9 C 8.5 g/m*3 9.9 C 0 km/h
2612 01-10-2007 08:15:02 10.1 C 8.42 g/m*3 10.1 C 0 km/h
2613 01-10-2007 08:18:03 10 C 8.36 g/m*3 10 C 0 km/h
2614 01-10-2007 08:21:03 10 C 8.36 g/m*3 10 C 0 km/h
2615 01-10-2007 08:24:03 10.1 C 8.51 g/m*3 10.1 C 0 km/h
2616 01-10-2007 08:27:03 10.1 C 8.51 g/m*3 10.1 C 0 km/h
2617 01-10-2007 08:30:03 10.1 C 8.51 g/m*3 10.1 C 0 km/h
2618 01-10-2007 08:33:02 10.2 C 8.56 g/m*3 10.2 C 0 km/h
2619 01-10-2007 08:36:02 10.2 C 8.56 g/m*3 10.2 C 0 km/h
2620 01-10-2007 08:39:03 10.1 C 8.42 g/m*3 10.1 C 0 km/h
2621 01-10-2007 08:42:03 10.1 C 8.42 g/m*3 10.1 C 0 km/h
2622 01-10-2007 08:45:02 10.2 C 8.47 g/m*3 10.2 C 0 km/h
2623 01-10-2007 08:48:02 10.3 C 8.62 g/m*3 10.3 C 0 km/h
2624 01-10-2007 08:51:02 10.4 C 8.67 g/m*3 10.4 C 0 km/h
2625 01-10-2007 08:54:02 10.5 C 8.73 g/m*3 10.5 C 0 km/h
Sensor: Nr:Datum:Temp:Abs-Feuchte:Windchill:Wind:
Aussen-T/F 2626 01-10-2007 08:57:02 10.5 C 8.73 g/m*3 10.5 C 0 km/h
2627 01-10-2007 09:00:02 10.7 C 8.84 g/m*3 10.7 C 0 km/h
2628 01-10-2007 09:03:02 10.8 C 8.9 g/m*3 10.8 C 0 km/h
2629 01-10-2007 09:06:02 10.9 C 8.85 g/m*3 10.9 C 0 km/h
2630 01-10-2007 09:09:02 11 C 8.91 g/m*3 11 C 0 km/h
2631 01-10-2007 09:12:02 11.1 C 8.86 g/m*3 11.1 C 0 km/h
2632 01-10-2007 09:15:02 11.1 C 8.86 g/m*3 11.1 C 0 km/h
2633 01-10-2007 09:18:02 11.2 C 8.92 g/m*3 11.2 C 0 km/h
2634 01-10-2007 09:21:03 11.3 C 8.98 g/m*3 11.3 C 0 km/h
2635 01-10-2007 09:24:03 11.3 C 8.98 g/m*3 11.3 C 0 km/h
2636 01-10-2007 09:27:03 11.3 C 8.87 g/m*3 11.3 C 0 km/h
2637 01-10-2007 09:30:03 11.4 C 8.83 g/m*3 11.4 C 0 km/h
2638 01-10-2007 09:33:02 11.5 C 8.88 g/m*3 11.5 C 0 km/h
2639 01-10-2007 09:36:02 11.5 C 8.78 g/m*3 11.5 C 0 km/h
2640 01-10-2007 09:39:02 11.6 C 8.83 g/m*3 11.6 C 0 km/h
2641 01-10-2007 09:42:03 11.6 C 8.83 g/m*3 11.6 C 0 km/h
2642 01-10-2007 09:45:02 11.7 C 8.79 g/m*3 11.7 C 0 km/h
2643 01-10-2007 09:48:02 11.7 C 8.79 g/m*3 11.7 C 0 km/h
2644 01-10-2007 09:51:02 11.8 C 8.84 g/m*3 11.8 C 0 km/h
2645 01-10-2007 09:54:02 11.8 C 8.84 g/m*3 11.8 C 0 km/h
2646 01-10-2007 09:57:02 11.9 C 8.79 g/m*3 11.9 C 0 km/h
2647 01-10-2007 10:00:02 12 C 8.85 g/m*3 12 C 0 km/h
2648 01-10-2007 10:03:03 12 C 8.74 g/m*3 12 C 0 km/h
2649 01-10-2007 10:06:03 12.2 C 8.85 g/m*3 12.2 C 0 km/h
2650 01-10-2007 10:09:03 12.2 C 8.74 g/m*3 12.2 C 0 km/h
Sensor: Nr:Datum:Temp:Abs-Feuchte:Windchill:Wind:
Aussen-T/F 2651 01-10-2007 10:12:03 12.3 C 8.8 g/m*3 12.3 C 0 km/h
2652 01-10-2007 10:15:02 12.4 C 8.74 g/m*3 12.4 C 0 km/h
2653 01-10-2007 10:18:02 12.7 C 8.91 g/m*3 12.7 C 0 km/h
2654 01-10-2007 10:21:02 12.6 C 8.85 g/m*3 12.6 C 0 km/h
2655 01-10-2007 10:24:02 12.7 C 8.79 g/m*3 12.7 C 0 km/h
2656 01-10-2007 10:27:02 12.8 C 8.85 g/m*3 12.8 C 0 km/h
2657 01-10-2007 10:30:02 12.9 C 8.9 g/m*3 12.9 C 0 km/h
2658 01-10-2007 10:33:02 13.1 C 8.9 g/m*3 13.1 C 0 km/h
2659 01-10-2007 10:36:02 13.1 C 8.9 g/m*3 13.1 C 0 km/h
2660 01-10-2007 10:39:02 13.2 C 8.96 g/m*3 13.2 C 0 km/h
2661 01-10-2007 10:42:02 13.4 C 8.95 g/m*3 13.4 C 0 km/h
2662 01-10-2007 10:45:02 13.5 C 9.01 g/m*3 13.5 C 0 km/h
2663 01-10-2007 10:48:02 13.6 C 8.94 g/m*3 13.6 C 0 km/h
2664 01-10-2007 10:51:02 13.7 C 9 g/m*3 13.7 C 0 km/h
2665 01-10-2007 10:54:02 13.8 C 9.06 g/m*3 13.8 C 0 km/h
2666 01-10-2007 10:57:02 13.8 C 8.94 g/m*3 13.8 C 0 km/h
2667 01-10-2007 11:00:02 13.8 C 8.94 g/m*3 13.8 C 0 km/h
2668 01-10-2007 11:03:02 13.8 C 8.94 g/m*3 13.8 C 0 km/h
2669 01-10-2007 11:06:02 13.8 C 8.94 g/m*3 13.8 C 0 km/h
2670 01-10-2007 11:09:02 13.8 C 8.94 g/m*3 13.8 C 0 km/h
2671 01-10-2007 11:12:02 13.9 C 9.11 g/m*3 13.9 C 0 km/h
2672 01-10-2007 11:15:02 14 C 9.05 g/m*3 14 C 0 km/h
2673 01-10-2007 11:18:02 14.1 C 9.1 g/m*3 14.1 C 0 km/h
2674 01-10-2007 11:21:02 14.1 C 8.98 g/m*3 14.1 C 0 km/h
2675 01-10-2007 11:24:02 14.3 C 9.09 g/m*3 14.3 C 0 km/h
Sensor: Nr:Datum:Temp:Abs-Feuchte:Windchill:Wind:
Aussen-T/F 2676 01-10-2007 11:27:02 14.4 C 9.15 g/m*3 14.4 C 0 km/h
2677 01-10-2007 11:30:02 14.6 C 9.13 g/m*3 14.6 C 0 km/h
2678 01-10-2007 11:33:02 14.8 C 9.25 g/m*3 14.8 C 0 km/h
2679 01-10-2007 11:36:02 14.9 C 9.18 g/m*3 14.9 C 0 km/h
2680 01-10-2007 11:39:02 15.1 C 9.03 g/m*3 15.1 C 0 km/h
2681 01-10-2007 11:42:02 15 C 8.98 g/m*3 15 C 0 km/h
2682 01-10-2007 11:45:02 15.2 C 8.96 g/m*3 15.2 C 0 km/h
2683 01-10-2007 11:48:02 15.4 C 8.93 g/m*3 15.4 C 0 km/h
2684 01-10-2007 11:51:02 15.4 C 8.93 g/m*3 15.4 C 0 km/h
2685 01-10-2007 11:54:02 15.4 C 8.8 g/m*3 15.4 C 0 km/h
2686 01-10-2007 11:57:02 15.4 C 8.8 g/m*3 15.4 C 0 km/h
2687 01-10-2007 12:00:02 15.4 C 8.8 g/m*3 15.4 C 0 km/h
2688 01-10-2007 12:03:02 15.5 C 8.86 g/m*3 15.5 C 0 km/h
2689 01-10-2007 12:06:02 15.6 C 8.91 g/m*3 15.6 C 0 km/h
2690 01-10-2007 12:09:02 15.6 C 8.91 g/m*3 15.6 C 0 km/h
2691 01-10-2007 12:12:02 16 C 8.99 g/m*3 16 C 0 km/h
2692 01-10-2007 12:15:02 16.2 C 8.83 g/m*3 16.2 C 0 km/h
2693 01-10-2007 12:18:02 16.3 C 8.88 g/m*3 16.3 C 0 km/h
2694 01-10-2007 12:21:02 16.4 C 8.93 g/m*3 16.4 C 0 km/h
2695 01-10-2007 12:24:02 16.7 C 9.1 g/m*3 16.7 C 0 km/h
2696 01-10-2007 12:27:02 16.9 C 8.92 g/m*3 16.9 C 0 km/h
2697 01-10-2007 12:30:02 16.9 C 8.92 g/m*3 16.9 C 0 km/h
2698 01-10-2007 12:33:02 17 C 8.83 g/m*3 17 C 0 km/h
2699 01-10-2007 12:36:03 17.2 C 8.79 g/m*3 17.2 C 0 km/h
2700 01-10-2007 12:39:03 17.3 C 8.84 g/m*3 17.3 C 0 km/h
Sensor: Nr:Datum:Temp:Abs-Feuchte:Windchill:Wind:
Aussen-T/F 2701 01-10-2007 12:42:03 17.3 C 8.84 g/m*3 17.3 C 0 km/h
2702 01-10-2007 12:45:02 17.6 C 9 g/m*3 17.6 C 0 km/h
2703 01-10-2007 12:48:02 17.8 C 8.95 g/m*3 17.8 C 0 km/h
2704 01-10-2007 12:51:02 17.9 C 9.16 g/m*3 17.9 C 0 km/h
2705 01-10-2007 12:54:02 18.1 C 8.96 g/m*3 18.1 C 0 km/h
2706 01-10-2007 12:57:02 18.2 C 8.86 g/m*3 18.2 C 0 km/h
2707 01-10-2007 13:00:02 18.3 C 8.91 g/m*3 18.3 C 0 km/h
2708 01-10-2007 13:03:02 18.4 C 8.81 g/m*3 18.4 C 0 km/h
2709 01-10-2007 13:06:02 18.4 C 8.81 g/m*3 18.4 C 0 km/h
2710 01-10-2007 13:09:02 18.6 C 8.75 g/m*3 18.6 C 0 km/h
2711 01-10-2007 13:12:02 18.7 C 8.81 g/m*3 18.7 C 0 km/h
2712 01-10-2007 13:15:02 18.6 C 8.59 g/m*3 18.6 C 0 km/h
2713 01-10-2007 13:18:02 18.5 C 8.7 g/m*3 18.5 C 0 km/h
2714 01-10-2007 13:21:03 18.4 C 8.81 g/m*3 18.4 C 0 km/h
2715 01-10-2007 13:24:03 18.4 C 8.81 g/m*3 18.4 C 0 km/h
2716 01-10-2007 13:27:03 18.4 C 8.97 g/m*3 18.4 C 0 km/h
2717 01-10-2007 13:30:03 18.4 C 8.97 g/m*3 18.4 C 0 km/h
2718 01-10-2007 13:33:02 18.5 C 9.02 g/m*3 18.5 C 0 km/h
2719 01-10-2007 13:36:02 18.6 C 9.07 g/m*3 18.6 C 0 km/h
2720 01-10-2007 13:39:02 18.7 C 8.97 g/m*3 18.7 C 0 km/h
2721 01-10-2007 13:42:02 18.8 C 9.02 g/m*3 18.8 C 0 km/h
2722 01-10-2007 13:45:02 19 C 8.96 g/m*3 19 C 0 km/h
2723 01-10-2007 13:48:02 19.3 C 9.12 g/m*3 19.3 C 0 km/h
2724 01-10-2007 13:51:02 19.4 C 9.01 g/m*3 19.4 C 0 km/h
2725 01-10-2007 13:54:02 19.6 C 8.95 g/m*3 19.6 C 0 km/h
Sensor: Nr:Datum:Temp:Abs-Feuchte:Windchill:Wind:
Aussen-T/F 2726 01-10-2007 13:57:02 19.7 C 9 g/m*3 19.7 C 0 km/h
2727 01-10-2007 14:00:02 19.8 C 8.88 g/m*3 19.8 C 0 km/h
2728 01-10-2007 14:03:03 20 C 8.99 g/m*3 20 C 0 km/h
2729 01-10-2007 14:06:03 20.2 C 9.09 g/m*3 20.2 C 0 km/h
2730 01-10-2007 14:09:03 20.4 C 8.85 g/m*3 20.4 C 0 km/h
2731 01-10-2007 14:12:03 20.6 C 8.95 g/m*3 20.6 C 0 km/h
2732 01-10-2007 14:15:02 20.7 C 8.82 g/m*3 20.7 C 0 km/h
2733 01-10-2007 14:18:02 20.9 C 8.92 g/m*3 20.9 C 0 km/h
2734 01-10-2007 14:21:02 21.1 C 9.03 g/m*3 21.1 C 0 km/h
2735 01-10-2007 14:24:02 21 C 8.79 g/m*3 21 C 0 km/h
2736 01-10-2007 14:27:02 20.9 C 8.92 g/m*3 20.9 C 0 km/h
2737 01-10-2007 14:30:02 21 C 8.98 g/m*3 21 C 0 km/h
2738 01-10-2007 14:33:02 20.9 C 9.11 g/m*3 20.9 C 0 km/h
2739 01-10-2007 14:36:02 21 C 8.98 g/m*3 21 C 0 km/h
2740 01-10-2007 14:39:02 21.1 C 9.03 g/m*3 21.1 C 0 km/h
2741 01-10-2007 14:42:02 21.2 C 9.08 g/m*3 21.2 C 0 km/h
2742 01-10-2007 14:45:02 21.1 C 9.03 g/m*3 21.1 C 0 km/h
2743 01-10-2007 14:48:02 21.3 C 9.13 g/m*3 21.3 C 0 km/h
2744 01-10-2007 14:51:02 21.3 C 8.95 g/m*3 21.3 C 0 km/h
2745 01-10-2007 14:54:02 21.3 C 8.95 g/m*3 21.3 C 0 km/h
2746 01-10-2007 14:57:02 21.2 C 9.08 g/m*3 21.2 C 0 km/h
2747 01-10-2007 15:00:02 21.2 C 9.08 g/m*3 21.2 C 0 km/h
2748 01-10-2007 15:03:02 21.2 C 9.27 g/m*3 21.2 C 0 km/h
2749 01-10-2007 15:06:02 21.3 C 9.32 g/m*3 21.3 C 0 km/h
2750 01-10-2007 15:09:02 21.4 C 9.37 g/m*3 21.4 C 0 km/h
Sensor: Nr:Datum:Temp:Abs-Feuchte:Windchill:Wind:
Aussen-T/F 2751 01-10-2007 15:12:02 21.4 C 9 g/m*3 21.4 C 0 km/h
2752 01-10-2007 15:15:02 21.5 C 9.24 g/m*3 21.5 C 0 km/h
2753 01-10-2007 15:18:02 21.5 C 9.24 g/m*3 21.5 C 0 km/h
2754 01-10-2007 15:21:02 21.6 C 9.29 g/m*3 21.6 C 0 km/h
2755 01-10-2007 15:24:02 21.7 C 9.73 g/m*3 21.7 C 0 km/h
2756 01-10-2007 15:27:02 21.6 C 9.67 g/m*3 21.6 C 0 km/h
2757 01-10-2007 15:30:02 21.7 C 9.92 g/m*3 21.7 C 0 km/h
2758 01-10-2007 15:33:02 21.6 C 10.05 g/m*3 21.6 C 0 km/h
2759 01-10-2007 15:36:02 21.5 C 9.99 g/m*3 21.5 C 0 km/h
2760 01-10-2007 15:39:02 21.4 C 9.94 g/m*3 21.4 C 0 km/h
2761 01-10-2007 15:42:02 21.5 C 9.81 g/m*3 21.5 C 0 km/h
2762 01-10-2007 15:45:02 21.5 C 9.99 g/m*3 21.5 C 0 km/h
2763 01-10-2007 15:48:02 21.5 C 10.18 g/m*3 21.5 C 0 km/h
2764 01-10-2007 15:51:02 21.4 C 9.94 g/m*3 21.4 C 0 km/h
2765 01-10-2007 15:54:02 21.4 C 9.56 g/m*3 21.4 C 0 km/h
2766 01-10-2007 15:57:02 21.4 C 9.56 g/m*3 21.4 C 0 km/h
2767 01-10-2007 16:00:02 21.5 C 9.99 g/m*3 21.5 C 0 km/h
2768 01-10-2007 16:03:02 21.4 C 9.94 g/m*3 21.4 C 0 km/h
2769 01-10-2007 16:06:02 21.6 C 10.05 g/m*3 21.6 C 0 km/h
2770 01-10-2007 16:09:02 21.5 C 9.99 g/m*3 21.5 C 0 km/h
2771 01-10-2007 16:12:02 21.5 C 9.81 g/m*3 21.5 C 0 km/h
2772 01-10-2007 16:15:02 21.3 C 9.88 g/m*3 21.3 C 0 km/h
2773 01-10-2007 16:18:02 21.2 C 9.82 g/m*3 21.2 C 0 km/h
2774 01-10-2007 16:21:02 21.1 C 9.77 g/m*3 21.1 C 0 km/h
2775 01-10-2007 16:24:02 21 C 10.08 g/m*3 21 C 0 km/h
Sensor: Nr:Datum:Temp:Abs-Feuchte:Windchill:Wind:
Aussen-T/F 2776 01-10-2007 16:27:02 20.8 C 9.96 g/m*3 20.8 C 0 km/h
2777 01-10-2007 16:30:02 20.7 C 10.08 g/m*3 20.7 C 0 km/h
2778 01-10-2007 16:33:02 20.6 C 10.2 g/m*3 20.6 C 0 km/h
2779 01-10-2007 16:36:02 20.4 C 10.26 g/m*3 20.4 C 0 km/h
2780 01-10-2007 16:39:02 20.3 C 10.38 g/m*3 20.3 C 0 km/h
2781 01-10-2007 16:42:02 20.3 C 10.38 g/m*3 20.3 C 0 km/h
2782 01-10-2007 16:45:02 20.3 C 10.38 g/m*3 20.3 C 0 km/h
2783 01-10-2007 16:48:02 20.2 C 10.49 g/m*3 20.2 C 0 km/h
2784 01-10-2007 16:51:02 20.2 C 10.32 g/m*3 20.2 C 0 km/h
2785 01-10-2007 16:54:02 20.1 C 10.26 g/m*3 20.1 C 0 km/h
2786 01-10-2007 16:57:03 20.1 C 10.43 g/m*3 20.1 C 0 km/h
2787 01-10-2007 17:00:03 20 C 10.37 g/m*3 20 C 0 km/h
2788 01-10-2007 17:03:02 20.1 C 10.6 g/m*3 20.1 C 0 km/h
2789 01-10-2007 17:06:02 19.9 C 10.65 g/m*3 19.9 C 0 km/h
2790 01-10-2007 17:09:02 19.9 C 10.65 g/m*3 19.9 C 0 km/h
2791 01-10-2007 17:12:02 19.8 C 10.76 g/m*3 19.8 C 0 km/h
2792 01-10-2007 17:15:02 19.7 C 10.7 g/m*3 19.7 C 0 km/h
2793 01-10-2007 17:18:02 19.7 C 10.7 g/m*3 19.7 C 0 km/h
2794 01-10-2007 17:21:02 19.6 C 10.8 g/m*3 19.6 C 0 km/h
2795 01-10-2007 17:24:02 19.5 C 10.74 g/m*3 19.5 C 0 km/h
2796 01-10-2007 17:27:02 19.5 C 10.91 g/m*3 19.5 C 0 km/h
2797 01-10-2007 17:30:02 19.4 C 10.84 g/m*3 19.4 C 0 km/h
2798 01-10-2007 17:33:02 19.3 C 10.78 g/m*3 19.3 C 0 km/h
2799 01-10-2007 17:36:02 19.2 C 10.88 g/m*3 19.2 C 0 km/h
2800 01-10-2007 17:39:02 19.1 C 10.82 g/m*3 19.1 C 0 km/h
Sensor: Nr:Datum:Temp:Abs-Feuchte:Windchill:Wind:
Aussen-T/F 2801 01-10-2007 17:42:02 19.1 C 10.82 g/m*3 19.1 C 0 km/h
2802 01-10-2007 17:45:02 19 C 10.92 g/m*3 19 C 0 km/h
2803 01-10-2007 17:48:03 19 C 10.92 g/m*3 19 C 0 km/h
2804 01-10-2007 17:51:03 19 C 10.92 g/m*3 19 C 0 km/h
2805 01-10-2007 17:54:03 18.9 C 11.02 g/m*3 18.9 C 0 km/h
2806 01-10-2007 17:57:03 18.9 C 11.02 g/m*3 18.9 C 0 km/h
2807 01-10-2007 18:00:03 18.8 C 11.11 g/m*3 18.8 C 0 km/h
2808 01-10-2007 18:03:02 18.7 C 11.05 g/m*3 18.7 C 0 km/h
2809 01-10-2007 18:06:02 18.7 C 11.05 g/m*3 18.7 C 0 km/h
2810 01-10-2007 18:09:03 18.6 C 10.98 g/m*3 18.6 C 0 km/h
2811 01-10-2007 18:12:03 18.5 C 10.92 g/m*3 18.5 C 0 km/h
2812 01-10-2007 18:15:01 18.5 C 11.08 g/m*3 18.5 C 0 km/h
2813 01-10-2007 18:18:01 18.4 C 11.01 g/m*3 18.4 C 0 km/h
2814 01-10-2007 18:21:01 18.4 C 11.17 g/m*3 18.4 C 0 km/h
2815 01-10-2007 18:24:01 18.3 C 11.1 g/m*3 18.3 C 0 km/h
2816 01-10-2007 18:27:01 18.2 C 11.04 g/m*3 18.2 C 0 km/h
2817 01-10-2007 18:30:02 18.2 C 11.04 g/m*3 18.2 C 0 km/h
2818 01-10-2007 18:33:01 18.1 C 10.97 g/m*3 18.1 C 0 km/h
2819 01-10-2007 18:36:01 18.1 C 11.12 g/m*3 18.1 C 0 km/h
2820 01-10-2007 18:39:01 18 C 11.06 g/m*3 18 C 0 km/h
2821 01-10-2007 18:42:01 17.9 C 11.15 g/m*3 17.9 C 0 km/h
2822 01-10-2007 18:45:02 17.9 C 11.3 g/m*3 17.9 C 0 km/h
2823 01-10-2007 18:48:03 17.8 C 11.23 g/m*3 17.8 C 0 km/h
2824 01-10-2007 18:51:03 17.7 C 11.32 g/m*3 17.7 C 0 km/h
2825 01-10-2007 18:54:03 17.6 C 11.25 g/m*3 17.6 C 0 km/h
Sensor: Nr:Datum:Temp:Abs-Feuchte:Windchill:Wind:
Aussen-T/F 2826 01-10-2007 18:57:03 17.6 C 11.4 g/m*3 17.6 C 0 km/h
2827 01-10-2007 19:00:03 17.5 C 11.33 g/m*3 17.5 C 0 km/h
2828 01-10-2007 19:03:02 17.5 C 11.33 g/m*3 17.5 C 0 km/h
2829 01-10-2007 19:06:02 17.5 C 11.33 g/m*3 17.5 C 0 km/h
2830 01-10-2007 19:09:03 17.5 C 11.48 g/m*3 17.5 C 0 km/h
2831 01-10-2007 19:12:03 17.5 C 11.48 g/m*3 17.5 C 0 km/h
2832 01-10-2007 19:15:02 17.5 C 11.33 g/m*3 17.5 C 0 km/h
2833 01-10-2007 19:18:02 17.5 C 11.33 g/m*3 17.5 C 0 km/h
2834 01-10-2007 19:21:02 17.4 C 11.26 g/m*3 17.4 C 0 km/h
2835 01-10-2007 19:24:02 17.4 C 11.26 g/m*3 17.4 C 0 km/h
2836 01-10-2007 19:27:02 17.4 C 11.26 g/m*3 17.4 C 0 km/h
2837 01-10-2007 19:30:03 17.4 C 11.26 g/m*3 17.4 C 0 km/h
2838 01-10-2007 19:33:02 17.4 C 11.26 g/m*3 17.4 C 0 km/h
2839 01-10-2007 19:36:02 17.5 C 11.33 g/m*3 17.5 C 0 km/h
2840 01-10-2007 19:39:02 17.5 C 11.33 g/m*3 17.5 C 0 km/h
2841 01-10-2007 19:42:02 17.2 C 11.13 g/m*3 17.2 C 0 km/h
2842 01-10-2007 19:45:02 17.2 C 11.28 g/m*3 17.2 C 0 km/h
2843 01-10-2007 19:48:02 17.2 C 11.28 g/m*3 17.2 C 0 km/h
2844 01-10-2007 19:51:02 17.1 C 11.35 g/m*3 17.1 C 0 km/h
2845 01-10-2007 19:54:02 17 C 11.29 g/m*3 17 C 0 km/h
2846 01-10-2007 19:57:03 16.8 C 11.44 g/m*3 16.8 C 0 km/h
2847 01-10-2007 20:00:03 16.7 C 11.51 g/m*3 16.7 C 0 km/h
2848 01-10-2007 20:03:02 16.6 C 11.58 g/m*3 16.6 C 0 km/h
2849 01-10-2007 20:06:02 16.4 C 11.45 g/m*3 16.4 C 0 km/h
2850 01-10-2007 20:09:02 16.3 C 11.52 g/m*3 16.3 C 0 km/h
Sensor: Nr:Datum:Temp:Abs-Feuchte:Windchill:Wind:
Aussen-T/F 2851 01-10-2007 20:12:02 16.2 C 11.45 g/m*3 16.2 C 0 km/h
2852 01-10-2007 20:15:02 16.2 C 11.58 g/m*3 16.2 C 0 km/h
2853 01-10-2007 20:18:02 16.2 C 11.58 g/m*3 16.2 C 0 km/h
2854 01-10-2007 20:21:02 16.1 C 11.51 g/m*3 16.1 C 0 km/h
2855 01-10-2007 20:24:02 16.1 C 11.65 g/m*3 16.1 C 0 km/h
2856 01-10-2007 20:27:02 16 C 11.58 g/m*3 16 C 0 km/h
2857 01-10-2007 20:30:02 16 C 11.58 g/m*3 16 C 0 km/h
2858 01-10-2007 20:33:02 16 C 11.72 g/m*3 16 C 0 km/h
2859 01-10-2007 20:36:02 16.1 C 11.79 g/m*3 16.1 C 0 km/h
2860 01-10-2007 20:39:02 16.1 C 11.79 g/m*3 16.1 C 0 km/h
2861 01-10-2007 20:42:02 16.1 C 11.79 g/m*3 16.1 C 0 km/h
2862 01-10-2007 20:45:01 16.1 C 11.79 g/m*3 16.1 C 0 km/h
2863 01-10-2007 20:48:01 16.1 C 11.79 g/m*3 16.1 C 0 km/h
2864 01-10-2007 20:51:01 16.1 C 11.79 g/m*3 16.1 C 0 km/h
2865 01-10-2007 20:54:01 16.1 C 11.93 g/m*3 16.1 C 0 km/h
2866 01-10-2007 20:57:01 16.1 C 11.93 g/m*3 16.1 C 0 km/h
2867 01-10-2007 21:00:01 16.2 C 12 g/m*3 16.2 C 0 km/h
2868 01-10-2007 21:03:01 16.2 C 12 g/m*3 16.2 C 0 km/h
2869 01-10-2007 21:06:01 16.2 C 12 g/m*3 16.2 C 0 km/h
2870 01-10-2007 21:09:01 16.2 C 12 g/m*3 16.2 C 0 km/h
2871 01-10-2007 21:12:01 16.2 C 12 g/m*3 16.2 C 0 km/h
2872 01-10-2007 21:15:01 16.2 C 12 g/m*3 16.2 C 0 km/h
2873 01-10-2007 21:18:01 16.2 C 12 g/m*3 16.2 C 0 km/h
2874 01-10-2007 21:21:01 16.2 C 11.86 g/m*3 16.2 C 0 km/h
2875 01-10-2007 21:24:01 16.2 C 11.86 g/m*3 16.2 C 0 km/h
Sensor: Nr:Datum:Temp:Abs-Feuchte:Windchill:Wind:
Aussen-T/F 2876 01-10-2007 21:27:01 16.2 C 11.86 g/m*3 16.2 C 0 km/h
2877 01-10-2007 21:30:01 16.2 C 11.86 g/m*3 16.2 C 0 km/h
2878 01-10-2007 21:33:02 16.2 C 11.86 g/m*3 16.2 C 0 km/h
2879 01-10-2007 21:36:02 16.2 C 11.86 g/m*3 16.2 C 0 km/h
2880 01-10-2007 21:39:02 16.2 C 11.86 g/m*3 16.2 C 0 km/h
2881 01-10-2007 21:42:02 16.2 C 11.86 g/m*3 16.2 C 0 km/h
2882 01-10-2007 21:45:01 16.2 C 11.86 g/m*3 16.2 C 0 km/h
2883 01-10-2007 21:48:01 16.2 C 11.86 g/m*3 16.2 C 0 km/h
2884 01-10-2007 21:51:01 16.2 C 11.86 g/m*3 16.2 C 0 km/h
2885 01-10-2007 21:54:01 16.1 C 11.79 g/m*3 16.1 C 0 km/h
2886 01-10-2007 21:57:01 16.1 C 11.79 g/m*3 16.1 C 0 km/h
2887 01-10-2007 22:00:01 16.1 C 11.79 g/m*3 16.1 C 0 km/h
2888 01-10-2007 22:03:01 16.1 C 11.79 g/m*3 16.1 C 0 km/h
2889 01-10-2007 22:06:01 16 C 11.72 g/m*3 16 C 0 km/h
2890 01-10-2007 22:09:01 16 C 11.72 g/m*3 16 C 0 km/h
2891 01-10-2007 22:12:01 16.1 C 11.65 g/m*3 16.1 C 0 km/h
2892 01-10-2007 22:15:01 16 C 11.58 g/m*3 16 C 0 km/h
2893 01-10-2007 22:18:01 16 C 11.58 g/m*3 16 C 0 km/h
2894 01-10-2007 22:21:01 16 C 11.58 g/m*3 16 C 0 km/h
2895 01-10-2007 22:24:01 16 C 11.58 g/m*3 16 C 0 km/h
2896 01-10-2007 22:27:01 16 C 11.58 g/m*3 16 C 0 km/h
2897 01-10-2007 22:30:01 16 C 11.58 g/m*3 16 C 0 km/h
2898 01-10-2007 22:33:02 16 C 11.58 g/m*3 16 C 0 km/h
2899 01-10-2007 22:36:02 16 C 11.58 g/m*3 16 C 0 km/h
2900 01-10-2007 22:39:02 16 C 11.58 g/m*3 16 C 0 km/h
Sensor: Nr:Datum:Temp:Abs-Feuchte:Windchill:Wind:
Aussen-T/F 2901 01-10-2007 22:42:02 16 C 11.58 g/m*3 16 C 0 km/h
2902 01-10-2007 22:45:01 16 C 11.58 g/m*3 16 C 0 km/h
2903 01-10-2007 22:48:01 16 C 11.58 g/m*3 16 C 0 km/h
2904 01-10-2007 22:51:01 16 C 11.58 g/m*3 16 C 0 km/h
2905 01-10-2007 22:54:01 16 C 11.58 g/m*3 16 C 0 km/h
2906 01-10-2007 22:57:01 16 C 11.58 g/m*3 16 C 0 km/h
2907 01-10-2007 23:00:01 16 C 11.58 g/m*3 16 C 0 km/h
2908 01-10-2007 23:03:01 16 C 11.58 g/m*3 16 C 0 km/h
2909 01-10-2007 23:06:01 16 C 11.58 g/m*3 16 C 0 km/h
2910 01-10-2007 23:09:01 16.1 C 11.65 g/m*3 16.1 C 0 km/h
2911 01-10-2007 23:12:01 16 C 11.58 g/m*3 16 C 0 km/h
2912 01-10-2007 23:15:02 16 C 11.58 g/m*3 16 C 0 km/h
2913 01-10-2007 23:18:02 16 C 11.58 g/m*3 16 C 0 km/h
2914 01-10-2007 23:21:02 16 C 11.58 g/m*3 16 C 0 km/h
2915 01-10-2007 23:24:02 16 C 11.44 g/m*3 16 C 0 km/h
2916 01-10-2007 23:27:02 16 C 11.44 g/m*3 16 C 0 km/h
2917 01-10-2007 23:30:02 16 C 11.44 g/m*3 16 C 0 km/h
2918 01-10-2007 23:33:02 16 C 11.44 g/m*3 16 C 0 km/h
2919 01-10-2007 23:36:02 16 C 11.44 g/m*3 16 C 0 km/h
2920 01-10-2007 23:39:02 16 C 11.44 g/m*3 16 C 0 km/h
2921 01-10-2007 23:42:02 15.9 C 11.51 g/m*3 15.9 C 0 km/h
2922 01-10-2007 23:45:01 15.8 C 11.44 g/m*3 15.8 C 0 km/h
2923 01-10-2007 23:48:01 15.8 C 11.44 g/m*3 15.8 C 0 km/h
2924 01-10-2007 23:51:01 15.7 C 11.37 g/m*3 15.7 C 0 km/h
2925 01-10-2007 23:54:01 15.7 C 11.37 g/m*3 15.7 C 0 km/h
Sensor: Nr:Datum:Temp:Abs-Feuchte:Windchill:Wind:
Aussen-T/F 2926 01-10-2007 23:57:01 15.6 C 11.3 g/m*3 15.6 C 0 km/h
2927 02-10-2007 00:00:01 15.5 C 11.24 g/m*3 15.5 C 0 km/h
2928 02-10-2007 00:03:02 15.4 C 11.17 g/m*3 15.4 C 0 km/h
2929 02-10-2007 00:06:02 15.3 C 11.1 g/m*3 15.3 C 0 km/h
2930 02-10-2007 00:09:02 15.3 C 11.1 g/m*3 15.3 C 0 km/h
2931 02-10-2007 00:12:02 15.2 C 11.03 g/m*3 15.2 C 0 km/h
2932 02-10-2007 00:15:02 15 C 10.9 g/m*3 15 C 0 km/h
2933 02-10-2007 00:18:02 14.9 C 10.96 g/m*3 14.9 C 0 km/h
2934 02-10-2007 00:21:02 14.8 C 10.89 g/m*3 14.8 C 0 km/h
2935 02-10-2007 00:24:02 14.8 C 10.89 g/m*3 14.8 C 0 km/h
2936 02-10-2007 00:27:02 14.8 C 10.89 g/m*3 14.8 C 0 km/h
2937 02-10-2007 00:30:02 14.7 C 10.83 g/m*3 14.7 C 0 km/h
2938 02-10-2007 00:33:01 14.7 C 10.83 g/m*3 14.7 C 0 km/h
2939 02-10-2007 00:36:01 14.7 C 10.95 g/m*3 14.7 C 0 km/h
2940 02-10-2007 00:39:01 14.6 C 10.89 g/m*3 14.6 C 0 km/h
2941 02-10-2007 00:42:01 14.6 C 10.89 g/m*3 14.6 C 0 km/h
2942 02-10-2007 00:45:02 14.7 C 10.95 g/m*3 14.7 C 0 km/h
2943 02-10-2007 00:48:03 14.5 C 10.82 g/m*3 14.5 C 0 km/h
2944 02-10-2007 00:51:03 14.4 C 10.75 g/m*3 14.4 C 0 km/h
2945 02-10-2007 00:54:03 14.4 C 10.75 g/m*3 14.4 C 0 km/h
2946 02-10-2007 00:57:03 14.4 C 10.75 g/m*3 14.4 C 0 km/h
2947 02-10-2007 01:00:03 14.4 C 10.75 g/m*3 14.4 C 0 km/h
2948 02-10-2007 01:03:03 14.4 C 10.75 g/m*3 14.4 C 0 km/h
2949 02-10-2007 01:06:03 14.4 C 10.88 g/m*3 14.4 C 0 km/h
2950 02-10-2007 01:09:03 14.5 C 10.94 g/m*3 14.5 C 0 km/h
Sensor: Nr:Datum:Temp:Abs-Feuchte:Windchill:Wind:
Aussen-T/F 2951 02-10-2007 01:12:03 14.4 C 10.88 g/m*3 14.4 C 0 km/h
2952 02-10-2007 01:15:02 14.4 C 10.88 g/m*3 14.4 C 0 km/h
2953 02-10-2007 01:18:03 14.3 C 10.81 g/m*3 14.3 C 0 km/h
2954 02-10-2007 01:21:03 14.5 C 10.94 g/m*3 14.5 C 0 km/h
2955 02-10-2007 01:24:03 14.4 C 10.88 g/m*3 14.4 C 0 km/h
2956 02-10-2007 01:27:03 14.4 C 10.88 g/m*3 14.4 C 0 km/h
2957 02-10-2007 01:30:03 14.4 C 10.88 g/m*3 14.4 C 0 km/h
2958 02-10-2007 01:33:03 14.3 C 10.81 g/m*3 14.3 C 0 km/h
2959 02-10-2007 01:36:03 14.3 C 10.81 g/m*3 14.3 C 0 km/h
2960 02-10-2007 01:39:03 14.3 C 10.81 g/m*3 14.3 C 0 km/h
2961 02-10-2007 01:42:03 14.3 C 10.81 g/m*3 14.3 C 0 km/h
2962 02-10-2007 01:45:02 14.4 C 10.88 g/m*3 14.4 C 0 km/h
2963 02-10-2007 01:48:02 14.4 C 10.88 g/m*3 14.4 C 0 km/h
2964 02-10-2007 01:51:02 14.3 C 10.81 g/m*3 14.3 C 0 km/h
2965 02-10-2007 01:54:02 14.2 C 10.75 g/m*3 14.2 C 0 km/h
2966 02-10-2007 01:57:02 14.2 C 10.75 g/m*3 14.2 C 0 km/h
2967 02-10-2007 02:00:03 14.1 C 10.68 g/m*3 14.1 C 0 km/h
2968 02-10-2007 02:03:02 14 C 10.61 g/m*3 14 C 0 km/h
2969 02-10-2007 02:06:02 14 C 10.61 g/m*3 14 C 0 km/h
2970 02-10-2007 02:09:02 14 C 10.61 g/m*3 14 C 0 km/h
2971 02-10-2007 02:12:03 14 C 10.61 g/m*3 14 C 0 km/h
2972 02-10-2007 02:15:02 14 C 10.74 g/m*3 14 C 0 km/h
2973 02-10-2007 02:18:02 13.9 C 10.67 g/m*3 13.9 C 0 km/h
2974 02-10-2007 02:21:02 13.9 C 10.67 g/m*3 13.9 C 0 km/h
2975 02-10-2007 02:24:02 13.9 C 10.67 g/m*3 13.9 C 0 km/h
Sensor: Nr:Datum:Temp:Abs-Feuchte:Windchill:Wind:
Aussen-T/F 2976 02-10-2007 02:27:02 13.9 C 10.67 g/m*3 13.9 C 0 km/h
2977 02-10-2007 02:30:02 13.9 C 10.79 g/m*3 13.9 C 0 km/h
2978 02-10-2007 02:33:02 13.9 C 10.79 g/m*3 13.9 C 0 km/h
2979 02-10-2007 02:36:02 13.9 C 10.79 g/m*3 13.9 C 0 km/h
2980 02-10-2007 02:39:02 13.9 C 10.79 g/m*3 13.9 C 0 km/h
2981 02-10-2007 02:42:02 13.8 C 10.72 g/m*3 13.8 C 0 km/h
2982 02-10-2007 02:46:04 13.8 C 10.72 g/m*3 13.8 C 0 km/h
2983 02-10-2007 02:49:04 13.8 C 10.72 g/m*3 13.8 C 0 km/h
2984 02-10-2007 02:52:04 13.7 C 10.66 g/m*3 13.7 C 0 km/h
2985 02-10-2007 02:55:04 13.7 C 10.66 g/m*3 13.7 C 0 km/h
2986 02-10-2007 02:58:04 13.6 C 10.59 g/m*3 13.6 C 0 km/h
2987 02-10-2007 03:01:04 13.5 C 10.53 g/m*3 13.5 C 0 km/h
2988 02-10-2007 03:04:04 13.5 C 10.53 g/m*3 13.5 C 0 km/h
2989 02-10-2007 03:07:04 13.5 C 10.64 g/m*3 13.5 C 0 km/h
2990 02-10-2007 03:10:04 13.5 C 10.64 g/m*3 13.5 C 0 km/h
2991 02-10-2007 03:13:05 13.4 C 10.58 g/m*3 13.4 C 0 km/h
2992 02-10-2007 03:16:05 13.4 C 10.58 g/m*3 13.4 C 0 km/h
2993 02-10-2007 03:19:05 13.4 C 10.58 g/m*3 13.4 C 0 km/h
2994 02-10-2007 03:22:05 13.3 C 10.51 g/m*3 13.3 C 0 km/h
2995 02-10-2007 03:25:05 13.3 C 10.51 g/m*3 13.3 C 0 km/h
2996 02-10-2007 03:28:05 13.4 C 10.58 g/m*3 13.4 C 0 km/h
2997 02-10-2007 03:31:02 13.4 C 10.58 g/m*3 13.4 C 0 km/h
2998 02-10-2007 03:34:03 13.4 C 10.58 g/m*3 13.4 C 0 km/h
2999 02-10-2007 03:37:03 13.4 C 10.58 g/m*3 13.4 C 0 km/h
3000 02-10-2007 03:40:03 13.5 C 10.64 g/m*3 13.5 C 0 km/h
Sensor: Nr:Datum:Temp:Abs-Feuchte:Windchill:Wind:
Aussen-T/F 3001 02-10-2007 03:43:03 13.5 C 10.64 g/m*3 13.5 C 0 km/h
3002 02-10-2007 03:46:03 13.6 C 10.83 g/m*3 13.6 C 0 km/h
3003 02-10-2007 03:49:03 13.6 C 10.83 g/m*3 13.6 C 0 km/h
3004 02-10-2007 03:52:03 13.6 C 10.83 g/m*3 13.6 C 0 km/h
3005 02-10-2007 03:55:03 13.6 C 10.83 g/m*3 13.6 C 0 km/h
3006 02-10-2007 03:58:03 13.6 C 10.83 g/m*3 13.6 C 0 km/h
3007 02-10-2007 04:01:02 13.6 C 10.83 g/m*3 13.6 C 0 km/h
3008 02-10-2007 04:04:02 13.6 C 10.83 g/m*3 13.6 C 0 km/h
3009 02-10-2007 04:07:02 13.7 C 10.89 g/m*3 13.7 C 0 km/h
3010 02-10-2007 04:10:02 13.7 C 10.89 g/m*3 13.7 C 0 km/h
3011 02-10-2007 04:13:02 13.6 C 10.83 g/m*3 13.6 C 0 km/h
3012 02-10-2007 04:16:03 13.7 C 10.89 g/m*3 13.7 C 0 km/h
3013 02-10-2007 04:19:03 13.7 C 10.89 g/m*3 13.7 C 0 km/h
3014 02-10-2007 04:22:03 13.7 C 10.89 g/m*3 13.7 C 0 km/h
3015 02-10-2007 04:25:03 13.7 C 10.89 g/m*3 13.7 C 0 km/h
3016 02-10-2007 04:28:03 13.8 C 10.96 g/m*3 13.8 C 0 km/h
3017 02-10-2007 04:31:02 13.8 C 10.96 g/m*3 13.8 C 0 km/h
3018 02-10-2007 04:34:02 13.8 C 10.96 g/m*3 13.8 C 0 km/h
3019 02-10-2007 04:37:02 13.9 C 11.03 g/m*3 13.9 C 0 km/h
3020 02-10-2007 04:40:02 13.8 C 10.96 g/m*3 13.8 C 0 km/h
3021 02-10-2007 04:43:02 13.8 C 10.96 g/m*3 13.8 C 0 km/h
3022 02-10-2007 04:46:02 13.8 C 10.96 g/m*3 13.8 C 0 km/h
3023 02-10-2007 04:49:02 13.8 C 10.96 g/m*3 13.8 C 0 km/h
3024 02-10-2007 04:52:02 13.8 C 10.96 g/m*3 13.8 C 0 km/h
3025 02-10-2007 04:55:02 13.8 C 10.96 g/m*3 13.8 C 0 km/h
Sensor: Nr:Datum:Temp:Abs-Feuchte:Windchill:Wind:
Aussen-T/F 3026 02-10-2007 04:58:02 13.8 C 10.96 g/m*3 13.8 C 0 km/h
3027 02-10-2007 05:01:02 13.8 C 10.96 g/m*3 13.8 C 0 km/h
3028 02-10-2007 05:04:02 13.8 C 10.96 g/m*3 13.8 C 0 km/h
3029 02-10-2007 05:07:02 13.8 C 10.96 g/m*3 13.8 C 0 km/h
3030 02-10-2007 05:10:02 13.8 C 10.96 g/m*3 13.8 C 0 km/h
3031 02-10-2007 05:13:02 13.8 C 10.96 g/m*3 13.8 C 0 km/h
3032 02-10-2007 05:16:02 13.8 C 10.96 g/m*3 13.8 C 0 km/h
3033 02-10-2007 05:19:02 13.8 C 10.96 g/m*3 13.8 C 0 km/h
3034 02-10-2007 05:22:02 13.8 C 10.96 g/m*3 13.8 C 0 km/h
3035 02-10-2007 05:25:02 13.8 C 10.96 g/m*3 13.8 C 0 km/h
3036 02-10-2007 05:28:03 13.8 C 10.96 g/m*3 13.8 C 0 km/h
3037 02-10-2007 05:31:02 13.8 C 10.96 g/m*3 13.8 C 0 km/h
3038 02-10-2007 05:34:02 13.8 C 10.96 g/m*3 13.8 C 0 km/h
3039 02-10-2007 05:37:03 13.8 C 10.96 g/m*3 13.8 C 0 km/h
3040 02-10-2007 05:40:03 13.8 C 10.96 g/m*3 13.8 C 0 km/h
3041 02-10-2007 05:43:03 13.8 C 10.96 g/m*3 13.8 C 0 km/h
3042 02-10-2007 05:46:02 13.8 C 10.96 g/m*3 13.8 C 0 km/h
3043 02-10-2007 05:49:02 13.8 C 10.96 g/m*3 13.8 C 0 km/h
3044 02-10-2007 05:52:02 13.8 C 10.96 g/m*3 13.8 C 0 km/h
3045 02-10-2007 05:55:02 13.8 C 10.96 g/m*3 13.8 C 0 km/h
3046 02-10-2007 05:58:02 13.8 C 10.96 g/m*3 13.8 C 0 km/h
3047 02-10-2007 06:01:02 13.8 C 10.96 g/m*3 13.8 C 0 km/h
3048 02-10-2007 06:04:02 13.8 C 10.96 g/m*3 13.8 C 0 km/h
3049 02-10-2007 06:07:02 13.8 C 10.96 g/m*3 13.8 C 0 km/h
3050 02-10-2007 06:10:03 13.8 C 10.96 g/m*3 13.8 C 0 km/h
Sensor: Nr:Datum:Temp:Abs-Feuchte:Windchill:Wind:
Aussen-T/F 3051 02-10-2007 06:13:03 13.8 C 10.96 g/m*3 13.8 C 0 km/h
3052 02-10-2007 06:16:02 13.8 C 10.96 g/m*3 13.8 C 0 km/h
3053 02-10-2007 06:19:02 13.8 C 10.96 g/m*3 13.8 C 0 km/h
3054 02-10-2007 06:22:02 13.8 C 10.96 g/m*3 13.8 C 0 km/h
3055 02-10-2007 06:25:02 13.8 C 10.96 g/m*3 13.8 C 0 km/h
3056 02-10-2007 06:28:02 13.8 C 10.96 g/m*3 13.8 C 0 km/h
3057 02-10-2007 06:31:03 13.8 C 10.96 g/m*3 13.8 C 0 km/h
3058 02-10-2007 06:34:03 13.7 C 10.89 g/m*3 13.7 C 0 km/h
3059 02-10-2007 06:37:03 13.7 C 10.89 g/m*3 13.7 C 0 km/h
3060 02-10-2007 06:40:03 13.8 C 10.96 g/m*3 13.8 C 0 km/h
3061 02-10-2007 06:43:03 13.8 C 10.96 g/m*3 13.8 C 0 km/h
3062 02-10-2007 06:46:02 13.8 C 10.96 g/m*3 13.8 C 0 km/h
3063 02-10-2007 06:49:02 13.8 C 10.96 g/m*3 13.8 C 0 km/h
3064 02-10-2007 06:52:03 13.8 C 10.96 g/m*3 13.8 C 0 km/h
3065 02-10-2007 06:55:03 13.7 C 10.89 g/m*3 13.7 C 0 km/h
3066 02-10-2007 06:58:03 13.7 C 10.89 g/m*3 13.7 C 0 km/h
3067 02-10-2007 07:01:02 13.7 C 10.89 g/m*3 13.7 C 0 km/h
3068 02-10-2007 07:04:02 13.7 C 10.89 g/m*3 13.7 C 0 km/h
3069 02-10-2007 07:07:02 13.7 C 10.89 g/m*3 13.7 C 0 km/h
3070 02-10-2007 07:10:02 13.7 C 10.89 g/m*3 13.7 C 0 km/h
3071 02-10-2007 07:13:02 13.7 C 10.89 g/m*3 13.7 C 0 km/h
3072 02-10-2007 07:16:02 13.7 C 10.89 g/m*3 13.7 C 0 km/h
3073 02-10-2007 07:19:02 13.7 C 10.89 g/m*3 13.7 C 0 km/h
3074 02-10-2007 07:22:02 13.7 C 10.89 g/m*3 13.7 C 0 km/h
3075 02-10-2007 07:25:02 13.8 C 10.96 g/m*3 13.8 C 0 km/h
Sensor: Nr:Datum:Temp:Abs-Feuchte:Windchill:Wind:
Aussen-T/F 3076 02-10-2007 07:28:02 13.8 C 10.96 g/m*3 13.8 C 0 km/h
3077 02-10-2007 07:31:02 13.8 C 10.96 g/m*3 13.8 C 0 km/h
3078 02-10-2007 07:34:02 13.9 C 11.03 g/m*3 13.9 C 0 km/h
3079 02-10-2007 07:37:02 13.9 C 11.03 g/m*3 13.9 C 0 km/h
3080 02-10-2007 07:40:02 13.9 C 11.03 g/m*3 13.9 C 0 km/h
3081 02-10-2007 07:43:02 14 C 11.1 g/m*3 14 C 0 km/h
3082 02-10-2007 07:46:03 14 C 11.1 g/m*3 14 C 0 km/h
3083 02-10-2007 07:49:03 14 C 11.1 g/m*3 14 C 0 km/h
3084 02-10-2007 07:52:03 14 C 11.1 g/m*3 14 C 0 km/h
3085 02-10-2007 07:55:03 14.1 C 11.17 g/m*3 14.1 C 0 km/h
3086 02-10-2007 07:58:03 14.1 C 11.17 g/m*3 14.1 C 0 km/h
3087 02-10-2007 08:01:03 14.1 C 11.17 g/m*3 14.1 C 0 km/h
3088 02-10-2007 08:04:03 14.2 C 11.23 g/m*3 14.2 C 0 km/h
3089 02-10-2007 08:07:03 14.2 C 11.23 g/m*3 14.2 C 0 km/h
3090 02-10-2007 08:10:03 14.3 C 11.3 g/m*3 14.3 C 0 km/h
3091 02-10-2007 08:13:03 14.4 C 11.37 g/m*3 14.4 C 0 km/h
3092 02-10-2007 08:16:03 14.4 C 11.37 g/m*3 14.4 C 0 km/h
3093 02-10-2007 08:19:03 14.4 C 11.37 g/m*3 14.4 C 0 km/h
3094 02-10-2007 08:22:03 14.4 C 11.37 g/m*3 14.4 C 0 km/h
3095 02-10-2007 08:25:03 14.4 C 11.37 g/m*3 14.4 C 0 km/h
3096 02-10-2007 08:28:03 14.5 C 11.32 g/m*3 14.5 C 0 km/h
3097 02-10-2007 08:31:02 14.5 C 11.32 g/m*3 14.5 C 0 km/h
3098 02-10-2007 08:34:02 14.6 C 11.39 g/m*3 14.6 C 0 km/h
3099 02-10-2007 08:37:02 14.6 C 11.39 g/m*3 14.6 C 0 km/h
3100 02-10-2007 08:40:02 14.7 C 11.46 g/m*3 14.7 C 0 km/h
Sensor: Nr:Datum:Temp:Abs-Feuchte:Windchill:Wind:
Aussen-T/F 3101 02-10-2007 08:43:02 14.7 C 11.46 g/m*3 14.7 C 0 km/h
3102 02-10-2007 08:46:02 14.7 C 11.46 g/m*3 14.7 C 0 km/h
3103 02-10-2007 08:49:02 14.7 C 11.46 g/m*3 14.7 C 0 km/h
3104 02-10-2007 08:52:02 14.7 C 11.46 g/m*3 14.7 C 0 km/h
3105 02-10-2007 08:55:02 14.8 C 11.53 g/m*3 14.8 C 0 km/h
3106 02-10-2007 08:58:02 15 C 11.54 g/m*3 15 C 0 km/h
3107 02-10-2007 09:01:03 14.9 C 11.6 g/m*3 14.9 C 0 km/h
3108 02-10-2007 09:04:03 14.9 C 11.6 g/m*3 14.9 C 0 km/h
3109 02-10-2007 09:07:03 14.9 C 11.47 g/m*3 14.9 C 0 km/h
3110 02-10-2007 09:10:03 14.8 C 11.4 g/m*3 14.8 C 0 km/h
3111 02-10-2007 09:13:03 14.8 C 11.4 g/m*3 14.8 C 0 km/h
3112 02-10-2007 09:16:03 14.9 C 11.47 g/m*3 14.9 C 0 km/h
3113 02-10-2007 09:19:03 15 C 11.41 g/m*3 15 C 0 km/h
3114 02-10-2007 09:22:03 15.1 C 11.48 g/m*3 15.1 C 0 km/h
3115 02-10-2007 09:25:03 15.2 C 11.55 g/m*3 15.2 C 0 km/h
3116 02-10-2007 09:28:03 15.2 C 11.55 g/m*3 15.2 C 0 km/h
3117 02-10-2007 09:31:02 15.3 C 11.62 g/m*3 15.3 C 0 km/h
3118 02-10-2007 09:34:02 15.4 C 11.69 g/m*3 15.4 C 0 km/h
3119 02-10-2007 09:37:02 15.4 C 11.69 g/m*3 15.4 C 0 km/h
3120 02-10-2007 09:40:02 15.4 C 11.56 g/m*3 15.4 C 0 km/h
3121 02-10-2007 09:43:02 15.5 C 11.63 g/m*3 15.5 C 0 km/h
3122 02-10-2007 09:46:02 15.5 C 11.63 g/m*3 15.5 C 0 km/h
3123 02-10-2007 09:49:02 15.6 C 11.7 g/m*3 15.6 C 0 km/h
3124 02-10-2007 09:52:02 15.6 C 11.57 g/m*3 15.6 C 0 km/h
3125 02-10-2007 09:55:02 15.7 C 11.64 g/m*3 15.7 C 0 km/h
Sensor: Nr:Datum:Temp:Abs-Feuchte:Windchill:Wind:
Aussen-T/F 3126 02-10-2007 09:58:02 15.7 C 11.64 g/m*3 15.7 C 0 km/h
3127 02-10-2007 10:01:03 15.7 C 11.64 g/m*3 15.7 C 0 km/h
3128 02-10-2007 10:04:03 15.8 C 11.71 g/m*3 15.8 C 0 km/h
3129 02-10-2007 10:07:03 15.9 C 11.78 g/m*3 15.9 C 0 km/h
3130 02-10-2007 10:10:03 16 C 11.58 g/m*3 16 C 0 km/h
3131 02-10-2007 10:13:03 16 C 11.58 g/m*3 16 C 0 km/h
3132 02-10-2007 10:16:03 16.1 C 11.65 g/m*3 16.1 C 0 km/h
3133 02-10-2007 10:19:03 16.2 C 11.72 g/m*3 16.2 C 0 km/h
3134 02-10-2007 10:22:03 16.3 C 11.65 g/m*3 16.3 C 0 km/h
3135 02-10-2007 10:25:03 16.4 C 11.72 g/m*3 16.4 C 0 km/h
3136 02-10-2007 10:28:03 16.5 C 11.65 g/m*3 16.5 C 0 km/h
3137 02-10-2007 10:31:02 16.6 C 11.72 g/m*3 16.6 C 0 km/h
3138 02-10-2007 10:34:02 16.6 C 11.58 g/m*3 16.6 C 0 km/h
3139 02-10-2007 10:37:02 16.8 C 11.72 g/m*3 16.8 C 0 km/h
3140 02-10-2007 10:40:02 16.9 C 11.79 g/m*3 16.9 C 0 km/h
3141 02-10-2007 10:43:02 16.9 C 11.65 g/m*3 16.9 C 0 km/h
3142 02-10-2007 10:46:02 17 C 11.43 g/m*3 17 C 0 km/h
3143 02-10-2007 10:49:02 17 C 11.43 g/m*3 17 C 0 km/h
3144 02-10-2007 10:52:02 17.1 C 11.5 g/m*3 17.1 C 0 km/h
3145 02-10-2007 10:55:02 17.3 C 11.64 g/m*3 17.3 C 0 km/h
3146 02-10-2007 10:58:02 17.4 C 11.71 g/m*3 17.4 C 0 km/h
3147 02-10-2007 11:01:02 17.4 C 11.71 g/m*3 17.4 C 0 km/h
3148 02-10-2007 11:04:02 17.8 C 11.84 g/m*3 17.8 C 0 km/h
3149 02-10-2007 11:07:02 17.7 C 11.62 g/m*3 17.7 C 0 km/h
3150 02-10-2007 11:10:02 17.8 C 11.69 g/m*3 17.8 C 0 km/h
Sensor: Nr:Datum:Temp:Abs-Feuchte:Windchill:Wind:
Aussen-T/F 3151 02-10-2007 11:13:02 17.9 C 11.76 g/m*3 17.9 C 0 km/h
3152 02-10-2007 11:16:01 18 C 11.67 g/m*3 18 C 0 km/h
3153 02-10-2007 11:19:01 18 C 11.52 g/m*3 18 C 0 km/h
3154 02-10-2007 11:22:01 18.1 C 11.43 g/m*3 18.1 C 0 km/h
3155 02-10-2007 11:25:01 18.1 C 11.43 g/m*3 18.1 C 0 km/h
3156 02-10-2007 11:28:01 18.1 C 11.43 g/m*3 18.1 C 0 km/h
3157 02-10-2007 11:31:02 18.1 C 11.43 g/m*3 18.1 C 0 km/h
3158 02-10-2007 11:34:02 18.2 C 11.5 g/m*3 18.2 C 0 km/h
3159 02-10-2007 11:37:02 18.3 C 11.57 g/m*3 18.3 C 0 km/h
3160 02-10-2007 11:40:02 18.4 C 11.64 g/m*3 18.4 C 0 km/h
3161 02-10-2007 11:43:02 18.5 C 11.55 g/m*3 18.5 C 0 km/h
3162 02-10-2007 11:46:02 18.6 C 11.62 g/m*3 18.6 C 0 km/h
3163 02-10-2007 11:49:02 18.7 C 11.53 g/m*3 18.7 C 0 km/h
3164 02-10-2007 11:52:02 18.7 C 11.37 g/m*3 18.7 C 0 km/h
3165 02-10-2007 11:55:02 18.9 C 11.5 g/m*3 18.9 C 0 km/h
3166 02-10-2007 11:58:02 19 C 11.57 g/m*3 19 C 0 km/h
3167 02-10-2007 12:01:02 19.1 C 11.64 g/m*3 19.1 C 0 km/h
3168 02-10-2007 12:04:02 19.1 C 11.47 g/m*3 19.1 C 0 km/h
3169 02-10-2007 12:07:02 19.1 C 11.31 g/m*3 19.1 C 0 km/h
3170 02-10-2007 12:10:02 19 C 11.24 g/m*3 19 C 0 km/h
3171 02-10-2007 12:13:02 19 C 11.24 g/m*3 19 C 0 km/h
3172 02-10-2007 12:16:02 19.1 C 11.31 g/m*3 19.1 C 0 km/h
3173 02-10-2007 12:19:02 19.1 C 11.31 g/m*3 19.1 C 0 km/h
3174 02-10-2007 12:22:02 19.2 C 11.38 g/m*3 19.2 C 0 km/h
3175 02-10-2007 12:25:02 19.4 C 11.51 g/m*3 19.4 C 0 km/h
Sensor: Nr:Datum:Temp:Abs-Feuchte:Windchill:Wind:
Aussen-T/F 3176 02-10-2007 12:28:02 19.5 C 11.58 g/m*3 19.5 C 0 km/h
3177 02-10-2007 12:31:02 19.5 C 11.41 g/m*3 19.5 C 0 km/h
3178 02-10-2007 12:34:02 19.6 C 11.31 g/m*3 19.6 C 0 km/h
3179 02-10-2007 12:37:02 19.5 C 11.24 g/m*3 19.5 C 0 km/h
3180 02-10-2007 12:40:02 19.7 C 11.21 g/m*3 19.7 C 0 km/h
3181 02-10-2007 12:43:02 19.7 C 11.21 g/m*3 19.7 C 0 km/h
3182 02-10-2007 12:46:01 19.7 C 11.21 g/m*3 19.7 C 0 km/h
3183 02-10-2007 12:49:01 19.8 C 11.27 g/m*3 19.8 C 0 km/h
3184 02-10-2007 12:52:01 19.9 C 11.34 g/m*3 19.9 C 0 km/h
3185 02-10-2007 12:55:01 20 C 11.23 g/m*3 20 C 0 km/h
3186 02-10-2007 12:58:01 20.2 C 11.37 g/m*3 20.2 C 0 km/h
3187 02-10-2007 13:01:02 20.5 C 11.39 g/m*3 20.5 C 0 km/h
3188 02-10-2007 13:04:02 20.4 C 11.32 g/m*3 20.4 C 0 km/h
3189 02-10-2007 13:07:02 20.5 C 11.39 g/m*3 20.5 C 0 km/h
3190 02-10-2007 13:10:02 20.4 C 11.32 g/m*3 20.4 C 0 km/h
3191 02-10-2007 13:13:02 20.3 C 11.26 g/m*3 20.3 C 0 km/h
3192 02-10-2007 13:16:02 20.7 C 11.52 g/m*3 20.7 C 0 km/h
3193 02-10-2007 13:19:02 20.9 C 11.66 g/m*3 20.9 C 0 km/h
3194 02-10-2007 13:22:02 21 C 11.54 g/m*3 21 C 0 km/h
3195 02-10-2007 13:25:02 21.1 C 11.42 g/m*3 21.1 C 0 km/h
3196 02-10-2007 13:28:02 21.2 C 11.49 g/m*3 21.2 C 0 km/h
3197 02-10-2007 13:31:02 21.2 C 11.3 g/m*3 21.2 C 0 km/h
3198 02-10-2007 13:34:02 21 C 11.17 g/m*3 21 C 0 km/h
3199 02-10-2007 13:37:02 20.8 C 11.23 g/m*3 20.8 C 0 km/h
3200 02-10-2007 13:40:02 20.8 C 11.41 g/m*3 20.8 C 0 km/h
Sensor: Nr:Datum:Temp:Abs-Feuchte:Windchill:Wind:
Aussen-T/F 3201 02-10-2007 13:43:02 20.9 C 11.66 g/m*3 20.9 C 0 km/h
3202 02-10-2007 13:46:01 21 C 11.36 g/m*3 21 C 0 km/h
3203 02-10-2007 13:49:01 21.3 C 11.56 g/m*3 21.3 C 0 km/h
3204 02-10-2007 13:52:01 21.3 C 11.37 g/m*3 21.3 C 0 km/h
3205 02-10-2007 13:55:01 21.4 C 11.44 g/m*3 21.4 C 0 km/h
3206 02-10-2007 13:58:01 21.4 C 11.25 g/m*3 21.4 C 0 km/h
3207 02-10-2007 14:01:02 21.4 C 11.44 g/m*3 21.4 C 0 km/h
3208 02-10-2007 14:04:02 21.4 C 11.44 g/m*3 21.4 C 0 km/h
3209 02-10-2007 14:07:02 21.6 C 11.57 g/m*3 21.6 C 0 km/h
3210 02-10-2007 14:10:02 21.7 C 11.45 g/m*3 21.7 C 0 km/h
3211 02-10-2007 14:13:02 21.8 C 11.51 g/m*3 21.8 C 0 km/h
3212 02-10-2007 14:16:02 21.8 C 11.51 g/m*3 21.8 C 0 km/h
3213 02-10-2007 14:19:02 22 C 11.26 g/m*3 22 C 0 km/h
3214 02-10-2007 14:22:02 22.2 C 11.39 g/m*3 22.2 C 0 km/h
3215 02-10-2007 14:25:02 22.3 C 11.26 g/m*3 22.3 C 0 km/h
3216 02-10-2007 14:28:02 22.2 C 11.19 g/m*3 22.2 C 0 km/h
3217 02-10-2007 14:31:02 22.2 C 11.19 g/m*3 22.2 C 0 km/h
3218 02-10-2007 14:34:02 22.3 C 11.45 g/m*3 22.3 C 0 km/h
3219 02-10-2007 14:37:02 22.4 C 11.32 g/m*3 22.4 C 0 km/h
3220 02-10-2007 14:40:02 22.5 C 11.39 g/m*3 22.5 C 0 km/h
3221 02-10-2007 14:43:02 22.7 C 11.52 g/m*3 22.7 C 0 km/h
3222 02-10-2007 14:46:02 22.8 C 11.38 g/m*3 22.8 C 0 km/h
3223 02-10-2007 14:49:02 22.6 C 11.05 g/m*3 22.6 C 0 km/h
3224 02-10-2007 14:52:02 22.7 C 11.11 g/m*3 22.7 C 0 km/h
3225 02-10-2007 14:55:02 22.5 C 10.99 g/m*3 22.5 C 0 km/h
Sensor: Nr:Datum:Temp:Abs-Feuchte:Windchill:Wind:
Aussen-T/F 3226 02-10-2007 14:58:02 22.7 C 11.31 g/m*3 22.7 C 0 km/h